Darstellungsparameter: Aktuell verwendete Einstellungen:
Skalierung der Graphiken ... ?
xyx+y,   Skalierungsfaktor:      Skalierung: Modus: x, Faktor: 1
Darstellungszeitraum ... ?
Vom - - bis: - -   Zeitraum: 30.11.2009 - 29.12.2009
Min/Max/Avg-Anzeige ... ?
Zeige MMA aktuell
Zeige MMA Monat
Zeige MMA alles
Zeige --A aktuell
Zeige --A Monat
Zeige --A alles
Keine MMA-Anzeige
MMA:
Average (ber die Originaldaten)
MMA-Basis: 30.11.2009 - 29.12.2009
Quicknavigation für Darstellung... ?
Tage:      1T, 2T, 3T, 5T -1T -2T -3T -5T +1T +2T +3T +5T
Wochen: 1W, 2W, 3W -1W -2W -3W +1W +2W +3W
Monate: 1M, 3M, 6M -1M -3M -6M +1M +3M +6M
Jahre:    1J, 3J, 5J, 10J -1J -3J -5J -10J +1J +3J +5J +10J
Nutze für die Darstellung ... ?
Originaldaten oder Mittelwerte auf ...
Stundenbasis Tagesbasis Wochenbasis
Monatsbasis Jahresbasis      Datenbasis: Original-Daten
Darstellen als:
Statistik (Auto) Statistik J:M      Darstellung:
Zur Graphik,    zurück zur Übersicht aller Sensoren.
 
Tabellarische Datenbersicht: ?
 
Sensor: Nr:Datum:Temp:Abs-Feuchte:Windchill:Wind:
Aussen-T/F 1 30-11-2009 00:00:03 6.9 C 7.31 g/m*3 6.9 C 0 km/h
2 30-11-2009 00:12:03 6.9 C 7.31 g/m*3 6.9 C 0 km/h
3 30-11-2009 00:24:03 6.7 C 7.22 g/m*3 6.7 C 0 km/h
4 30-11-2009 00:36:03 6.5 C 7.12 g/m*3 6.5 C 0 km/h
5 30-11-2009 00:48:03 6.4 C 7.08 g/m*3 6.4 C 0 km/h
6 30-11-2009 01:00:03 6.4 C 7.08 g/m*3 6.4 C 0 km/h
7 30-11-2009 01:12:03 6.4 C 7.08 g/m*3 6.4 C 0 km/h
8 30-11-2009 01:24:03 6.4 C 7.08 g/m*3 6.4 C 0 km/h
9 30-11-2009 01:36:03 6.4 C 7.08 g/m*3 6.4 C 0 km/h
10 30-11-2009 01:48:03 6.3 C 7.03 g/m*3 6.3 C 0 km/h
11 30-11-2009 02:00:03 6.2 C 6.99 g/m*3 6.2 C 0 km/h
12 30-11-2009 02:12:03 6.2 C 6.99 g/m*3 6.2 C 0 km/h
13 30-11-2009 02:24:03 6.3 C 7.03 g/m*3 6.3 C 0 km/h
14 30-11-2009 02:36:03 6.3 C 7.03 g/m*3 6.3 C 0 km/h
15 30-11-2009 02:48:03 6.2 C 6.99 g/m*3 6.2 C 0 km/h
16 30-11-2009 03:00:03 6.2 C 6.91 g/m*3 6.2 C 0 km/h
17 30-11-2009 03:12:03 6.1 C 6.87 g/m*3 6.1 C 0 km/h
18 30-11-2009 03:24:04 6.2 C 6.84 g/m*3 6.2 C 0 km/h
19 30-11-2009 03:36:04 6.2 C 6.77 g/m*3 6.2 C 0 km/h
20 30-11-2009 03:48:04 6.2 C 6.69 g/m*3 6.2 C 0 km/h
21 30-11-2009 04:00:04 6.2 C 6.69 g/m*3 6.2 C 0 km/h
22 30-11-2009 04:12:04 6.2 C 6.62 g/m*3 6.2 C 0 km/h
23 30-11-2009 04:24:04 6.2 C 6.62 g/m*3 6.2 C 0 km/h
24 30-11-2009 04:36:04 6.2 C 6.62 g/m*3 6.2 C 0 km/h
25 30-11-2009 04:48:04 6.3 C 6.66 g/m*3 6.3 C 0 km/h
Sensor: Nr:Datum:Temp:Abs-Feuchte:Windchill:Wind:
Aussen-T/F 26 30-11-2009 05:00:04 6.3 C 6.66 g/m*3 6.3 C 0 km/h
27 30-11-2009 05:12:04 6.4 C 6.71 g/m*3 6.4 C 0 km/h
28 30-11-2009 05:24:04 6.3 C 6.59 g/m*3 6.3 C 0 km/h
29 30-11-2009 05:36:04 6.3 C 6.66 g/m*3 6.3 C 0 km/h
30 30-11-2009 05:48:04 6.4 C 6.71 g/m*3 6.4 C 0 km/h
31 30-11-2009 06:00:04 6.4 C 6.71 g/m*3 6.4 C 0 km/h
32 30-11-2009 06:12:04 6.4 C 6.71 g/m*3 6.4 C 0 km/h
33 30-11-2009 06:24:04 6.2 C 6.55 g/m*3 6.2 C 0 km/h
34 30-11-2009 06:36:04 6.2 C 6.55 g/m*3 6.2 C 0 km/h
35 30-11-2009 06:48:04 6.1 C 6.5 g/m*3 6.1 C 0 km/h
36 30-11-2009 07:00:04 6 C 6.39 g/m*3 6 C 0 km/h
37 30-11-2009 07:12:02 6 C 6.39 g/m*3 6 C 0 km/h
38 30-11-2009 07:24:02 6 C 6.31 g/m*3 6 C 0 km/h
39 30-11-2009 07:36:02 5.9 C 6.42 g/m*3 5.9 C 0 km/h
40 30-11-2009 07:48:02 5.9 C 6.42 g/m*3 5.9 C 0 km/h
41 30-11-2009 08:00:02 5.8 C 6.45 g/m*3 5.8 C 0 km/h
42 30-11-2009 08:12:01 5.8 C 6.45 g/m*3 5.8 C 0 km/h
43 30-11-2009 08:24:01 5.6 C 6.29 g/m*3 5.6 C 0 km/h
44 30-11-2009 08:36:02 5.5 C 6.32 g/m*3 5.5 C 0 km/h
45 30-11-2009 08:48:02 5.6 C 6.36 g/m*3 5.6 C 0 km/h
46 30-11-2009 09:00:02 5.9 C 6.56 g/m*3 5.9 C 0 km/h
47 30-11-2009 09:12:02 6 C 6.53 g/m*3 6 C 0 km/h
48 30-11-2009 09:24:02 6.2 C 6.55 g/m*3 6.2 C 0 km/h
49 30-11-2009 09:36:02 6.3 C 6.59 g/m*3 6.3 C 0 km/h
50 30-11-2009 09:48:03 6.4 C 6.63 g/m*3 6.4 C 0 km/h
Sensor: Nr:Datum:Temp:Abs-Feuchte:Windchill:Wind:
Aussen-T/F 51 30-11-2009 10:00:03 6.4 C 6.56 g/m*3 6.4 C 0 km/h
52 30-11-2009 10:12:02 6.5 C 6.37 g/m*3 6.5 C 0 km/h
53 30-11-2009 10:24:02 6.7 C 6.38 g/m*3 6.7 C 0 km/h
54 30-11-2009 10:36:02 7 C 6.43 g/m*3 7 C 0 km/h
55 30-11-2009 10:48:02 7.1 C 6.47 g/m*3 7.1 C 0 km/h
56 30-11-2009 11:00:02 7.3 C 6.4 g/m*3 7.3 C 0 km/h
57 30-11-2009 11:12:02 7.4 C 6.28 g/m*3 7.4 C 0 km/h
58 30-11-2009 11:24:02 7.3 C 6.08 g/m*3 7.3 C 0 km/h
59 30-11-2009 11:36:01 7.4 C 6.12 g/m*3 7.4 C 0 km/h
60 30-11-2009 11:48:02 7.5 C 6.16 g/m*3 7.5 C 0 km/h
61 30-11-2009 12:00:02 7.6 C 6.12 g/m*3 7.6 C 0 km/h
62 30-11-2009 12:12:01 7.6 C 6.04 g/m*3 7.6 C 0 km/h
63 30-11-2009 12:24:02 7.8 C 6.04 g/m*3 7.8 C 0 km/h
64 30-11-2009 12:36:01 8 C 6.04 g/m*3 8 C 0 km/h
65 30-11-2009 12:48:02 8 C 5.87 g/m*3 8 C 0 km/h
66 30-11-2009 13:00:02 7.9 C 5.91 g/m*3 7.9 C 0 km/h
67 30-11-2009 13:12:02 8.2 C 5.95 g/m*3 8.2 C 0 km/h
68 30-11-2009 13:24:02 8.1 C 5.82 g/m*3 8.1 C 0 km/h
69 30-11-2009 13:36:03 8.1 C 5.74 g/m*3 8.1 C 0 km/h
70 30-11-2009 13:48:02 8.2 C 5.69 g/m*3 8.2 C 0 km/h
71 30-11-2009 14:00:02 8.3 C 5.65 g/m*3 8.3 C 0 km/h
72 30-11-2009 14:12:01 8.4 C 5.68 g/m*3 8.4 C 0 km/h
73 30-11-2009 14:24:02 8.3 C 5.65 g/m*3 8.3 C 0 km/h
74 30-11-2009 14:36:02 8.3 C 5.73 g/m*3 8.3 C 0 km/h
75 30-11-2009 14:48:02 8.3 C 5.65 g/m*3 8.3 C 0 km/h
Sensor: Nr:Datum:Temp:Abs-Feuchte:Windchill:Wind:
Aussen-T/F 76 30-11-2009 15:00:02 8.1 C 5.66 g/m*3 8.1 C 0 km/h
77 30-11-2009 15:12:03 8 C 5.7 g/m*3 8 C 0 km/h
78 30-11-2009 15:24:02 7.9 C 5.75 g/m*3 7.9 C 0 km/h
79 30-11-2009 15:36:02 7.8 C 5.88 g/m*3 7.8 C 0 km/h
80 30-11-2009 15:48:01 7.6 C 5.8 g/m*3 7.6 C 0 km/h
81 30-11-2009 16:00:01 7.3 C 5.77 g/m*3 7.3 C 0 km/h
82 30-11-2009 16:12:02 7 C 5.81 g/m*3 7 C 0 km/h
83 30-11-2009 16:24:01 6.6 C 5.89 g/m*3 6.6 C 0 km/h
84 30-11-2009 16:36:02 6.3 C 5.85 g/m*3 6.3 C 0 km/h
85 30-11-2009 16:48:02 6.1 C 5.84 g/m*3 6.1 C 0 km/h
86 30-11-2009 17:00:02 6 C 5.88 g/m*3 6 C 0 km/h
87 30-11-2009 17:12:02 5.9 C 5.91 g/m*3 5.9 C 0 km/h
88 30-11-2009 17:24:01 6 C 5.95 g/m*3 6 C 0 km/h
89 30-11-2009 17:36:02 6 C 5.95 g/m*3 6 C 0 km/h
90 30-11-2009 17:48:02 6 C 5.95 g/m*3 6 C 0 km/h
91 30-11-2009 18:00:02 6 C 6.02 g/m*3 6 C 0 km/h
92 30-11-2009 18:12:02 6 C 6.02 g/m*3 6 C 0 km/h
93 30-11-2009 18:24:01 5.9 C 6.06 g/m*3 5.9 C 0 km/h
94 30-11-2009 18:36:02 6 C 6.02 g/m*3 6 C 0 km/h
95 30-11-2009 18:48:02 6.1 C 6.06 g/m*3 6.1 C 0 km/h
96 30-11-2009 19:00:02 6 C 6.02 g/m*3 6 C 0 km/h
97 30-11-2009 19:12:02 6 C 6.02 g/m*3 6 C 0 km/h
98 30-11-2009 19:24:01 5.9 C 6.06 g/m*3 5.9 C 0 km/h
99 30-11-2009 19:36:02 5.9 C 6.13 g/m*3 5.9 C 0 km/h
100 30-11-2009 19:48:01 5.9 C 6.13 g/m*3 5.9 C 0 km/h
Sensor: Nr:Datum:Temp:Abs-Feuchte:Windchill:Wind:
Aussen-T/F 101 30-11-2009 20:00:01 5.9 C 6.13 g/m*3 5.9 C 0 km/h
102 30-11-2009 20:12:02 5.9 C 6.13 g/m*3 5.9 C 0 km/h
103 30-11-2009 20:24:02 5.9 C 6.13 g/m*3 5.9 C 0 km/h
104 30-11-2009 20:36:02 5.9 C 6.13 g/m*3 5.9 C 0 km/h
105 30-11-2009 20:48:02 5.7 C 6.05 g/m*3 5.7 C 0 km/h
106 30-11-2009 21:00:02 5.7 C 6.05 g/m*3 5.7 C 0 km/h
107 30-11-2009 21:12:02 5.6 C 6.01 g/m*3 5.6 C 0 km/h
108 30-11-2009 21:24:02 5.6 C 6.08 g/m*3 5.6 C 0 km/h
109 30-11-2009 21:36:01 5.5 C 6.04 g/m*3 5.5 C 0 km/h
110 30-11-2009 21:48:02 5.5 C 6.04 g/m*3 5.5 C 0 km/h
111 30-11-2009 22:00:02 5.4 C 6 g/m*3 5.4 C 0 km/h
112 30-11-2009 22:12:02 5.4 C 6 g/m*3 5.4 C 0 km/h
113 30-11-2009 22:24:02 5.3 C 6.03 g/m*3 5.3 C 0 km/h
114 30-11-2009 22:36:01 5.3 C 6.03 g/m*3 5.3 C 0 km/h
115 30-11-2009 22:48:01 5.2 C 5.99 g/m*3 5.2 C 0 km/h
116 30-11-2009 23:00:01 5.2 C 5.99 g/m*3 5.2 C 0 km/h
117 30-11-2009 23:12:01 5.4 C 6.07 g/m*3 5.4 C 0 km/h
118 30-11-2009 23:24:02 5.5 C 6.11 g/m*3 5.5 C 0 km/h
119 30-11-2009 23:36:01 5.4 C 6.07 g/m*3 5.4 C 0 km/h
120 30-11-2009 23:48:02 5.5 C 6.18 g/m*3 5.5 C 0 km/h
121 01-12-2009 00:00:02 5.5 C 6.18 g/m*3 5.5 C 0 km/h
122 01-12-2009 00:12:01 5.6 C 6.15 g/m*3 5.6 C 0 km/h
123 01-12-2009 00:24:01 5.6 C 6.15 g/m*3 5.6 C 0 km/h
124 01-12-2009 00:36:02 5.6 C 6.15 g/m*3 5.6 C 0 km/h
125 01-12-2009 00:48:02 5.6 C 6.15 g/m*3 5.6 C 0 km/h
Sensor: Nr:Datum:Temp:Abs-Feuchte:Windchill:Wind:
Aussen-T/F 126 01-12-2009 01:00:02 5.5 C 6.11 g/m*3 5.5 C 0 km/h
127 01-12-2009 01:12:02 5.5 C 6.11 g/m*3 5.5 C 0 km/h
128 01-12-2009 01:24:02 5.5 C 6.11 g/m*3 5.5 C 0 km/h
129 01-12-2009 01:36:02 5.5 C 6.11 g/m*3 5.5 C 0 km/h
130 01-12-2009 01:48:02 5.4 C 6.07 g/m*3 5.4 C 0 km/h
131 01-12-2009 02:00:02 5.4 C 6.14 g/m*3 5.4 C 0 km/h
132 01-12-2009 02:12:02 5.4 C 6.14 g/m*3 5.4 C 0 km/h
133 01-12-2009 02:24:02 5.4 C 6.14 g/m*3 5.4 C 0 km/h
134 01-12-2009 02:36:02 5.4 C 6.07 g/m*3 5.4 C 0 km/h
135 01-12-2009 02:48:01 5.4 C 6.07 g/m*3 5.4 C 0 km/h
136 01-12-2009 03:00:01 5.3 C 6.03 g/m*3 5.3 C 0 km/h
137 01-12-2009 03:12:01 5.3 C 5.96 g/m*3 5.3 C 0 km/h
138 01-12-2009 03:24:02 5.3 C 5.89 g/m*3 5.3 C 0 km/h
139 01-12-2009 03:36:01 5.3 C 5.89 g/m*3 5.3 C 0 km/h
140 01-12-2009 03:48:01 5.2 C 5.78 g/m*3 5.2 C 0 km/h
141 01-12-2009 04:00:01 5 C 5.71 g/m*3 5 C 0 km/h
142 01-12-2009 04:12:02 4.9 C 5.81 g/m*3 4.9 C 0 km/h
143 01-12-2009 04:24:01 4.8 C 5.77 g/m*3 4.8 C 0 km/h
144 01-12-2009 04:36:01 4.7 C 5.73 g/m*3 4.7 C 0 km/h
145 01-12-2009 04:48:01 4.7 C 5.73 g/m*3 4.7 C 0 km/h
146 01-12-2009 05:00:01 4.9 C 5.87 g/m*3 4.9 C 0 km/h
147 01-12-2009 05:12:02 4.9 C 5.94 g/m*3 4.9 C 0 km/h
148 01-12-2009 05:24:01 5 C 5.91 g/m*3 5 C 0 km/h
149 01-12-2009 05:36:01 5 C 5.91 g/m*3 5 C 0 km/h
150 01-12-2009 05:48:01 5 C 5.91 g/m*3 5 C 0 km/h
Sensor: Nr:Datum:Temp:Abs-Feuchte:Windchill:Wind:
Aussen-T/F 151 01-12-2009 06:00:01 5.1 C 5.95 g/m*3 5.1 C 0 km/h
152 01-12-2009 06:12:01 5.1 C 5.95 g/m*3 5.1 C 0 km/h
153 01-12-2009 06:24:02 5.1 C 5.95 g/m*3 5.1 C 0 km/h
154 01-12-2009 06:36:01 5 C 5.91 g/m*3 5 C 0 km/h
155 01-12-2009 06:48:02 5 C 5.91 g/m*3 5 C 0 km/h
156 01-12-2009 07:00:02 5 C 5.91 g/m*3 5 C 0 km/h
157 01-12-2009 07:12:01 5 C 5.98 g/m*3 5 C 0 km/h
158 01-12-2009 07:24:02 5 C 5.98 g/m*3 5 C 0 km/h
159 01-12-2009 07:36:01 5 C 5.98 g/m*3 5 C 0 km/h
160 01-12-2009 07:48:02 4.9 C 5.94 g/m*3 4.9 C 0 km/h
161 01-12-2009 08:00:02 4.8 C 5.9 g/m*3 4.8 C 0 km/h
162 01-12-2009 08:12:01 4.8 C 5.9 g/m*3 4.8 C 0 km/h
163 01-12-2009 08:24:01 4.8 C 5.97 g/m*3 4.8 C 0 km/h
164 01-12-2009 08:36:01 4.9 C 6.01 g/m*3 4.9 C 0 km/h
165 01-12-2009 08:48:02 4.9 C 6.01 g/m*3 4.9 C 0 km/h
166 01-12-2009 09:00:02 5 C 5.98 g/m*3 5 C 0 km/h
167 01-12-2009 09:12:01 5.1 C 6.02 g/m*3 5.1 C 0 km/h
168 01-12-2009 09:24:01 5.2 C 6.06 g/m*3 5.2 C 0 km/h
169 01-12-2009 09:36:02 5.3 C 6.1 g/m*3 5.3 C 0 km/h
170 01-12-2009 09:48:01 5.4 C 6.14 g/m*3 5.4 C 0 km/h
171 01-12-2009 10:00:01 5.5 C 6.11 g/m*3 5.5 C 0 km/h
172 01-12-2009 10:12:02 5.6 C 6.15 g/m*3 5.6 C 0 km/h
173 01-12-2009 10:24:01 5.7 C 6.12 g/m*3 5.7 C 0 km/h
174 01-12-2009 10:36:02 5.7 C 6.12 g/m*3 5.7 C 0 km/h
175 01-12-2009 10:48:01 5.8 C 6.09 g/m*3 5.8 C 0 km/h
Sensor: Nr:Datum:Temp:Abs-Feuchte:Windchill:Wind:
Aussen-T/F 176 01-12-2009 11:00:01 6.1 C 6.06 g/m*3 6.1 C 0 km/h
177 01-12-2009 11:12:02 6.3 C 6.07 g/m*3 6.3 C 0 km/h
178 01-12-2009 11:24:01 6.3 C 6 g/m*3 6.3 C 0 km/h
179 01-12-2009 11:36:01 6.4 C 6.04 g/m*3 6.4 C 0 km/h
180 01-12-2009 11:48:01 6.6 C 5.96 g/m*3 6.6 C 0 km/h
181 01-12-2009 12:00:01 6.7 C 5.85 g/m*3 6.7 C 0 km/h
182 01-12-2009 12:12:01 6.8 C 5.89 g/m*3 6.8 C 0 km/h
183 01-12-2009 12:24:01 6.8 C 5.81 g/m*3 6.8 C 0 km/h
184 01-12-2009 12:36:01 6.9 C 5.85 g/m*3 6.9 C 0 km/h
185 01-12-2009 12:48:01 6.9 C 5.77 g/m*3 6.9 C 0 km/h
186 01-12-2009 13:00:01 6.9 C 5.77 g/m*3 6.9 C 0 km/h
187 01-12-2009 13:12:01 6.9 C 5.77 g/m*3 6.9 C 0 km/h
188 01-12-2009 13:24:02 6.9 C 5.77 g/m*3 6.9 C 0 km/h
189 01-12-2009 13:36:01 6.9 C 5.7 g/m*3 6.9 C 0 km/h
190 01-12-2009 13:48:02 6.9 C 5.77 g/m*3 6.9 C 0 km/h
191 01-12-2009 14:00:02 6.8 C 5.74 g/m*3 6.8 C 0 km/h
192 01-12-2009 14:12:01 6.8 C 5.81 g/m*3 6.8 C 0 km/h
193 01-12-2009 14:24:02 6.8 C 5.74 g/m*3 6.8 C 0 km/h
194 01-12-2009 14:36:01 6.8 C 5.81 g/m*3 6.8 C 0 km/h
195 01-12-2009 14:48:02 6.8 C 5.81 g/m*3 6.8 C 0 km/h
196 01-12-2009 15:00:02 6.7 C 5.85 g/m*3 6.7 C 0 km/h
197 01-12-2009 15:12:01 6.6 C 5.89 g/m*3 6.6 C 0 km/h
198 01-12-2009 15:24:01 6.6 C 5.89 g/m*3 6.6 C 0 km/h
199 01-12-2009 15:36:01 6.5 C 5.85 g/m*3 6.5 C 0 km/h
200 01-12-2009 15:48:02 6.5 C 5.85 g/m*3 6.5 C 0 km/h
Sensor: Nr:Datum:Temp:Abs-Feuchte:Windchill:Wind:
Aussen-T/F 201 01-12-2009 16:00:02 6.4 C 5.81 g/m*3 6.4 C 0 km/h
202 01-12-2009 16:12:01 6.3 C 5.85 g/m*3 6.3 C 0 km/h
203 01-12-2009 16:24:01 6.2 C 5.81 g/m*3 6.2 C 0 km/h
204 01-12-2009 16:36:02 6.1 C 5.77 g/m*3 6.1 C 0 km/h
205 01-12-2009 16:48:01 6 C 5.81 g/m*3 6 C 0 km/h
206 01-12-2009 17:00:01 5.9 C 5.84 g/m*3 5.9 C 0 km/h
207 01-12-2009 17:12:02 5.9 C 5.84 g/m*3 5.9 C 0 km/h
208 01-12-2009 17:24:01 5.9 C 5.84 g/m*3 5.9 C 0 km/h
209 01-12-2009 17:36:02 5.8 C 5.87 g/m*3 5.8 C 0 km/h
210 01-12-2009 17:48:01 5.8 C 5.87 g/m*3 5.8 C 0 km/h
211 01-12-2009 18:00:01 5.8 C 5.87 g/m*3 5.8 C 0 km/h
212 01-12-2009 18:12:02 5.7 C 5.91 g/m*3 5.7 C 0 km/h
213 01-12-2009 18:24:01 5.8 C 5.95 g/m*3 5.8 C 0 km/h
214 01-12-2009 18:36:02 5.7 C 5.91 g/m*3 5.7 C 0 km/h
215 01-12-2009 18:48:02 5.7 C 5.91 g/m*3 5.7 C 0 km/h
216 01-12-2009 19:00:02 5.7 C 5.91 g/m*3 5.7 C 0 km/h
217 01-12-2009 19:12:01 5.6 C 5.87 g/m*3 5.6 C 0 km/h
218 01-12-2009 19:24:02 5.6 C 5.87 g/m*3 5.6 C 0 km/h
219 01-12-2009 19:36:01 5.6 C 5.87 g/m*3 5.6 C 0 km/h
220 01-12-2009 19:48:02 5.7 C 5.91 g/m*3 5.7 C 0 km/h
221 01-12-2009 20:00:02 5.6 C 5.87 g/m*3 5.6 C 0 km/h
222 01-12-2009 20:12:01 5.6 C 5.87 g/m*3 5.6 C 0 km/h
223 01-12-2009 20:24:02 5.5 C 5.83 g/m*3 5.5 C 0 km/h
224 01-12-2009 20:36:01 5.5 C 5.83 g/m*3 5.5 C 0 km/h
225 01-12-2009 20:48:02 5.5 C 5.83 g/m*3 5.5 C 0 km/h
Sensor: Nr:Datum:Temp:Abs-Feuchte:Windchill:Wind:
Aussen-T/F 226 01-12-2009 21:00:02 5.5 C 5.9 g/m*3 5.5 C 0 km/h
227 01-12-2009 21:12:01 5.5 C 5.9 g/m*3 5.5 C 0 km/h
228 01-12-2009 21:24:01 5.4 C 5.86 g/m*3 5.4 C 0 km/h
229 01-12-2009 21:36:02 5.4 C 5.86 g/m*3 5.4 C 0 km/h
230 01-12-2009 21:48:01 5.4 C 5.93 g/m*3 5.4 C 0 km/h
231 01-12-2009 22:00:01 5.6 C 6.01 g/m*3 5.6 C 0 km/h
232 01-12-2009 22:12:02 5.5 C 5.97 g/m*3 5.5 C 0 km/h
233 01-12-2009 22:25:05 5.4 C 5.93 g/m*3 5.4 C 0 km/h
234 01-12-2009 22:37:05 5.3 C 5.89 g/m*3 5.3 C 0 km/h
235 01-12-2009 22:49:05 5.3 C 5.89 g/m*3 5.3 C 0 km/h
236 01-12-2009 23:01:05 5.2 C 5.78 g/m*3 5.2 C 0 km/h
237 01-12-2009 23:13:05 5.2 C 5.78 g/m*3 5.2 C 0 km/h
238 01-12-2009 23:25:05 5.2 C 5.78 g/m*3 5.2 C 0 km/h
239 01-12-2009 23:37:05 5.2 C 5.78 g/m*3 5.2 C 0 km/h
240 01-12-2009 23:49:05 5.2 C 5.71 g/m*3 5.2 C 0 km/h
241 02-12-2009 00:01:06 5.2 C 5.65 g/m*3 5.2 C 0 km/h
242 02-12-2009 00:13:06 5.2 C 5.65 g/m*3 5.2 C 0 km/h
243 02-12-2009 00:25:06 5.2 C 5.58 g/m*3 5.2 C 0 km/h
244 02-12-2009 00:37:06 5.2 C 5.58 g/m*3 5.2 C 0 km/h
245 02-12-2009 00:49:06 5 C 5.44 g/m*3 5 C 0 km/h
246 02-12-2009 01:01:06 4.8 C 5.43 g/m*3 4.8 C 0 km/h
247 02-12-2009 01:13:06 4.7 C 5.46 g/m*3 4.7 C 0 km/h
248 02-12-2009 01:25:06 4.6 C 5.49 g/m*3 4.6 C 0 km/h
249 02-12-2009 01:37:06 4.5 C 5.52 g/m*3 4.5 C 0 km/h
250 02-12-2009 01:49:06 4.3 C 5.45 g/m*3 4.3 C 0 km/h
Sensor: Nr:Datum:Temp:Abs-Feuchte:Windchill:Wind:
Aussen-T/F 251 02-12-2009 02:01:06 4.4 C 5.55 g/m*3 4.4 C 0 km/h
252 02-12-2009 02:13:06 4.6 C 5.62 g/m*3 4.6 C 0 km/h
253 02-12-2009 02:25:06 4.7 C 5.66 g/m*3 4.7 C 0 km/h
254 02-12-2009 02:37:06 4.7 C 5.66 g/m*3 4.7 C 0 km/h
255 02-12-2009 02:49:06 4.8 C 5.77 g/m*3 4.8 C 0 km/h
256 02-12-2009 03:01:06 4.9 C 5.81 g/m*3 4.9 C 0 km/h
257 02-12-2009 03:13:06 4.7 C 5.73 g/m*3 4.7 C 0 km/h
258 02-12-2009 03:25:06 4.7 C 5.8 g/m*3 4.7 C 0 km/h
259 02-12-2009 03:37:06 4.8 C 5.83 g/m*3 4.8 C 0 km/h
260 02-12-2009 03:49:06 5 C 5.84 g/m*3 5 C 0 km/h
261 02-12-2009 04:01:07 4.9 C 5.87 g/m*3 4.9 C 0 km/h
262 02-12-2009 04:13:07 4.9 C 5.87 g/m*3 4.9 C 0 km/h
263 02-12-2009 04:25:07 4.9 C 5.87 g/m*3 4.9 C 0 km/h
264 02-12-2009 04:37:07 4.9 C 5.94 g/m*3 4.9 C 0 km/h
265 02-12-2009 04:49:07 5 C 5.91 g/m*3 5 C 0 km/h
266 02-12-2009 05:01:07 5 C 5.91 g/m*3 5 C 0 km/h
267 02-12-2009 05:13:07 5 C 5.91 g/m*3 5 C 0 km/h
268 02-12-2009 05:25:07 4.8 C 5.83 g/m*3 4.8 C 0 km/h
269 02-12-2009 05:37:07 4.8 C 5.83 g/m*3 4.8 C 0 km/h
270 02-12-2009 05:49:07 4.8 C 5.83 g/m*3 4.8 C 0 km/h
271 02-12-2009 06:01:05 4.8 C 5.83 g/m*3 4.8 C 0 km/h
272 02-12-2009 06:13:05 5 C 5.91 g/m*3 5 C 0 km/h
273 02-12-2009 06:25:05 4.9 C 5.87 g/m*3 4.9 C 0 km/h
274 02-12-2009 06:37:05 5 C 5.91 g/m*3 5 C 0 km/h
275 02-12-2009 06:49:01 5 C 5.91 g/m*3 5 C 0 km/h
Sensor: Nr:Datum:Temp:Abs-Feuchte:Windchill:Wind:
Aussen-T/F 276 02-12-2009 07:01:02 4.9 C 5.94 g/m*3 4.9 C 0 km/h
277 02-12-2009 07:13:02 5 C 5.91 g/m*3 5 C 0 km/h
278 02-12-2009 07:25:01 5.1 C 5.95 g/m*3 5.1 C 0 km/h
279 02-12-2009 07:37:01 5.2 C 5.99 g/m*3 5.2 C 0 km/h
280 02-12-2009 07:49:01 5.2 C 5.99 g/m*3 5.2 C 0 km/h
281 02-12-2009 08:01:01 4.8 C 5.83 g/m*3 4.8 C 0 km/h
282 02-12-2009 08:13:01 4.8 C 5.83 g/m*3 4.8 C 0 km/h
283 02-12-2009 08:25:02 4.6 C 5.82 g/m*3 4.6 C 0 km/h
284 02-12-2009 08:37:01 4.7 C 5.86 g/m*3 4.7 C 0 km/h
285 02-12-2009 08:49:02 4.7 C 5.8 g/m*3 4.7 C 0 km/h
286 02-12-2009 09:01:01 4.6 C 5.76 g/m*3 4.6 C 0 km/h
287 02-12-2009 09:13:01 4.6 C 5.76 g/m*3 4.6 C 0 km/h
288 02-12-2009 09:25:02 4.5 C 5.65 g/m*3 4.5 C 0 km/h
289 02-12-2009 09:37:01 4.5 C 5.65 g/m*3 4.5 C 0 km/h
290 02-12-2009 09:49:02 4.5 C 5.65 g/m*3 4.5 C 0 km/h
291 02-12-2009 10:01:02 4.7 C 5.66 g/m*3 4.7 C 0 km/h
292 02-12-2009 10:13:02 4.9 C 5.54 g/m*3 4.9 C 0 km/h
293 02-12-2009 10:25:02 5.2 C 5.23 g/m*3 5.2 C 0 km/h
294 02-12-2009 10:37:02 5.2 C 5.1 g/m*3 5.2 C 0 km/h
295 02-12-2009 10:49:02 5.2 C 5.03 g/m*3 5.2 C 0 km/h
296 02-12-2009 11:01:01 5.3 C 4.99 g/m*3 5.3 C 0 km/h
297 02-12-2009 11:13:01 5.5 C 5.06 g/m*3 5.5 C 0 km/h
298 02-12-2009 11:25:02 5.8 C 4.8 g/m*3 5.8 C 0 km/h
299 02-12-2009 11:37:02 5.7 C 4.84 g/m*3 5.7 C 0 km/h
300 02-12-2009 11:49:02 5.9 C 4.61 g/m*3 5.9 C 0 km/h
Sensor: Nr:Datum:Temp:Abs-Feuchte:Windchill:Wind:
Aussen-T/F 301 02-12-2009 12:01:02 6.2 C 4.41 g/m*3 6.2 C 0 km/h
302 02-12-2009 12:13:02 6.8 C 4.44 g/m*3 6.8 C 0 km/h
303 02-12-2009 12:25:02 7.2 C 4.32 g/m*3 7.2 C 0 km/h
304 02-12-2009 12:37:03 7.5 C 4.4 g/m*3 7.5 C 0 km/h
305 02-12-2009 12:49:02 7.6 C 4.27 g/m*3 7.6 C 0 km/h
306 02-12-2009 13:01:02 7.6 C 4.27 g/m*3 7.6 C 0 km/h
307 02-12-2009 13:13:02 7.7 C 4.3 g/m*3 7.7 C 0 km/h
308 02-12-2009 13:25:02 7.7 C 4.22 g/m*3 7.7 C 0 km/h
309 02-12-2009 13:37:02 7.9 C 4.35 g/m*3 7.9 C 0 km/h
310 02-12-2009 13:49:02 7.8 C 4.24 g/m*3 7.8 C 0 km/h
311 02-12-2009 14:01:02 8 C 4.38 g/m*3 8 C 0 km/h
312 02-12-2009 14:13:02 8 C 4.3 g/m*3 8 C 0 km/h
313 02-12-2009 14:25:02 7.8 C 4.24 g/m*3 7.8 C 0 km/h
314 02-12-2009 14:37:02 7.8 C 4.33 g/m*3 7.8 C 0 km/h
315 02-12-2009 14:49:02 7.8 C 4.33 g/m*3 7.8 C 0 km/h
316 02-12-2009 15:01:02 7.7 C 4.3 g/m*3 7.7 C 0 km/h
317 02-12-2009 15:13:02 7.7 C 4.38 g/m*3 7.7 C 0 km/h
318 02-12-2009 15:25:02 7.6 C 4.27 g/m*3 7.6 C 0 km/h
319 02-12-2009 15:37:02 7.6 C 4.19 g/m*3 7.6 C 0 km/h
320 02-12-2009 15:49:02 7.5 C 4.24 g/m*3 7.5 C 0 km/h
321 02-12-2009 16:01:02 7.4 C 4.21 g/m*3 7.4 C 0 km/h
322 02-12-2009 16:13:02 7.3 C 4.19 g/m*3 7.3 C 0 km/h
323 02-12-2009 16:25:02 7 C 4.26 g/m*3 7 C 0 km/h
324 02-12-2009 16:37:02 6.9 C 4.39 g/m*3 6.9 C 0 km/h
325 02-12-2009 16:49:02 6.8 C 4.44 g/m*3 6.8 C 0 km/h
Sensor: Nr:Datum:Temp:Abs-Feuchte:Windchill:Wind:
Aussen-T/F 326 02-12-2009 17:01:02 6.9 C 4.46 g/m*3 6.9 C 0 km/h
327 02-12-2009 17:13:02 6.8 C 4.51 g/m*3 6.8 C 0 km/h
328 02-12-2009 17:25:03 6.6 C 4.53 g/m*3 6.6 C 0 km/h
329 02-12-2009 17:37:02 6.5 C 4.5 g/m*3 6.5 C 0 km/h
330 02-12-2009 17:49:02 6.5 C 4.57 g/m*3 6.5 C 0 km/h
331 02-12-2009 18:01:02 6.5 C 4.65 g/m*3 6.5 C 0 km/h
332 02-12-2009 18:13:02 6.5 C 4.65 g/m*3 6.5 C 0 km/h
333 02-12-2009 18:25:02 6.4 C 4.62 g/m*3 6.4 C 0 km/h
334 02-12-2009 18:37:02 6.5 C 4.65 g/m*3 6.5 C 0 km/h
335 02-12-2009 18:49:02 6.4 C 4.69 g/m*3 6.4 C 0 km/h
336 02-12-2009 19:01:01 6.4 C 4.77 g/m*3 6.4 C 0 km/h
337 02-12-2009 19:13:01 6.5 C 4.8 g/m*3 6.5 C 0 km/h
338 02-12-2009 19:25:02 6.7 C 4.79 g/m*3 6.7 C 0 km/h
339 02-12-2009 19:37:01 6.6 C 4.83 g/m*3 6.6 C 0 km/h
340 02-12-2009 19:49:02 6.6 C 4.98 g/m*3 6.6 C 0 km/h
341 02-12-2009 20:01:01 6.4 C 4.99 g/m*3 6.4 C 0 km/h
342 02-12-2009 20:13:01 6.5 C 5.02 g/m*3 6.5 C 0 km/h
343 02-12-2009 20:25:01 6.6 C 5.06 g/m*3 6.6 C 0 km/h
344 02-12-2009 20:37:02 6.6 C 5.06 g/m*3 6.6 C 0 km/h
345 02-12-2009 20:49:02 6.7 C 5.09 g/m*3 6.7 C 0 km/h
346 02-12-2009 21:01:02 6.8 C 5.12 g/m*3 6.8 C 0 km/h
347 02-12-2009 21:13:02 6.9 C 5.16 g/m*3 6.9 C 0 km/h
348 02-12-2009 21:25:02 7 C 5.04 g/m*3 7 C 0 km/h
349 02-12-2009 21:37:02 6.9 C 5.08 g/m*3 6.9 C 0 km/h
350 02-12-2009 21:49:02 7 C 5.04 g/m*3 7 C 0 km/h
Sensor: Nr:Datum:Temp:Abs-Feuchte:Windchill:Wind:
Aussen-T/F 351 02-12-2009 22:01:02 7 C 5.11 g/m*3 7 C 0 km/h
352 02-12-2009 22:13:02 6.9 C 5.23 g/m*3 6.9 C 0 km/h
353 02-12-2009 22:26:02 7 C 5.19 g/m*3 7 C 0 km/h
354 02-12-2009 22:38:02 7 C 5.19 g/m*3 7 C 0 km/h
355 02-12-2009 22:50:02 6.9 C 5.31 g/m*3 6.9 C 0 km/h
356 02-12-2009 23:02:02 6.8 C 5.28 g/m*3 6.8 C 0 km/h
357 02-12-2009 23:14:02 6.7 C 5.32 g/m*3 6.7 C 0 km/h
358 02-12-2009 23:26:02 6.6 C 5.36 g/m*3 6.6 C 0 km/h
359 02-12-2009 23:38:02 6.4 C 5.36 g/m*3 6.4 C 0 km/h
360 02-12-2009 23:50:02 6.4 C 5.36 g/m*3 6.4 C 0 km/h
361 03-12-2009 00:02:03 6.6 C 5.44 g/m*3 6.6 C 0 km/h
362 03-12-2009 00:14:03 6.7 C 5.47 g/m*3 6.7 C 0 km/h
363 03-12-2009 00:26:03 6.8 C 5.51 g/m*3 6.8 C 0 km/h
364 03-12-2009 00:38:03 7 C 5.35 g/m*3 7 C 0 km/h
365 03-12-2009 00:50:03 7.1 C 5.3 g/m*3 7.1 C 0 km/h
366 03-12-2009 01:02:03 7.1 C 5.3 g/m*3 7.1 C 0 km/h
367 03-12-2009 01:14:03 7.2 C 5.34 g/m*3 7.2 C 0 km/h
368 03-12-2009 01:26:03 7.2 C 5.34 g/m*3 7.2 C 0 km/h
369 03-12-2009 01:38:03 7.1 C 5.3 g/m*3 7.1 C 0 km/h
370 03-12-2009 01:50:03 7 C 5.19 g/m*3 7 C 0 km/h
371 03-12-2009 02:02:03 7.1 C 5.23 g/m*3 7.1 C 0 km/h
372 03-12-2009 02:14:03 7.1 C 5.3 g/m*3 7.1 C 0 km/h
373 03-12-2009 02:26:03 7.2 C 5.26 g/m*3 7.2 C 0 km/h
374 03-12-2009 02:38:03 7.3 C 5.29 g/m*3 7.3 C 0 km/h
375 03-12-2009 02:50:03 7.5 C 5.28 g/m*3 7.5 C 0 km/h
Sensor: Nr:Datum:Temp:Abs-Feuchte:Windchill:Wind:
Aussen-T/F 376 03-12-2009 03:02:03 7.4 C 5.25 g/m*3 7.4 C 0 km/h
377 03-12-2009 03:14:03 7.4 C 5.41 g/m*3 7.4 C 0 km/h
378 03-12-2009 03:26:03 7.3 C 5.45 g/m*3 7.3 C 0 km/h
379 03-12-2009 03:38:03 7.5 C 5.68 g/m*3 7.5 C 0 km/h
380 03-12-2009 03:50:03 7.7 C 5.68 g/m*3 7.7 C 0 km/h
381 03-12-2009 04:02:03 7.8 C 5.79 g/m*3 7.8 C 0 km/h
382 03-12-2009 04:14:04 7.9 C 5.83 g/m*3 7.9 C 0 km/h
383 03-12-2009 04:26:04 8.1 C 5.82 g/m*3 8.1 C 0 km/h
384 03-12-2009 04:38:04 8.1 C 5.82 g/m*3 8.1 C 0 km/h
385 03-12-2009 04:50:04 7.8 C 5.96 g/m*3 7.8 C 0 km/h
386 03-12-2009 05:02:04 7.5 C 6.08 g/m*3 7.5 C 0 km/h
387 03-12-2009 05:14:04 7.3 C 6.24 g/m*3 7.3 C 0 km/h
388 03-12-2009 05:26:04 7.4 C 6.28 g/m*3 7.4 C 0 km/h
389 03-12-2009 05:38:04 7.6 C 6.36 g/m*3 7.6 C 0 km/h
390 03-12-2009 05:50:04 7.6 C 6.36 g/m*3 7.6 C 0 km/h
391 03-12-2009 06:02:04 7.8 C 6.45 g/m*3 7.8 C 0 km/h
392 03-12-2009 06:14:04 8 C 6.37 g/m*3 8 C 0 km/h
393 03-12-2009 06:26:04 7.9 C 6.32 g/m*3 7.9 C 0 km/h
394 03-12-2009 06:38:04 7.9 C 6.32 g/m*3 7.9 C 0 km/h
395 03-12-2009 06:50:04 7.7 C 6.24 g/m*3 7.7 C 0 km/h
396 03-12-2009 07:02:02 7.6 C 6.28 g/m*3 7.6 C 0 km/h
397 03-12-2009 07:14:02 7.5 C 6.24 g/m*3 7.5 C 0 km/h
398 03-12-2009 07:26:01 7.4 C 6.28 g/m*3 7.4 C 0 km/h
399 03-12-2009 07:38:02 7.5 C 6.32 g/m*3 7.5 C 0 km/h
400 03-12-2009 07:50:02 7.5 C 6.32 g/m*3 7.5 C 0 km/h
Sensor: Nr:Datum:Temp:Abs-Feuchte:Windchill:Wind:
Aussen-T/F 401 03-12-2009 08:02:02 7.6 C 6.2 g/m*3 7.6 C 0 km/h
402 03-12-2009 08:14:02 7.7 C 6.32 g/m*3 7.7 C 0 km/h
403 03-12-2009 08:26:02 7.7 C 6.32 g/m*3 7.7 C 0 km/h
404 03-12-2009 08:38:02 8 C 6.28 g/m*3 8 C 0 km/h
405 03-12-2009 08:50:02 8.2 C 6.2 g/m*3 8.2 C 0 km/h
406 03-12-2009 09:02:02 8.2 C 6.36 g/m*3 8.2 C 0 km/h
407 03-12-2009 09:14:02 7.9 C 6.41 g/m*3 7.9 C 0 km/h
408 03-12-2009 09:26:02 7.9 C 6.49 g/m*3 7.9 C 0 km/h
409 03-12-2009 09:38:02 8.1 C 6.49 g/m*3 8.1 C 0 km/h
410 03-12-2009 09:50:02 8.4 C 6.53 g/m*3 8.4 C 0 km/h
411 03-12-2009 10:02:02 8.5 C 6.49 g/m*3 8.5 C 0 km/h
412 03-12-2009 10:14:02 8.9 C 6.39 g/m*3 8.9 C 0 km/h
413 03-12-2009 10:26:02 9.2 C 6.43 g/m*3 9.2 C 0 km/h
414 03-12-2009 10:38:02 9.5 C 6.46 g/m*3 9.5 C 0 km/h
415 03-12-2009 10:50:02 9.6 C 6.41 g/m*3 9.6 C 0 km/h
416 03-12-2009 11:02:02 9.8 C 6.4 g/m*3 9.8 C 0 km/h
417 03-12-2009 11:14:02 10.1 C 6.34 g/m*3 10.1 C 0 km/h
418 03-12-2009 11:26:02 10.3 C 6.42 g/m*3 10.3 C 0 km/h
419 03-12-2009 11:38:02 10.3 C 6.32 g/m*3 10.3 C 0 km/h
420 03-12-2009 11:50:02 10 C 6.2 g/m*3 10 C 0 km/h
421 03-12-2009 12:02:01 10 C 6.2 g/m*3 10 C 0 km/h
422 03-12-2009 12:14:01 10.3 C 6.22 g/m*3 10.3 C 0 km/h
423 03-12-2009 12:26:02 10.5 C 6.21 g/m*3 10.5 C 0 km/h
424 03-12-2009 12:38:01 10.6 C 6.25 g/m*3 10.6 C 0 km/h
425 03-12-2009 12:50:02 10.5 C 6.21 g/m*3 10.5 C 0 km/h
Sensor: Nr:Datum:Temp:Abs-Feuchte:Windchill:Wind:
Aussen-T/F 426 03-12-2009 13:02:01 10.4 C 6.17 g/m*3 10.4 C 0 km/h
427 03-12-2009 13:14:01 10.6 C 6.25 g/m*3 10.6 C 0 km/h
428 03-12-2009 13:26:01 10.6 C 6.15 g/m*3 10.6 C 0 km/h
429 03-12-2009 13:38:02 10.5 C 6.21 g/m*3 10.5 C 0 km/h
430 03-12-2009 13:50:02 10.6 C 6.15 g/m*3 10.6 C 0 km/h
431 03-12-2009 14:02:02 10.4 C 6.17 g/m*3 10.4 C 0 km/h
432 03-12-2009 14:14:02 10.6 C 6.15 g/m*3 10.6 C 0 km/h
433 03-12-2009 14:26:02 10.6 C 6.15 g/m*3 10.6 C 0 km/h
434 03-12-2009 14:38:02 10.4 C 6.07 g/m*3 10.4 C 0 km/h
435 03-12-2009 14:50:01 10.3 C 6.13 g/m*3 10.3 C 0 km/h
436 03-12-2009 15:02:02 9.9 C 6.35 g/m*3 9.9 C 0 km/h
437 03-12-2009 15:14:02 9.9 C 6.35 g/m*3 9.9 C 0 km/h
438 03-12-2009 15:26:01 9.8 C 6.31 g/m*3 9.8 C 0 km/h
439 03-12-2009 15:38:02 9.6 C 6.23 g/m*3 9.6 C 0 km/h
440 03-12-2009 15:50:02 9.4 C 6.24 g/m*3 9.4 C 0 km/h
441 03-12-2009 16:02:02 9.3 C 6.2 g/m*3 9.3 C 0 km/h
442 03-12-2009 16:14:02 9.3 C 6.2 g/m*3 9.3 C 0 km/h
443 03-12-2009 16:26:01 9.4 C 6.15 g/m*3 9.4 C 0 km/h
444 03-12-2009 16:38:02 9.4 C 6.15 g/m*3 9.4 C 0 km/h
445 03-12-2009 16:50:02 9.5 C 6.19 g/m*3 9.5 C 0 km/h
446 03-12-2009 17:02:02 9.2 C 6.16 g/m*3 9.2 C 0 km/h
447 03-12-2009 17:14:02 9.4 C 6.15 g/m*3 9.4 C 0 km/h
448 03-12-2009 17:26:01 9.5 C 6.19 g/m*3 9.5 C 0 km/h
449 03-12-2009 17:38:02 9.5 C 6.19 g/m*3 9.5 C 0 km/h
450 03-12-2009 17:50:02 8.9 C 6.31 g/m*3 8.9 C 0 km/h
Sensor: Nr:Datum:Temp:Abs-Feuchte:Windchill:Wind:
Aussen-T/F 451 03-12-2009 18:02:02 8.5 C 6.4 g/m*3 8.5 C 0 km/h
452 03-12-2009 18:14:02 8.7 C 6.49 g/m*3 8.7 C 0 km/h
453 03-12-2009 18:26:02 8.7 C 6.49 g/m*3 8.7 C 0 km/h
454 03-12-2009 18:38:02 8.8 C 6.53 g/m*3 8.8 C 0 km/h
455 03-12-2009 18:50:02 8.9 C 6.48 g/m*3 8.9 C 0 km/h
456 03-12-2009 19:02:02 8.9 C 6.48 g/m*3 8.9 C 0 km/h
457 03-12-2009 19:14:02 8.7 C 6.31 g/m*3 8.7 C 0 km/h
458 03-12-2009 19:26:02 9.1 C 6.21 g/m*3 9.1 C 0 km/h
459 03-12-2009 19:38:02 9.4 C 6.15 g/m*3 9.4 C 0 km/h
460 03-12-2009 19:50:02 9.3 C 6.02 g/m*3 9.3 C 0 km/h
461 03-12-2009 20:02:01 9.2 C 5.98 g/m*3 9.2 C 0 km/h
462 03-12-2009 20:14:01 9.2 C 5.98 g/m*3 9.2 C 0 km/h
463 03-12-2009 20:26:02 9.1 C 5.94 g/m*3 9.1 C 0 km/h
464 03-12-2009 20:38:01 9.2 C 5.98 g/m*3 9.2 C 0 km/h
465 03-12-2009 20:50:02 9 C 5.91 g/m*3 9 C 0 km/h
466 03-12-2009 21:02:01 8.8 C 5.92 g/m*3 8.8 C 0 km/h
467 03-12-2009 21:14:01 8.9 C 5.96 g/m*3 8.9 C 0 km/h
468 03-12-2009 21:26:02 8.6 C 5.93 g/m*3 8.6 C 0 km/h
469 03-12-2009 21:38:01 8.3 C 5.9 g/m*3 8.3 C 0 km/h
470 03-12-2009 21:51:03 8.3 C 5.98 g/m*3 8.3 C 0 km/h
471 03-12-2009 22:03:03 8.5 C 6.06 g/m*3 8.5 C 0 km/h
472 03-12-2009 22:15:03 8.2 C 5.95 g/m*3 8.2 C 0 km/h
473 03-12-2009 22:27:03 8.2 C 6.03 g/m*3 8.2 C 0 km/h
474 03-12-2009 22:39:03 8.5 C 6.06 g/m*3 8.5 C 0 km/h
475 03-12-2009 22:51:03 8 C 6.04 g/m*3 8 C 0 km/h
Sensor: Nr:Datum:Temp:Abs-Feuchte:Windchill:Wind:
Aussen-T/F 476 03-12-2009 23:03:03 7 C 6.04 g/m*3 7 C 0 km/h
477 03-12-2009 23:15:03 6.8 C 6.12 g/m*3 6.8 C 0 km/h
478 03-12-2009 23:27:03 6.6 C 6.11 g/m*3 6.6 C 0 km/h
479 03-12-2009 23:39:03 6.5 C 5.92 g/m*3 6.5 C 0 km/h
480 03-12-2009 23:51:03 6.5 C 5.77 g/m*3 6.5 C 0 km/h
481 04-12-2009 00:03:03 6.6 C 5.51 g/m*3 6.6 C 0 km/h
482 04-12-2009 00:15:03 6.7 C 5.47 g/m*3 6.7 C 0 km/h
483 04-12-2009 00:27:03 6.8 C 5.43 g/m*3 6.8 C 0 km/h
484 04-12-2009 00:39:03 6.7 C 5.32 g/m*3 6.7 C 0 km/h
485 04-12-2009 00:51:03 6.6 C 5.28 g/m*3 6.6 C 0 km/h
486 04-12-2009 01:03:03 6.4 C 5.22 g/m*3 6.4 C 0 km/h
487 04-12-2009 01:15:03 6.2 C 5.22 g/m*3 6.2 C 0 km/h
488 04-12-2009 01:27:03 6.3 C 5.26 g/m*3 6.3 C 0 km/h
489 04-12-2009 01:39:03 6.2 C 5.07 g/m*3 6.2 C 0 km/h
490 04-12-2009 01:51:03 6.2 C 4.71 g/m*3 6.2 C 0 km/h
491 04-12-2009 02:03:04 6.2 C 4.78 g/m*3 6.2 C 0 km/h
492 04-12-2009 02:15:04 6.2 C 5 g/m*3 6.2 C 0 km/h
493 04-12-2009 02:27:04 5.6 C 5.16 g/m*3 5.6 C 0 km/h
494 04-12-2009 02:39:04 5.6 C 5.23 g/m*3 5.6 C 0 km/h
495 04-12-2009 02:51:04 5.6 C 5.16 g/m*3 5.6 C 0 km/h
496 04-12-2009 03:03:04 5.6 C 5.16 g/m*3 5.6 C 0 km/h
497 04-12-2009 03:15:04 5.5 C 5.2 g/m*3 5.5 C 0 km/h
498 04-12-2009 03:27:04 5.4 C 5.16 g/m*3 5.4 C 0 km/h
499 04-12-2009 03:39:04 5.4 C 5.16 g/m*3 5.4 C 0 km/h
500 04-12-2009 03:51:04 5.4 C 5.16 g/m*3 5.4 C 0 km/h
Sensor: Nr:Datum:Temp:Abs-Feuchte:Windchill:Wind:
Aussen-T/F 501 04-12-2009 04:03:04 5.5 C 5.2 g/m*3 5.5 C 0 km/h
502 04-12-2009 04:15:04 5.4 C 4.81 g/m*3 5.4 C 0 km/h
503 04-12-2009 04:27:04 5 C 4.62 g/m*3 5 C 0 km/h
504 04-12-2009 04:39:04 4.8 C 4.63 g/m*3 4.8 C 0 km/h
505 04-12-2009 04:51:04 4.6 C 4.5 g/m*3 4.6 C 0 km/h
506 04-12-2009 05:03:04 4.3 C 4.48 g/m*3 4.3 C 0 km/h
507 04-12-2009 05:15:04 4 C 4.51 g/m*3 4 C 0 km/h
508 04-12-2009 05:27:04 3.7 C 4.49 g/m*3 3.7 C 0 km/h
509 04-12-2009 05:39:04 3.4 C 4.52 g/m*3 3.4 C 0 km/h
510 04-12-2009 05:51:04 3.1 C 4.49 g/m*3 3.1 C 0 km/h
511 04-12-2009 06:03:04 3.2 C 4.64 g/m*3 3.2 C 0 km/h
512 04-12-2009 06:15:02 3.3 C 4.67 g/m*3 3.3 C 0 km/h
513 04-12-2009 06:27:02 3.1 C 4.61 g/m*3 3.1 C 0 km/h
514 04-12-2009 06:39:02 3.1 C 4.67 g/m*3 3.1 C 0 km/h
515 04-12-2009 06:51:02 3.4 C 4.76 g/m*3 3.4 C 0 km/h
516 04-12-2009 07:03:02 3.9 C 4.74 g/m*3 3.9 C 0 km/h
517 04-12-2009 07:15:03 4.1 C 4.61 g/m*3 4.1 C 0 km/h
518 04-12-2009 07:27:03 4.1 C 4.54 g/m*3 4.1 C 0 km/h
519 04-12-2009 07:39:02 3.4 C 4.46 g/m*3 3.4 C 0 km/h
520 04-12-2009 07:51:01 3.1 C 4.43 g/m*3 3.1 C 0 km/h
521 04-12-2009 08:03:01 2.8 C 4.46 g/m*3 2.8 C 0 km/h
522 04-12-2009 08:15:01 2.7 C 4.49 g/m*3 2.7 C 0 km/h
523 04-12-2009 08:27:01 3 C 4.58 g/m*3 3 C 0 km/h
524 04-12-2009 08:39:00 3.3 C 4.67 g/m*3 3.3 C 0 km/h
525 04-12-2009 08:51:03 3.6 C 4.7 g/m*3 3.6 C 0 km/h
Sensor: Nr:Datum:Temp:Abs-Feuchte:Windchill:Wind:
Aussen-T/F 526 04-12-2009 09:03:02 3.8 C 4.64 g/m*3 3.8 C 0 km/h
527 04-12-2009 09:15:02 3.9 C 4.61 g/m*3 3.9 C 0 km/h
528 04-12-2009 09:27:03 4.1 C 4.54 g/m*3 4.1 C 0 km/h
529 04-12-2009 09:39:02 4.2 C 4.45 g/m*3 4.2 C 0 km/h
530 04-12-2009 09:51:02 4.3 C 4.28 g/m*3 4.3 C 0 km/h
531 04-12-2009 10:03:01 4 C 4.13 g/m*3 4 C 0 km/h
532 04-12-2009 10:15:02 4 C 4.13 g/m*3 4 C 0 km/h
533 04-12-2009 10:27:02 4.1 C 4.16 g/m*3 4.1 C 0 km/h
534 04-12-2009 10:39:02 4.2 C 4.12 g/m*3 4.2 C 0 km/h
535 04-12-2009 10:51:02 4.2 C 4.12 g/m*3 4.2 C 0 km/h
536 04-12-2009 11:03:03 4.1 C 4.1 g/m*3 4.1 C 0 km/h
537 04-12-2009 11:15:02 4.1 C 4.1 g/m*3 4.1 C 0 km/h
538 04-12-2009 11:27:02 4.2 C 4.06 g/m*3 4.2 C 0 km/h
539 04-12-2009 11:39:02 4.1 C 4.1 g/m*3 4.1 C 0 km/h
540 04-12-2009 11:51:01 4.3 C 4.09 g/m*3 4.3 C 0 km/h
541 04-12-2009 12:03:02 4.6 C 4.17 g/m*3 4.6 C 0 km/h
542 04-12-2009 12:15:01 5.1 C 4.1 g/m*3 5.1 C 0 km/h
543 04-12-2009 12:27:01 5.4 C 4.12 g/m*3 5.4 C 0 km/h
544 04-12-2009 12:39:01 5.5 C 4.07 g/m*3 5.5 C 0 km/h
545 04-12-2009 12:51:01 5.7 C 4.2 g/m*3 5.7 C 0 km/h
546 04-12-2009 13:03:02 5.5 C 4 g/m*3 5.5 C 0 km/h
547 04-12-2009 13:15:01 5 C 3.87 g/m*3 5 C 0 km/h
548 04-12-2009 13:27:01 4.9 C 3.92 g/m*3 4.9 C 0 km/h
549 04-12-2009 13:39:02 4.9 C 3.85 g/m*3 4.9 C 0 km/h
550 04-12-2009 13:51:02 4.9 C 3.85 g/m*3 4.9 C 0 km/h
Sensor: Nr:Datum:Temp:Abs-Feuchte:Windchill:Wind:
Aussen-T/F 551 04-12-2009 14:03:02 4.8 C 3.82 g/m*3 4.8 C 0 km/h
552 04-12-2009 14:15:02 4.8 C 3.82 g/m*3 4.8 C 0 km/h
553 04-12-2009 14:27:02 4.9 C 3.78 g/m*3 4.9 C 0 km/h
554 04-12-2009 14:39:02 5.1 C 3.69 g/m*3 5.1 C 0 km/h
555 04-12-2009 14:51:02 4.9 C 3.71 g/m*3 4.9 C 0 km/h
556 04-12-2009 15:03:03 4.8 C 3.62 g/m*3 4.8 C 0 km/h
557 04-12-2009 15:15:02 4.7 C 3.6 g/m*3 4.7 C 0 km/h
558 04-12-2009 15:27:02 4.5 C 3.68 g/m*3 4.5 C 0 km/h
559 04-12-2009 15:39:03 4.7 C 3.66 g/m*3 4.7 C 0 km/h
560 04-12-2009 15:51:02 4.9 C 3.65 g/m*3 4.9 C 0 km/h
561 04-12-2009 16:03:02 4.9 C 3.78 g/m*3 4.9 C 0 km/h
562 04-12-2009 16:15:03 4.9 C 3.71 g/m*3 4.9 C 0 km/h
563 04-12-2009 16:27:03 4.9 C 3.78 g/m*3 4.9 C 0 km/h
564 04-12-2009 16:39:02 4.9 C 3.78 g/m*3 4.9 C 0 km/h
565 04-12-2009 16:51:03 4.8 C 3.82 g/m*3 4.8 C 0 km/h
566 04-12-2009 17:03:02 4.8 C 3.89 g/m*3 4.8 C 0 km/h
567 04-12-2009 17:15:03 4.7 C 3.93 g/m*3 4.7 C 0 km/h
568 04-12-2009 17:27:03 4.7 C 4 g/m*3 4.7 C 0 km/h
569 04-12-2009 17:39:02 4.7 C 4.06 g/m*3 4.7 C 0 km/h
570 04-12-2009 17:51:02 4.8 C 4.09 g/m*3 4.8 C 0 km/h
571 04-12-2009 18:03:02 4.8 C 4.09 g/m*3 4.8 C 0 km/h
572 04-12-2009 18:15:02 4.8 C 4.16 g/m*3 4.8 C 0 km/h
573 04-12-2009 18:27:02 4.7 C 4.2 g/m*3 4.7 C 0 km/h
574 04-12-2009 18:39:02 4.9 C 4.19 g/m*3 4.9 C 0 km/h
575 04-12-2009 18:51:02 5 C 4.08 g/m*3 5 C 0 km/h
Sensor: Nr:Datum:Temp:Abs-Feuchte:Windchill:Wind:
Aussen-T/F 576 04-12-2009 19:03:01 5 C 4.08 g/m*3 5 C 0 km/h
577 04-12-2009 19:15:02 5 C 4.08 g/m*3 5 C 0 km/h
578 04-12-2009 19:27:02 5 C 4.14 g/m*3 5 C 0 km/h
579 04-12-2009 19:39:02 5 C 4.14 g/m*3 5 C 0 km/h
580 04-12-2009 19:51:01 5.1 C 4.17 g/m*3 5.1 C 0 km/h
581 04-12-2009 20:03:02 5.1 C 4.17 g/m*3 5.1 C 0 km/h
582 04-12-2009 20:15:01 5 C 4.21 g/m*3 5 C 0 km/h
583 04-12-2009 20:27:01 5 C 4.21 g/m*3 5 C 0 km/h
584 04-12-2009 20:39:02 5 C 4.21 g/m*3 5 C 0 km/h
585 04-12-2009 20:51:02 5 C 4.28 g/m*3 5 C 0 km/h
586 04-12-2009 21:03:02 5 C 4.28 g/m*3 5 C 0 km/h
587 04-12-2009 21:15:01 5.1 C 4.31 g/m*3 5.1 C 0 km/h
588 04-12-2009 21:27:01 5.1 C 4.31 g/m*3 5.1 C 0 km/h
589 04-12-2009 21:39:02 5.2 C 4.34 g/m*3 5.2 C 0 km/h
590 04-12-2009 21:51:02 5.2 C 4.34 g/m*3 5.2 C 0 km/h
591 04-12-2009 22:04:03 5.2 C 4.34 g/m*3 5.2 C 0 km/h
592 04-12-2009 22:16:03 5.2 C 4.34 g/m*3 5.2 C 0 km/h
593 04-12-2009 22:28:03 5.1 C 4.31 g/m*3 5.1 C 0 km/h
594 04-12-2009 22:40:03 5.1 C 4.17 g/m*3 5.1 C 0 km/h
595 04-12-2009 22:52:03 5.1 C 4.17 g/m*3 5.1 C 0 km/h
596 04-12-2009 23:04:03 4.7 C 4.06 g/m*3 4.7 C 0 km/h
597 04-12-2009 23:16:03 4.1 C 4.03 g/m*3 4.1 C 0 km/h
598 04-12-2009 23:28:03 3.6 C 4.15 g/m*3 3.6 C 0 km/h
599 04-12-2009 23:40:03 3.2 C 4.16 g/m*3 3.2 C 0 km/h
600 04-12-2009 23:52:03 3 C 4.16 g/m*3 3 C 0 km/h
Sensor: Nr:Datum:Temp:Abs-Feuchte:Windchill:Wind:
Aussen-T/F 601 05-12-2009 00:04:03 2.7 C 4.2 g/m*3 2.7 C 0 km/h
602 05-12-2009 00:16:03 2.5 C 4.25 g/m*3 2.5 C 0 km/h
603 05-12-2009 00:28:03 2.3 C 4.2 g/m*3 2.3 C 0 km/h
604 05-12-2009 00:40:03 2.7 C 4.37 g/m*3 2.7 C 0 km/h
605 05-12-2009 00:52:03 3.2 C 4.4 g/m*3 3.2 C 0 km/h
606 05-12-2009 01:04:03 3.3 C 4.43 g/m*3 3.3 C 0 km/h
607 05-12-2009 01:16:03 2.9 C 4.25 g/m*3 2.9 C 0 km/h
608 05-12-2009 01:28:04 2.7 C 4.31 g/m*3 2.7 C 0 km/h
609 05-12-2009 01:40:04 2.8 C 4.4 g/m*3 2.8 C 0 km/h
610 05-12-2009 01:52:04 3.1 C 4.37 g/m*3 3.1 C 0 km/h
611 05-12-2009 02:04:04 2.9 C 4.31 g/m*3 2.9 C 0 km/h
612 05-12-2009 02:16:04 2.8 C 4.28 g/m*3 2.8 C 0 km/h
613 05-12-2009 02:28:04 2.8 C 4.28 g/m*3 2.8 C 0 km/h
614 05-12-2009 02:40:04 2.7 C 4.31 g/m*3 2.7 C 0 km/h
615 05-12-2009 02:52:04 2.7 C 4.31 g/m*3 2.7 C 0 km/h
616 05-12-2009 03:04:04 2.7 C 4.37 g/m*3 2.7 C 0 km/h
617 05-12-2009 03:16:04 3 C 4.34 g/m*3 3 C 0 km/h
618 05-12-2009 03:28:04 2.9 C 4.37 g/m*3 2.9 C 0 km/h
619 05-12-2009 03:40:04 3.2 C 4.4 g/m*3 3.2 C 0 km/h
620 05-12-2009 03:52:04 3.3 C 4.37 g/m*3 3.3 C 0 km/h
621 05-12-2009 04:04:04 3.3 C 4.37 g/m*3 3.3 C 0 km/h
622 05-12-2009 04:16:04 3.4 C 4.4 g/m*3 3.4 C 0 km/h
623 05-12-2009 04:28:04 3.4 C 4.34 g/m*3 3.4 C 0 km/h
624 05-12-2009 04:40:04 3.2 C 4.28 g/m*3 3.2 C 0 km/h
625 05-12-2009 04:52:04 3.2 C 4.34 g/m*3 3.2 C 0 km/h
Sensor: Nr:Datum:Temp:Abs-Feuchte:Windchill:Wind:
Aussen-T/F 626 05-12-2009 05:04:04 3.3 C 4.37 g/m*3 3.3 C 0 km/h
627 05-12-2009 05:16:05 3.3 C 4.31 g/m*3 3.3 C 0 km/h
628 05-12-2009 05:28:05 3.4 C 4.34 g/m*3 3.4 C 0 km/h
629 05-12-2009 05:40:05 3.4 C 4.34 g/m*3 3.4 C 0 km/h
630 05-12-2009 05:52:05 3.4 C 4.28 g/m*3 3.4 C 0 km/h
631 05-12-2009 06:04:05 3.4 C 4.28 g/m*3 3.4 C 0 km/h
632 05-12-2009 06:16:05 3.4 C 4.28 g/m*3 3.4 C 0 km/h
633 05-12-2009 06:28:05 3.5 C 4.24 g/m*3 3.5 C 0 km/h
634 05-12-2009 06:40:05 3.5 C 4.24 g/m*3 3.5 C 0 km/h
635 05-12-2009 06:52:05 3.5 C 4.24 g/m*3 3.5 C 0 km/h
636 05-12-2009 07:04:05 3.5 C 4.18 g/m*3 3.5 C 0 km/h
637 05-12-2009 07:16:05 3.7 C 4.18 g/m*3 3.7 C 0 km/h
638 05-12-2009 07:28:05 3.7 C 4.11 g/m*3 3.7 C 0 km/h
639 05-12-2009 07:40:02 3.8 C 4.08 g/m*3 3.8 C 0 km/h
640 05-12-2009 07:52:01 3.8 C 4.08 g/m*3 3.8 C 0 km/h
641 05-12-2009 08:04:01 3.9 C 4.11 g/m*3 3.9 C 0 km/h
642 05-12-2009 08:16:02 4 C 4.07 g/m*3 4 C 0 km/h
643 05-12-2009 08:28:02 4 C 4.01 g/m*3 4 C 0 km/h
644 05-12-2009 08:40:01 4.1 C 4.03 g/m*3 4.1 C 0 km/h
645 05-12-2009 08:52:03 4.1 C 4.03 g/m*3 4.1 C 0 km/h
646 05-12-2009 09:04:02 4.2 C 4.06 g/m*3 4.2 C 0 km/h
647 05-12-2009 09:16:02 4.2 C 4.12 g/m*3 4.2 C 0 km/h
648 05-12-2009 09:28:02 4.3 C 4.15 g/m*3 4.3 C 0 km/h
649 05-12-2009 09:40:02 4.4 C 4.11 g/m*3 4.4 C 0 km/h
650 05-12-2009 09:52:02 4.6 C 4.17 g/m*3 4.6 C 0 km/h
Sensor: Nr:Datum:Temp:Abs-Feuchte:Windchill:Wind:
Aussen-T/F 651 05-12-2009 10:04:02 4.7 C 4.13 g/m*3 4.7 C 0 km/h
652 05-12-2009 10:16:02 4.8 C 4.16 g/m*3 4.8 C 0 km/h
653 05-12-2009 10:28:03 5.1 C 4.17 g/m*3 5.1 C 0 km/h
654 05-12-2009 10:40:02 5.2 C 4.13 g/m*3 5.2 C 0 km/h
655 05-12-2009 10:52:02 5.3 C 4.23 g/m*3 5.3 C 0 km/h
656 05-12-2009 11:04:01 5.3 C 4.3 g/m*3 5.3 C 0 km/h
657 05-12-2009 11:16:02 5.2 C 4.54 g/m*3 5.2 C 0 km/h
658 05-12-2009 11:28:02 5.2 C 4.68 g/m*3 5.2 C 0 km/h
659 05-12-2009 11:40:02 5.6 C 4.81 g/m*3 5.6 C 0 km/h
660 05-12-2009 11:52:02 5.7 C 4.77 g/m*3 5.7 C 0 km/h
661 05-12-2009 12:04:02 6 C 4.79 g/m*3 6 C 0 km/h
662 05-12-2009 12:16:02 6.3 C 4.89 g/m*3 6.3 C 0 km/h
663 05-12-2009 12:28:02 6.2 C 4.93 g/m*3 6.2 C 0 km/h
664 05-12-2009 12:40:03 6.4 C 4.99 g/m*3 6.4 C 0 km/h
665 05-12-2009 12:52:02 6.4 C 5.07 g/m*3 6.4 C 0 km/h
666 05-12-2009 13:04:02 6.6 C 5.13 g/m*3 6.6 C 0 km/h
667 05-12-2009 13:16:01 6.8 C 5.2 g/m*3 6.8 C 0 km/h
668 05-12-2009 13:28:01 6.8 C 5.28 g/m*3 6.8 C 0 km/h
669 05-12-2009 13:40:02 6.9 C 5.31 g/m*3 6.9 C 0 km/h
670 05-12-2009 13:52:02 7 C 5.27 g/m*3 7 C 0 km/h
671 05-12-2009 14:04:02 7.4 C 5.33 g/m*3 7.4 C 0 km/h
672 05-12-2009 14:16:02 7.2 C 5.34 g/m*3 7.2 C 0 km/h
673 05-12-2009 14:28:02 7.1 C 5.46 g/m*3 7.1 C 0 km/h
674 05-12-2009 14:40:02 6.9 C 5.54 g/m*3 6.9 C 0 km/h
675 05-12-2009 14:52:02 6.9 C 5.62 g/m*3 6.9 C 0 km/h
Sensor: Nr:Datum:Temp:Abs-Feuchte:Windchill:Wind:
Aussen-T/F 676 05-12-2009 15:04:02 6.8 C 5.66 g/m*3 6.8 C 0 km/h
677 05-12-2009 15:16:02 6.6 C 5.66 g/m*3 6.6 C 0 km/h
678 05-12-2009 15:28:02 6.3 C 5.77 g/m*3 6.3 C 0 km/h
679 05-12-2009 15:40:02 6.3 C 5.85 g/m*3 6.3 C 0 km/h
680 05-12-2009 15:52:02 6.2 C 5.88 g/m*3 6.2 C 0 km/h
681 05-12-2009 16:04:02 6.2 C 5.96 g/m*3 6.2 C 0 km/h
682 05-12-2009 16:16:03 6.1 C 5.99 g/m*3 6.1 C 0 km/h
683 05-12-2009 16:28:03 6.1 C 6.06 g/m*3 6.1 C 0 km/h
684 05-12-2009 16:40:02 6.1 C 6.14 g/m*3 6.1 C 0 km/h
685 05-12-2009 16:52:02 6.2 C 6.18 g/m*3 6.2 C 0 km/h
686 05-12-2009 17:04:02 6.2 C 6.25 g/m*3 6.2 C 0 km/h
687 05-12-2009 17:16:03 6.4 C 6.33 g/m*3 6.4 C 0 km/h
688 05-12-2009 17:28:03 6.5 C 6.37 g/m*3 6.5 C 0 km/h
689 05-12-2009 17:40:02 6.7 C 6.38 g/m*3 6.7 C 0 km/h
690 05-12-2009 17:52:03 6.9 C 6.39 g/m*3 6.9 C 0 km/h
691 05-12-2009 18:04:02 7.1 C 6.24 g/m*3 7.1 C 0 km/h
692 05-12-2009 18:16:02 7.3 C 6.24 g/m*3 7.3 C 0 km/h
693 05-12-2009 18:28:02 7.3 C 6.24 g/m*3 7.3 C 0 km/h
694 05-12-2009 18:40:02 7.3 C 6.24 g/m*3 7.3 C 0 km/h
695 05-12-2009 18:52:02 7.3 C 6.32 g/m*3 7.3 C 0 km/h
696 05-12-2009 19:04:02 7.4 C 6.36 g/m*3 7.4 C 0 km/h
697 05-12-2009 19:16:02 7.3 C 6.32 g/m*3 7.3 C 0 km/h
698 05-12-2009 19:28:02 7.4 C 6.36 g/m*3 7.4 C 0 km/h
699 05-12-2009 19:40:02 7.4 C 6.36 g/m*3 7.4 C 0 km/h
700 05-12-2009 19:52:02 7.5 C 6.48 g/m*3 7.5 C 0 km/h
Sensor: Nr:Datum:Temp:Abs-Feuchte:Windchill:Wind:
Aussen-T/F 701 05-12-2009 20:04:01 7.6 C 6.61 g/m*3 7.6 C 0 km/h
702 05-12-2009 20:16:02 7.6 C 6.53 g/m*3 7.6 C 0 km/h
703 05-12-2009 20:28:02 7.6 C 6.61 g/m*3 7.6 C 0 km/h
704 05-12-2009 20:40:02 7.8 C 6.69 g/m*3 7.8 C 0 km/h
705 05-12-2009 20:52:02 7.8 C 6.69 g/m*3 7.8 C 0 km/h
706 05-12-2009 21:04:02 7.9 C 6.74 g/m*3 7.9 C 0 km/h
707 05-12-2009 21:16:02 7.9 C 6.74 g/m*3 7.9 C 0 km/h
708 05-12-2009 21:28:02 7.8 C 6.69 g/m*3 7.8 C 0 km/h
709 05-12-2009 21:40:03 7.9 C 6.82 g/m*3 7.9 C 0 km/h
710 05-12-2009 21:53:02 7.8 C 6.77 g/m*3 7.8 C 0 km/h
711 05-12-2009 22:05:02 7.8 C 6.77 g/m*3 7.8 C 0 km/h
712 05-12-2009 22:17:02 7.9 C 6.82 g/m*3 7.9 C 0 km/h
713 05-12-2009 22:29:02 7.9 C 6.82 g/m*3 7.9 C 0 km/h
714 05-12-2009 22:41:02 7.8 C 6.77 g/m*3 7.8 C 0 km/h
715 05-12-2009 22:53:02 7.9 C 6.82 g/m*3 7.9 C 0 km/h
716 05-12-2009 23:05:02 8 C 6.86 g/m*3 8 C 0 km/h
717 05-12-2009 23:17:03 8 C 6.86 g/m*3 8 C 0 km/h
718 05-12-2009 23:29:03 8.1 C 6.82 g/m*3 8.1 C 0 km/h
719 05-12-2009 23:41:03 8.2 C 6.95 g/m*3 8.2 C 0 km/h
720 05-12-2009 23:53:03 8.4 C 6.96 g/m*3 8.4 C 0 km/h
721 06-12-2009 00:05:03 8.6 C 7.05 g/m*3 8.6 C 0 km/h
722 06-12-2009 00:17:03 8.9 C 7.1 g/m*3 8.9 C 0 km/h
723 06-12-2009 00:29:03 9 C 6.96 g/m*3 9 C 0 km/h
724 06-12-2009 00:41:03 9.1 C 7.01 g/m*3 9.1 C 0 km/h
725 06-12-2009 00:53:03 9.2 C 7.05 g/m*3 9.2 C 0 km/h
Sensor: Nr:Datum:Temp:Abs-Feuchte:Windchill:Wind:
Aussen-T/F 726 06-12-2009 01:05:03 9.3 C 7.1 g/m*3 9.3 C 0 km/h
727 06-12-2009 01:17:03 9.4 C 7.15 g/m*3 9.4 C 0 km/h
728 06-12-2009 01:29:03 9.3 C 7.1 g/m*3 9.3 C 0 km/h
729 06-12-2009 01:41:03 9.5 C 7.19 g/m*3 9.5 C 0 km/h
730 06-12-2009 01:53:03 9.4 C 7.15 g/m*3 9.4 C 0 km/h
731 06-12-2009 02:05:03 9.5 C 7.19 g/m*3 9.5 C 0 km/h
732 06-12-2009 02:17:03 9.6 C 7.15 g/m*3 9.6 C 0 km/h
733 06-12-2009 02:29:03 9.6 C 7.15 g/m*3 9.6 C 0 km/h
734 06-12-2009 02:41:03 9.7 C 7.19 g/m*3 9.7 C 0 km/h
735 06-12-2009 02:53:03 9.8 C 7.14 g/m*3 9.8 C 0 km/h
736 06-12-2009 03:05:04 9.7 C 7.1 g/m*3 9.7 C 0 km/h
737 06-12-2009 03:17:04 10 C 7.05 g/m*3 10 C 0 km/h
738 06-12-2009 03:29:04 10 C 7.05 g/m*3 10 C 0 km/h
739 06-12-2009 03:41:04 9.9 C 7.19 g/m*3 9.9 C 0 km/h
740 06-12-2009 03:53:04 9.9 C 7.19 g/m*3 9.9 C 0 km/h
741 06-12-2009 04:05:04 10 C 7.14 g/m*3 10 C 0 km/h
742 06-12-2009 04:17:04 10 C 7.05 g/m*3 10 C 0 km/h
743 06-12-2009 04:29:04 10 C 7.14 g/m*3 10 C 0 km/h
744 06-12-2009 04:41:04 9.9 C 7.19 g/m*3 9.9 C 0 km/h
745 06-12-2009 04:53:04 9.7 C 7.19 g/m*3 9.7 C 0 km/h
746 06-12-2009 05:05:04 9.9 C 7.28 g/m*3 9.9 C 0 km/h
747 06-12-2009 05:17:04 10.2 C 7.23 g/m*3 10.2 C 0 km/h
748 06-12-2009 05:29:04 9.8 C 7.33 g/m*3 9.8 C 0 km/h
749 06-12-2009 05:41:04 9.4 C 7.33 g/m*3 9.4 C 0 km/h
750 06-12-2009 05:53:04 9.3 C 7.37 g/m*3 9.3 C 0 km/h
Sensor: Nr:Datum:Temp:Abs-Feuchte:Windchill:Wind:
Aussen-T/F 751 06-12-2009 06:05:04 9.4 C 7.42 g/m*3 9.4 C 0 km/h
752 06-12-2009 06:17:04 9.6 C 7.42 g/m*3 9.6 C 0 km/h
753 06-12-2009 06:29:04 9.2 C 7.41 g/m*3 9.2 C 0 km/h
754 06-12-2009 06:41:04 8.8 C 7.49 g/m*3 8.8 C 0 km/h
755 06-12-2009 06:53:05 8.9 C 7.71 g/m*3 8.9 C 0 km/h
756 06-12-2009 07:05:05 8.8 C 7.66 g/m*3 8.8 C 0 km/h
757 06-12-2009 07:17:05 8.6 C 7.56 g/m*3 8.6 C 0 km/h
758 06-12-2009 07:29:05 8.4 C 7.55 g/m*3 8.4 C 0 km/h
759 06-12-2009 07:41:02 8.4 C 7.55 g/m*3 8.4 C 0 km/h
760 06-12-2009 07:53:02 8.3 C 7.5 g/m*3 8.3 C 0 km/h
761 06-12-2009 08:05:03 8.2 C 7.54 g/m*3 8.2 C 0 km/h
762 06-12-2009 08:17:02 8.2 C 7.54 g/m*3 8.2 C 0 km/h
763 06-12-2009 08:29:02 8.2 C 7.62 g/m*3 8.2 C 0 km/h
764 06-12-2009 08:41:03 8.2 C 7.62 g/m*3 8.2 C 0 km/h
765 06-12-2009 08:53:02 8.2 C 7.62 g/m*3 8.2 C 0 km/h
766 06-12-2009 09:05:01 8.2 C 7.62 g/m*3 8.2 C 0 km/h
767 06-12-2009 09:17:02 8.4 C 7.72 g/m*3 8.4 C 0 km/h
768 06-12-2009 09:29:02 8.4 C 7.8 g/m*3 8.4 C 0 km/h
769 06-12-2009 09:41:02 8.6 C 7.91 g/m*3 8.6 C 0 km/h
770 06-12-2009 09:53:02 8.7 C 7.87 g/m*3 8.7 C 0 km/h
771 06-12-2009 10:05:02 8.8 C 7.83 g/m*3 8.8 C 0 km/h
772 06-12-2009 10:17:02 8.9 C 7.8 g/m*3 8.9 C 0 km/h
773 06-12-2009 10:29:02 9.2 C 7.86 g/m*3 9.2 C 0 km/h
774 06-12-2009 10:41:02 9.3 C 7.91 g/m*3 9.3 C 0 km/h
775 06-12-2009 10:53:02 9.6 C 8.06 g/m*3 9.6 C 0 km/h
Sensor: Nr:Datum:Temp:Abs-Feuchte:Windchill:Wind:
Aussen-T/F 776 06-12-2009 11:05:02 9.7 C 8.11 g/m*3 9.7 C 0 km/h
777 06-12-2009 11:17:02 9.8 C 8.07 g/m*3 9.8 C 0 km/h
778 06-12-2009 11:29:03 9.7 C 7.93 g/m*3 9.7 C 0 km/h
779 06-12-2009 11:41:02 9.8 C 7.89 g/m*3 9.8 C 0 km/h
780 06-12-2009 11:53:02 9.8 C 7.61 g/m*3 9.8 C 0 km/h
781 06-12-2009 12:05:02 10 C 7.52 g/m*3 10 C 0 km/h
782 06-12-2009 12:17:02 10.2 C 7.61 g/m*3 10.2 C 0 km/h
783 06-12-2009 12:29:03 10.2 C 7.71 g/m*3 10.2 C 0 km/h
784 06-12-2009 12:41:02 10.2 C 7.71 g/m*3 10.2 C 0 km/h
785 06-12-2009 12:53:02 10.2 C 7.8 g/m*3 10.2 C 0 km/h
786 06-12-2009 13:05:02 10.1 C 7.75 g/m*3 10.1 C 0 km/h
787 06-12-2009 13:17:01 10.3 C 7.57 g/m*3 10.3 C 0 km/h
788 06-12-2009 13:29:01 10.7 C 7.27 g/m*3 10.7 C 0 km/h
789 06-12-2009 13:41:02 10.9 C 6.96 g/m*3 10.9 C 0 km/h
790 06-12-2009 13:53:02 11.1 C 7.05 g/m*3 11.1 C 0 km/h
791 06-12-2009 14:05:02 11.6 C 7.17 g/m*3 11.6 C 0 km/h
792 06-12-2009 14:17:02 11.9 C 7.1 g/m*3 11.9 C 0 km/h
793 06-12-2009 14:29:02 12 C 6.93 g/m*3 12 C 0 km/h
794 06-12-2009 14:41:02 11.8 C 7.05 g/m*3 11.8 C 0 km/h
795 06-12-2009 14:53:01 11.6 C 7.17 g/m*3 11.6 C 0 km/h
796 06-12-2009 15:05:01 11.6 C 7.28 g/m*3 11.6 C 0 km/h
797 06-12-2009 15:17:02 11.4 C 7.29 g/m*3 11.4 C 0 km/h
798 06-12-2009 15:29:02 11.2 C 7.5 g/m*3 11.2 C 0 km/h
799 06-12-2009 15:41:01 11.1 C 7.45 g/m*3 11.1 C 0 km/h
800 06-12-2009 15:53:02 11.1 C 7.45 g/m*3 11.1 C 0 km/h
Sensor: Nr:Datum:Temp:Abs-Feuchte:Windchill:Wind:
Aussen-T/F 801 06-12-2009 16:05:02 11.2 C 7.4 g/m*3 11.2 C 0 km/h
802 06-12-2009 16:17:02 11.1 C 7.35 g/m*3 11.1 C 0 km/h
803 06-12-2009 16:29:02 11.1 C 7.35 g/m*3 11.1 C 0 km/h
804 06-12-2009 16:41:02 11.1 C 7.35 g/m*3 11.1 C 0 km/h
805 06-12-2009 16:53:01 11 C 7.41 g/m*3 11 C 0 km/h
806 06-12-2009 17:05:02 11 C 7.41 g/m*3 11 C 0 km/h
807 06-12-2009 17:17:02 10.9 C 7.46 g/m*3 10.9 C 0 km/h
808 06-12-2009 17:29:02 10.9 C 7.66 g/m*3 10.9 C 0 km/h
809 06-12-2009 17:41:01 11 C 7.71 g/m*3 11 C 0 km/h
810 06-12-2009 17:53:02 10.8 C 7.71 g/m*3 10.8 C 0 km/h
811 06-12-2009 18:05:07 11 C 7.71 g/m*3 11 C 0 km/h
812 06-12-2009 18:17:05 11 C 7.71 g/m*3 11 C 0 km/h
813 06-12-2009 18:29:05 11 C 7.71 g/m*3 11 C 0 km/h
814 06-12-2009 18:41:05 11 C 7.71 g/m*3 11 C 0 km/h
815 06-12-2009 18:53:05 11 C 7.71 g/m*3 11 C 0 km/h
816 06-12-2009 19:05:05 11.2 C 7.7 g/m*3 11.2 C 0 km/h
817 06-12-2009 19:17:06 11.4 C 7.8 g/m*3 11.4 C 0 km/h
818 06-12-2009 19:29:06 11.4 C 7.8 g/m*3 11.4 C 0 km/h
819 06-12-2009 19:41:06 11.4 C 7.9 g/m*3 11.4 C 0 km/h
820 06-12-2009 19:53:02 11 C 8.01 g/m*3 11 C 0 km/h
821 06-12-2009 20:05:02 11 C 8.31 g/m*3 11 C 0 km/h
822 06-12-2009 20:17:02 10.7 C 8.25 g/m*3 10.7 C 0 km/h
823 06-12-2009 20:29:02 10.6 C 8.2 g/m*3 10.6 C 0 km/h
824 06-12-2009 20:41:02 10.5 C 8.24 g/m*3 10.5 C 0 km/h
825 06-12-2009 20:53:02 10.4 C 8.19 g/m*3 10.4 C 0 km/h
Sensor: Nr:Datum:Temp:Abs-Feuchte:Windchill:Wind:
Aussen-T/F 826 06-12-2009 21:05:02 10.4 C 8.19 g/m*3 10.4 C 0 km/h
827 06-12-2009 21:17:02 10 C 7.99 g/m*3 10 C 0 km/h
828 06-12-2009 21:29:02 9.6 C 7.88 g/m*3 9.6 C 0 km/h
829 06-12-2009 21:41:02 9.3 C 7.82 g/m*3 9.3 C 0 km/h
830 06-12-2009 21:54:02 9.2 C 7.77 g/m*3 9.2 C 0 km/h
831 06-12-2009 22:06:02 9 C 7.76 g/m*3 9 C 0 km/h
832 06-12-2009 22:18:02 8.9 C 7.8 g/m*3 8.9 C 0 km/h
833 06-12-2009 22:30:03 8.9 C 7.88 g/m*3 8.9 C 0 km/h
834 06-12-2009 22:42:03 8.9 C 7.88 g/m*3 8.9 C 0 km/h
835 06-12-2009 22:54:03 8.6 C 7.65 g/m*3 8.6 C 0 km/h
836 06-12-2009 23:06:03 8.4 C 7.47 g/m*3 8.4 C 0 km/h
837 06-12-2009 23:18:03 8 C 7.19 g/m*3 8 C 0 km/h
838 06-12-2009 23:30:03 7.7 C 7.14 g/m*3 7.7 C 0 km/h
839 06-12-2009 23:42:03 7.6 C 6.93 g/m*3 7.6 C 0 km/h
840 06-12-2009 23:54:03 7.3 C 6.72 g/m*3 7.3 C 0 km/h
841 07-12-2009 00:06:03 6.9 C 6.62 g/m*3 6.9 C 0 km/h
842 07-12-2009 00:18:03 6.7 C 6.46 g/m*3 6.7 C 0 km/h
843 07-12-2009 00:30:03 7 C 6.43 g/m*3 7 C 0 km/h
844 07-12-2009 00:42:03 6.7 C 6.31 g/m*3 6.7 C 0 km/h
845 07-12-2009 00:54:03 6.6 C 6.34 g/m*3 6.6 C 0 km/h
846 07-12-2009 01:06:03 6.6 C 6.42 g/m*3 6.6 C 0 km/h
847 07-12-2009 01:18:03 6.8 C 6.5 g/m*3 6.8 C 0 km/h
848 07-12-2009 01:30:03 6.6 C 6.42 g/m*3 6.6 C 0 km/h
849 07-12-2009 01:42:03 6.5 C 6.45 g/m*3 6.5 C 0 km/h
850 07-12-2009 01:54:03 5.9 C 6.27 g/m*3 5.9 C 0 km/h
Sensor: Nr:Datum:Temp:Abs-Feuchte:Windchill:Wind:
Aussen-T/F 851 07-12-2009 02:06:03 5.4 C 6.07 g/m*3 5.4 C 0 km/h
852 07-12-2009 02:18:03 4.9 C 5.94 g/m*3 4.9 C 0 km/h
853 07-12-2009 02:30:04 4.7 C 5.93 g/m*3 4.7 C 0 km/h
854 07-12-2009 02:42:04 4.7 C 5.93 g/m*3 4.7 C 0 km/h
855 07-12-2009 02:54:04 4.5 C 5.85 g/m*3 4.5 C 0 km/h
856 07-12-2009 03:06:04 4.3 C 5.84 g/m*3 4.3 C 0 km/h
857 07-12-2009 03:18:04 4.3 C 5.84 g/m*3 4.3 C 0 km/h
858 07-12-2009 03:30:04 4.4 C 5.94 g/m*3 4.4 C 0 km/h
859 07-12-2009 03:42:04 4 C 5.79 g/m*3 4 C 0 km/h
860 07-12-2009 03:54:04 3.9 C 5.81 g/m*3 3.9 C 0 km/h
861 07-12-2009 04:06:04 3.7 C 5.73 g/m*3 3.7 C 0 km/h
862 07-12-2009 04:18:04 3.6 C 5.69 g/m*3 3.6 C 0 km/h
863 07-12-2009 04:30:04 3.5 C 5.66 g/m*3 3.5 C 0 km/h
864 07-12-2009 04:42:04 3.3 C 5.58 g/m*3 3.3 C 0 km/h
865 07-12-2009 04:54:04 3 C 5.47 g/m*3 3 C 0 km/h
866 07-12-2009 05:06:04 3 C 5.53 g/m*3 3 C 0 km/h
867 07-12-2009 05:18:04 2.9 C 5.55 g/m*3 2.9 C 0 km/h
868 07-12-2009 05:30:04 2.6 C 5.44 g/m*3 2.6 C 0 km/h
869 07-12-2009 05:42:04 2.3 C 5.33 g/m*3 2.3 C 0 km/h
870 07-12-2009 05:54:04 2.2 C 5.29 g/m*3 2.2 C 0 km/h
871 07-12-2009 06:06:04 2.3 C 5.33 g/m*3 2.3 C 0 km/h
872 07-12-2009 06:18:04 2.4 C 5.37 g/m*3 2.4 C 0 km/h
873 07-12-2009 06:30:04 2.3 C 5.33 g/m*3 2.3 C 0 km/h
874 07-12-2009 06:42:05 2.5 C 5.46 g/m*3 2.5 C 0 km/h
875 07-12-2009 06:54:05 3 C 5.65 g/m*3 3 C 0 km/h
Sensor: Nr:Datum:Temp:Abs-Feuchte:Windchill:Wind:
Aussen-T/F 876 07-12-2009 07:06:02 3 C 5.65 g/m*3 3 C 0 km/h
877 07-12-2009 07:18:02 3 C 5.65 g/m*3 3 C 0 km/h
878 07-12-2009 07:30:02 2.8 C 5.57 g/m*3 2.8 C 0 km/h
879 07-12-2009 07:42:02 2.9 C 5.61 g/m*3 2.9 C 0 km/h
880 07-12-2009 07:54:02 2.7 C 5.54 g/m*3 2.7 C 0 km/h
881 07-12-2009 08:06:02 2.8 C 5.57 g/m*3 2.8 C 0 km/h
882 07-12-2009 08:18:02 3.3 C 5.76 g/m*3 3.3 C 0 km/h
883 07-12-2009 08:30:02 3.3 C 5.76 g/m*3 3.3 C 0 km/h
884 07-12-2009 08:42:02 3.3 C 5.76 g/m*3 3.3 C 0 km/h
885 07-12-2009 08:54:01 2.9 C 5.61 g/m*3 2.9 C 0 km/h
886 07-12-2009 09:06:02 2.9 C 5.61 g/m*3 2.9 C 0 km/h
887 07-12-2009 09:18:02 3 C 5.65 g/m*3 3 C 0 km/h
888 07-12-2009 09:30:02 3.4 C 5.8 g/m*3 3.4 C 0 km/h
889 07-12-2009 09:42:01 4.5 C 6.24 g/m*3 4.5 C 0 km/h
890 07-12-2009 09:54:01 5.2 C 6.54 g/m*3 5.2 C 0 km/h
891 07-12-2009 10:06:02 5.4 C 6.63 g/m*3 5.4 C 0 km/h
892 07-12-2009 10:18:01 5.5 C 6.6 g/m*3 5.5 C 0 km/h
893 07-12-2009 10:30:01 5.8 C 6.52 g/m*3 5.8 C 0 km/h
894 07-12-2009 10:42:01 5.9 C 6.42 g/m*3 5.9 C 0 km/h
895 07-12-2009 10:54:02 6.3 C 6.29 g/m*3 6.3 C 0 km/h
896 07-12-2009 11:06:02 6.5 C 6.3 g/m*3 6.5 C 0 km/h
897 07-12-2009 11:18:03 6.7 C 6.23 g/m*3 6.7 C 0 km/h
898 07-12-2009 11:30:03 6.8 C 6.27 g/m*3 6.8 C 0 km/h
899 07-12-2009 11:42:02 7 C 6.28 g/m*3 7 C 0 km/h
900 07-12-2009 11:54:02 7.1 C 6.01 g/m*3 7.1 C 0 km/h
Sensor: Nr:Datum:Temp:Abs-Feuchte:Windchill:Wind:
Aussen-T/F 901 07-12-2009 12:06:01 7.1 C 6.01 g/m*3 7.1 C 0 km/h
902 07-12-2009 12:18:02 7.4 C 5.88 g/m*3 7.4 C 0 km/h
903 07-12-2009 12:30:03 7.5 C 5.84 g/m*3 7.5 C 0 km/h
904 07-12-2009 12:42:01 7.7 C 6.16 g/m*3 7.7 C 0 km/h
905 07-12-2009 12:54:02 7.9 C 6.16 g/m*3 7.9 C 0 km/h
906 07-12-2009 13:06:02 7.7 C 6 g/m*3 7.7 C 0 km/h
907 07-12-2009 13:18:02 7.8 C 5.96 g/m*3 7.8 C 0 km/h
908 07-12-2009 13:30:02 7.9 C 5.67 g/m*3 7.9 C 0 km/h
909 07-12-2009 13:42:03 7.7 C 5.59 g/m*3 7.7 C 0 km/h
910 07-12-2009 13:54:02 7.5 C 5.68 g/m*3 7.5 C 0 km/h
911 07-12-2009 14:06:02 7.8 C 5.71 g/m*3 7.8 C 0 km/h
912 07-12-2009 14:18:02 8 C 5.62 g/m*3 8 C 0 km/h
913 07-12-2009 14:30:02 8 C 5.21 g/m*3 8 C 0 km/h
914 07-12-2009 14:42:02 8 C 5.13 g/m*3 8 C 0 km/h
915 07-12-2009 14:54:01 7.6 C 5.24 g/m*3 7.6 C 0 km/h
916 07-12-2009 15:06:02 7.4 C 5.25 g/m*3 7.4 C 0 km/h
917 07-12-2009 15:18:01 7.2 C 5.26 g/m*3 7.2 C 0 km/h
918 07-12-2009 15:30:01 7.1 C 5.23 g/m*3 7.1 C 0 km/h
919 07-12-2009 15:42:02 7.1 C 5.3 g/m*3 7.1 C 0 km/h
920 07-12-2009 15:54:02 7.2 C 5.26 g/m*3 7.2 C 0 km/h
921 07-12-2009 16:06:02 6.9 C 5.31 g/m*3 6.9 C 0 km/h
922 07-12-2009 16:18:01 6.7 C 5.32 g/m*3 6.7 C 0 km/h
923 07-12-2009 16:30:01 6.6 C 5.36 g/m*3 6.6 C 0 km/h
924 07-12-2009 16:42:02 6.4 C 5.36 g/m*3 6.4 C 0 km/h
925 07-12-2009 16:54:02 6.3 C 5.55 g/m*3 6.3 C 0 km/h
Sensor: Nr:Datum:Temp:Abs-Feuchte:Windchill:Wind:
Aussen-T/F 926 07-12-2009 17:06:02 6.2 C 5.66 g/m*3 6.2 C 0 km/h
927 07-12-2009 17:18:02 6.3 C 5.77 g/m*3 6.3 C 0 km/h
928 07-12-2009 17:30:02 6.3 C 5.85 g/m*3 6.3 C 0 km/h
929 07-12-2009 17:42:02 6.4 C 5.96 g/m*3 6.4 C 0 km/h
930 07-12-2009 17:54:01 6.5 C 6 g/m*3 6.5 C 0 km/h
931 07-12-2009 18:06:02 6.5 C 6 g/m*3 6.5 C 0 km/h
932 07-12-2009 18:18:02 6.6 C 6.04 g/m*3 6.6 C 0 km/h
933 07-12-2009 18:30:02 6.7 C 6.15 g/m*3 6.7 C 0 km/h
934 07-12-2009 18:42:02 6.6 C 6.11 g/m*3 6.6 C 0 km/h
935 07-12-2009 18:54:02 6.3 C 6 g/m*3 6.3 C 0 km/h
936 07-12-2009 19:06:02 6.3 C 6.07 g/m*3 6.3 C 0 km/h
937 07-12-2009 19:18:02 6.4 C 6.18 g/m*3 6.4 C 0 km/h
938 07-12-2009 19:30:03 6.4 C 6.18 g/m*3 6.4 C 0 km/h
939 07-12-2009 19:42:02 6.4 C 6.18 g/m*3 6.4 C 0 km/h
940 07-12-2009 19:54:02 6.2 C 6.1 g/m*3 6.2 C 0 km/h
941 07-12-2009 20:06:02 6.2 C 6.18 g/m*3 6.2 C 0 km/h
942 07-12-2009 20:18:02 6.3 C 6.29 g/m*3 6.3 C 0 km/h
943 07-12-2009 20:30:02 6.4 C 6.41 g/m*3 6.4 C 0 km/h
944 07-12-2009 20:42:03 6.3 C 6.44 g/m*3 6.3 C 0 km/h
945 07-12-2009 20:54:01 6.3 C 6.51 g/m*3 6.3 C 0 km/h
946 07-12-2009 21:06:02 6.3 C 6.59 g/m*3 6.3 C 0 km/h
947 07-12-2009 21:18:01 6.4 C 6.71 g/m*3 6.4 C 0 km/h
948 07-12-2009 21:30:01 6.4 C 6.71 g/m*3 6.4 C 0 km/h
949 07-12-2009 21:42:02 6.3 C 6.74 g/m*3 6.3 C 0 km/h
950 07-12-2009 21:55:03 6.4 C 6.85 g/m*3 6.4 C 0 km/h
Sensor: Nr:Datum:Temp:Abs-Feuchte:Windchill:Wind:
Aussen-T/F 951 07-12-2009 22:07:03 6.4 C 6.85 g/m*3 6.4 C 0 km/h
952 07-12-2009 22:19:03 6.2 C 6.77 g/m*3 6.2 C 0 km/h
953 07-12-2009 22:31:03 5.9 C 6.71 g/m*3 5.9 C 0 km/h
954 07-12-2009 22:43:03 5.8 C 6.66 g/m*3 5.8 C 0 km/h
955 07-12-2009 22:55:03 6 C 6.75 g/m*3 6 C 0 km/h
956 07-12-2009 23:07:03 6.1 C 6.87 g/m*3 6.1 C 0 km/h
957 07-12-2009 23:19:03 6.2 C 6.91 g/m*3 6.2 C 0 km/h
958 07-12-2009 23:31:03 6.5 C 7.05 g/m*3 6.5 C 0 km/h
959 07-12-2009 23:43:03 6.4 C 7.08 g/m*3 6.4 C 0 km/h
960 07-12-2009 23:55:03 6.5 C 7.12 g/m*3 6.5 C 0 km/h
961 08-12-2009 00:07:03 6.5 C 7.12 g/m*3 6.5 C 0 km/h
962 08-12-2009 00:19:04 6.4 C 7.08 g/m*3 6.4 C 0 km/h
963 08-12-2009 00:31:04 6.5 C 7.12 g/m*3 6.5 C 0 km/h
964 08-12-2009 00:43:04 6.4 C 7.08 g/m*3 6.4 C 0 km/h
965 08-12-2009 00:55:04 6.4 C 7.08 g/m*3 6.4 C 0 km/h
966 08-12-2009 01:07:04 6.5 C 7.12 g/m*3 6.5 C 0 km/h
967 08-12-2009 01:19:04 6.9 C 7.31 g/m*3 6.9 C 0 km/h
968 08-12-2009 01:31:04 7 C 7.36 g/m*3 7 C 0 km/h
969 08-12-2009 01:43:04 7.2 C 7.46 g/m*3 7.2 C 0 km/h
970 08-12-2009 01:55:04 7.3 C 7.51 g/m*3 7.3 C 0 km/h
971 08-12-2009 02:07:04 7.3 C 7.51 g/m*3 7.3 C 0 km/h
972 08-12-2009 02:19:04 7.1 C 7.41 g/m*3 7.1 C 0 km/h
973 08-12-2009 02:31:04 7.2 C 7.46 g/m*3 7.2 C 0 km/h
974 08-12-2009 02:43:04 7.1 C 7.41 g/m*3 7.1 C 0 km/h
975 08-12-2009 02:55:04 7.3 C 7.51 g/m*3 7.3 C 0 km/h
Sensor: Nr:Datum:Temp:Abs-Feuchte:Windchill:Wind:
Aussen-T/F 976 08-12-2009 03:07:04 7.5 C 7.6 g/m*3 7.5 C 0 km/h
977 08-12-2009 03:19:04 7.7 C 7.7 g/m*3 7.7 C 0 km/h
978 08-12-2009 03:31:04 7.6 C 7.65 g/m*3 7.6 C 0 km/h
979 08-12-2009 03:43:04 7.7 C 7.7 g/m*3 7.7 C 0 km/h
980 08-12-2009 03:55:04 8 C 7.85 g/m*3 8 C 0 km/h
981 08-12-2009 04:07:04 8.1 C 7.9 g/m*3 8.1 C 0 km/h
982 08-12-2009 04:19:04 7.9 C 7.8 g/m*3 7.9 C 0 km/h
983 08-12-2009 04:31:05 7.9 C 7.8 g/m*3 7.9 C 0 km/h
984 08-12-2009 04:43:05 7.9 C 7.8 g/m*3 7.9 C 0 km/h
985 08-12-2009 04:55:05 7.8 C 7.75 g/m*3 7.8 C 0 km/h
986 08-12-2009 05:07:05 7.9 C 7.8 g/m*3 7.9 C 0 km/h
987 08-12-2009 05:19:05 8.2 C 7.87 g/m*3 8.2 C 0 km/h
988 08-12-2009 05:31:05 8.5 C 7.85 g/m*3 8.5 C 0 km/h
989 08-12-2009 05:43:05 8.5 C 7.51 g/m*3 8.5 C 0 km/h
990 08-12-2009 05:55:05 8.3 C 7 g/m*3 8.3 C 0 km/h
991 08-12-2009 06:07:05 8 C 6.28 g/m*3 8 C 0 km/h
992 08-12-2009 06:19:05 7.8 C 6.12 g/m*3 7.8 C 0 km/h
993 08-12-2009 06:31:05 7.6 C 6.04 g/m*3 7.6 C 0 km/h
994 08-12-2009 06:43:05 7.4 C 5.88 g/m*3 7.4 C 0 km/h
995 08-12-2009 06:55:02 7.3 C 6 g/m*3 7.3 C 0 km/h
996 08-12-2009 07:07:02 7.2 C 5.97 g/m*3 7.2 C 0 km/h
997 08-12-2009 07:19:03 7.1 C 5.85 g/m*3 7.1 C 0 km/h
998 08-12-2009 07:31:02 6.8 C 5.97 g/m*3 6.8 C 0 km/h
999 08-12-2009 07:43:02 6.4 C 5.96 g/m*3 6.4 C 0 km/h
1000 08-12-2009 07:55:03 6.2 C 6.03 g/m*3 6.2 C 0 km/h
Sensor: Nr:Datum:Temp:Abs-Feuchte:Windchill:Wind:
Aussen-T/F 1001 08-12-2009 08:07:02 6 C 5.88 g/m*3 6 C 0 km/h
1002 08-12-2009 08:19:02 5.9 C 6.06 g/m*3 5.9 C 0 km/h
1003 08-12-2009 08:31:02 6 C 6.02 g/m*3 6 C 0 km/h
1004 08-12-2009 08:43:02 6 C 6.1 g/m*3 6 C 0 km/h
1005 08-12-2009 08:55:02 6.2 C 6.18 g/m*3 6.2 C 0 km/h
1006 08-12-2009 09:07:02 6.3 C 6.14 g/m*3 6.3 C 0 km/h
1007 08-12-2009 09:19:02 6.2 C 6.1 g/m*3 6.2 C 0 km/h
1008 08-12-2009 09:31:02 6.2 C 5.96 g/m*3 6.2 C 0 km/h
1009 08-12-2009 09:43:02 6.4 C 5.81 g/m*3 6.4 C 0 km/h
1010 08-12-2009 09:55:02 6.6 C 5.89 g/m*3 6.6 C 0 km/h
1011 08-12-2009 10:07:02 6.8 C 5.89 g/m*3 6.8 C 0 km/h
1012 08-12-2009 10:19:01 6.8 C 5.74 g/m*3 6.8 C 0 km/h
1013 08-12-2009 10:31:02 6.9 C 5.77 g/m*3 6.9 C 0 km/h
1014 08-12-2009 10:43:02 7.1 C 5.85 g/m*3 7.1 C 0 km/h
1015 08-12-2009 10:55:02 7.3 C 5.85 g/m*3 7.3 C 0 km/h
1016 08-12-2009 11:07:02 7.4 C 5.88 g/m*3 7.4 C 0 km/h
1017 08-12-2009 11:19:02 7.4 C 5.81 g/m*3 7.4 C 0 km/h
1018 08-12-2009 11:31:02 7.4 C 5.81 g/m*3 7.4 C 0 km/h
1019 08-12-2009 11:43:02 7.5 C 5.92 g/m*3 7.5 C 0 km/h
1020 08-12-2009 11:55:02 7.4 C 5.73 g/m*3 7.4 C 0 km/h
1021 08-12-2009 12:07:02 7.4 C 5.73 g/m*3 7.4 C 0 km/h
1022 08-12-2009 12:19:02 7.4 C 5.81 g/m*3 7.4 C 0 km/h
1023 08-12-2009 12:31:02 7.6 C 5.72 g/m*3 7.6 C 0 km/h
1024 08-12-2009 12:43:02 7.9 C 5.67 g/m*3 7.9 C 0 km/h
1025 08-12-2009 12:55:02 8 C 5.46 g/m*3 8 C 0 km/h
Sensor: Nr:Datum:Temp:Abs-Feuchte:Windchill:Wind:
Aussen-T/F 1026 08-12-2009 13:07:02 8 C 5.37 g/m*3 8 C 0 km/h
1027 08-12-2009 13:19:03 7.9 C 5.5 g/m*3 7.9 C 0 km/h
1028 08-12-2009 13:31:02 7.8 C 5.55 g/m*3 7.8 C 0 km/h
1029 08-12-2009 13:43:02 7.6 C 5.48 g/m*3 7.6 C 0 km/h
1030 08-12-2009 13:55:03 7.5 C 5.52 g/m*3 7.5 C 0 km/h
1031 08-12-2009 14:07:02 7.5 C 5.6 g/m*3 7.5 C 0 km/h
1032 08-12-2009 14:19:02 7.5 C 5.52 g/m*3 7.5 C 0 km/h
1033 08-12-2009 14:31:02 7.8 C 5.63 g/m*3 7.8 C 0 km/h
1034 08-12-2009 14:43:02 7.8 C 5.55 g/m*3 7.8 C 0 km/h
1035 08-12-2009 14:55:02 7.8 C 5.55 g/m*3 7.8 C 0 km/h
1036 08-12-2009 15:07:02 7.8 C 5.63 g/m*3 7.8 C 0 km/h
1037 08-12-2009 15:19:02 7.7 C 5.59 g/m*3 7.7 C 0 km/h
1038 08-12-2009 15:31:02 7.5 C 5.68 g/m*3 7.5 C 0 km/h
1039 08-12-2009 15:43:02 7.3 C 5.61 g/m*3 7.3 C 0 km/h
1040 08-12-2009 15:55:02 7.4 C 5.57 g/m*3 7.4 C 0 km/h
1041 08-12-2009 16:07:01 7.3 C 5.61 g/m*3 7.3 C 0 km/h
1042 08-12-2009 16:19:01 6.9 C 5.7 g/m*3 6.9 C 0 km/h
1043 08-12-2009 16:31:02 6.9 C 5.62 g/m*3 6.9 C 0 km/h
1044 08-12-2009 16:43:02 6.9 C 5.62 g/m*3 6.9 C 0 km/h
1045 08-12-2009 16:55:02 6.8 C 5.66 g/m*3 6.8 C 0 km/h
1046 08-12-2009 17:07:02 6.5 C 5.7 g/m*3 6.5 C 0 km/h
1047 08-12-2009 17:19:02 6.5 C 5.7 g/m*3 6.5 C 0 km/h
1048 08-12-2009 17:31:02 6.5 C 5.7 g/m*3 6.5 C 0 km/h
1049 08-12-2009 17:43:02 6.4 C 5.66 g/m*3 6.4 C 0 km/h
1050 08-12-2009 17:55:01 6.3 C 5.7 g/m*3 6.3 C 0 km/h
Sensor: Nr:Datum:Temp:Abs-Feuchte:Windchill:Wind:
Aussen-T/F 1051 08-12-2009 18:07:02 6 C 5.66 g/m*3 6 C 0 km/h
1052 08-12-2009 18:19:01 5.9 C 5.77 g/m*3 5.9 C 0 km/h
1053 08-12-2009 18:31:02 5.8 C 5.8 g/m*3 5.8 C 0 km/h
1054 08-12-2009 18:43:03 5.7 C 5.76 g/m*3 5.7 C 0 km/h
1055 08-12-2009 18:55:02 5.8 C 5.87 g/m*3 5.8 C 0 km/h
1056 08-12-2009 19:07:02 5.7 C 5.84 g/m*3 5.7 C 0 km/h
1057 08-12-2009 19:19:01 6 C 5.88 g/m*3 6 C 0 km/h
1058 08-12-2009 19:31:02 6 C 5.81 g/m*3 6 C 0 km/h
1059 08-12-2009 19:43:02 6.1 C 5.84 g/m*3 6.1 C 0 km/h
1060 08-12-2009 19:55:02 6.2 C 5.88 g/m*3 6.2 C 0 km/h
1061 08-12-2009 20:07:02 6.2 C 5.88 g/m*3 6.2 C 0 km/h
1062 08-12-2009 20:19:02 6.3 C 5.92 g/m*3 6.3 C 0 km/h
1063 08-12-2009 20:31:02 6.3 C 6 g/m*3 6.3 C 0 km/h
1064 08-12-2009 20:43:02 6.3 C 6 g/m*3 6.3 C 0 km/h
1065 08-12-2009 20:55:02 6.3 C 6.07 g/m*3 6.3 C 0 km/h
1066 08-12-2009 21:07:01 6.3 C 6.07 g/m*3 6.3 C 0 km/h
1067 08-12-2009 21:19:02 6.4 C 6.11 g/m*3 6.4 C 0 km/h
1068 08-12-2009 21:31:01 6.4 C 6.11 g/m*3 6.4 C 0 km/h
1069 08-12-2009 21:43:01 6.5 C 6.15 g/m*3 6.5 C 0 km/h
1070 08-12-2009 21:55:02 6.5 C 6.15 g/m*3 6.5 C 0 km/h
1071 08-12-2009 22:07:02 6.4 C 6.11 g/m*3 6.4 C 0 km/h
1072 08-12-2009 22:19:02 6.4 C 6.11 g/m*3 6.4 C 0 km/h
1073 08-12-2009 22:31:02 6.4 C 6.11 g/m*3 6.4 C 0 km/h
1074 08-12-2009 22:43:02 6.3 C 6.14 g/m*3 6.3 C 0 km/h
1075 08-12-2009 22:55:02 6.3 C 6.22 g/m*3 6.3 C 0 km/h
Sensor: Nr:Datum:Temp:Abs-Feuchte:Windchill:Wind:
Aussen-T/F 1076 08-12-2009 23:07:02 6.4 C 6.26 g/m*3 6.4 C 0 km/h
1077 08-12-2009 23:19:02 6.5 C 6.22 g/m*3 6.5 C 0 km/h
1078 08-12-2009 23:31:02 6.5 C 6.22 g/m*3 6.5 C 0 km/h
1079 08-12-2009 23:43:02 6.4 C 6.26 g/m*3 6.4 C 0 km/h
1080 08-12-2009 23:55:02 6.3 C 6.37 g/m*3 6.3 C 0 km/h
1081 09-12-2009 00:07:01 6.2 C 6.4 g/m*3 6.2 C 0 km/h
1082 09-12-2009 00:19:02 6.2 C 6.47 g/m*3 6.2 C 0 km/h
1083 09-12-2009 00:31:01 6 C 6.39 g/m*3 6 C 0 km/h
1084 09-12-2009 00:43:01 6 C 6.46 g/m*3 6 C 0 km/h
1085 09-12-2009 00:55:02 6 C 6.46 g/m*3 6 C 0 km/h
1086 09-12-2009 01:07:01 5.9 C 6.49 g/m*3 5.9 C 0 km/h
1087 09-12-2009 01:19:01 6 C 6.46 g/m*3 6 C 0 km/h
1088 09-12-2009 01:31:02 6 C 6.46 g/m*3 6 C 0 km/h
1089 09-12-2009 01:43:02 6.1 C 6.5 g/m*3 6.1 C 0 km/h
1090 09-12-2009 01:55:02 6.1 C 6.5 g/m*3 6.1 C 0 km/h
1091 09-12-2009 02:07:02 6.1 C 6.43 g/m*3 6.1 C 0 km/h
1092 09-12-2009 02:19:02 5.9 C 6.42 g/m*3 5.9 C 0 km/h
1093 09-12-2009 02:31:02 5.9 C 6.35 g/m*3 5.9 C 0 km/h
1094 09-12-2009 02:43:02 5.7 C 6.26 g/m*3 5.7 C 0 km/h
1095 09-12-2009 02:55:01 5.5 C 6.18 g/m*3 5.5 C 0 km/h
1096 09-12-2009 03:07:01 5.5 C 6.18 g/m*3 5.5 C 0 km/h
1097 09-12-2009 03:19:02 5.6 C 6.29 g/m*3 5.6 C 0 km/h
1098 09-12-2009 03:31:01 5.8 C 6.3 g/m*3 5.8 C 0 km/h
1099 09-12-2009 03:43:01 5.9 C 6.2 g/m*3 5.9 C 0 km/h
1100 09-12-2009 03:55:01 5.9 C 6.13 g/m*3 5.9 C 0 km/h
Sensor: Nr:Datum:Temp:Abs-Feuchte:Windchill:Wind:
Aussen-T/F 1101 09-12-2009 04:07:01 5.9 C 6.06 g/m*3 5.9 C 0 km/h
1102 09-12-2009 04:19:01 5.9 C 5.98 g/m*3 5.9 C 0 km/h
1103 09-12-2009 04:31:02 5.9 C 5.91 g/m*3 5.9 C 0 km/h
1104 09-12-2009 04:43:02 5.9 C 5.91 g/m*3 5.9 C 0 km/h
1105 09-12-2009 04:55:01 5.9 C 5.84 g/m*3 5.9 C 0 km/h
1106 09-12-2009 05:07:02 5.9 C 5.84 g/m*3 5.9 C 0 km/h
1107 09-12-2009 05:19:01 6 C 5.81 g/m*3 6 C 0 km/h
1108 09-12-2009 05:31:01 6 C 5.73 g/m*3 6 C 0 km/h
1109 09-12-2009 05:43:01 6 C 5.73 g/m*3 6 C 0 km/h
1110 09-12-2009 05:55:01 5.9 C 5.77 g/m*3 5.9 C 0 km/h
1111 09-12-2009 06:07:01 6 C 5.66 g/m*3 6 C 0 km/h
1112 09-12-2009 06:19:01 6 C 5.59 g/m*3 6 C 0 km/h
1113 09-12-2009 06:31:01 6 C 5.59 g/m*3 6 C 0 km/h
1114 09-12-2009 06:43:01 6 C 5.66 g/m*3 6 C 0 km/h
1115 09-12-2009 06:55:01 6.2 C 5.59 g/m*3 6.2 C 0 km/h
1116 09-12-2009 07:07:01 6.2 C 5.52 g/m*3 6.2 C 0 km/h
1117 09-12-2009 07:19:02 6.3 C 5.55 g/m*3 6.3 C 0 km/h
1118 09-12-2009 07:31:01 6.4 C 5.59 g/m*3 6.4 C 0 km/h
1119 09-12-2009 07:43:01 6.4 C 5.59 g/m*3 6.4 C 0 km/h
1120 09-12-2009 07:55:02 6.4 C 5.59 g/m*3 6.4 C 0 km/h
1121 09-12-2009 08:07:01 6.4 C 5.66 g/m*3 6.4 C 0 km/h
1122 09-12-2009 08:19:01 6.3 C 5.63 g/m*3 6.3 C 0 km/h
1123 09-12-2009 08:31:01 5.8 C 5.52 g/m*3 5.8 C 0 km/h
1124 09-12-2009 08:43:01 5.7 C 5.55 g/m*3 5.7 C 0 km/h
1125 09-12-2009 08:55:02 5.3 C 5.48 g/m*3 5.3 C 0 km/h
Sensor: Nr:Datum:Temp:Abs-Feuchte:Windchill:Wind:
Aussen-T/F 1126 09-12-2009 09:07:01 5.2 C 5.58 g/m*3 5.2 C 0 km/h
1127 09-12-2009 09:19:01 5.5 C 5.69 g/m*3 5.5 C 0 km/h
1128 09-12-2009 09:31:02 5.7 C 5.76 g/m*3 5.7 C 0 km/h
1129 09-12-2009 09:43:02 5.9 C 5.84 g/m*3 5.9 C 0 km/h
1130 09-12-2009 09:55:01 6 C 5.73 g/m*3 6 C 0 km/h
1131 09-12-2009 10:07:02 6.5 C 5.85 g/m*3 6.5 C 0 km/h
1132 09-12-2009 10:19:01 7.1 C 5.77 g/m*3 7.1 C 0 km/h
1133 09-12-2009 10:31:01 7.5 C 5.6 g/m*3 7.5 C 0 km/h
1134 09-12-2009 10:43:02 7.6 C 5.64 g/m*3 7.6 C 0 km/h
1135 09-12-2009 10:55:01 7.6 C 5.56 g/m*3 7.6 C 0 km/h
1136 09-12-2009 11:07:02 7.8 C 5.63 g/m*3 7.8 C 0 km/h
1137 09-12-2009 11:19:01 7.9 C 5.59 g/m*3 7.9 C 0 km/h
1138 09-12-2009 11:31:01 8 C 5.62 g/m*3 8 C 0 km/h
1139 09-12-2009 11:43:01 8 C 5.54 g/m*3 8 C 0 km/h
1140 09-12-2009 11:55:01 8.1 C 5.57 g/m*3 8.1 C 0 km/h
1141 09-12-2009 12:07:01 8.2 C 5.61 g/m*3 8.2 C 0 km/h
1142 09-12-2009 12:19:02 8.4 C 5.6 g/m*3 8.4 C 0 km/h
1143 09-12-2009 12:31:01 8.5 C 5.64 g/m*3 8.5 C 0 km/h
1144 09-12-2009 12:43:01 8.4 C 5.6 g/m*3 8.4 C 0 km/h
1145 09-12-2009 12:55:02 8.7 C 5.71 g/m*3 8.7 C 0 km/h
1146 09-12-2009 13:07:01 9 C 5.64 g/m*3 9 C 0 km/h
1147 09-12-2009 13:19:02 9.1 C 5.68 g/m*3 9.1 C 0 km/h
1148 09-12-2009 13:31:01 8.7 C 5.71 g/m*3 8.7 C 0 km/h
1149 09-12-2009 13:43:01 8.8 C 5.83 g/m*3 8.8 C 0 km/h
1150 09-12-2009 13:55:02 9.1 C 5.86 g/m*3 9.1 C 0 km/h
Sensor: Nr:Datum:Temp:Abs-Feuchte:Windchill:Wind:
Aussen-T/F 1151 09-12-2009 14:07:01 8.9 C 5.87 g/m*3 8.9 C 0 km/h
1152 09-12-2009 14:19:01 8.8 C 5.92 g/m*3 8.8 C 0 km/h
1153 09-12-2009 14:31:02 9 C 5.91 g/m*3 9 C 0 km/h
1154 09-12-2009 14:43:02 9.3 C 6.02 g/m*3 9.3 C 0 km/h
1155 09-12-2009 14:55:01 9.3 C 6.02 g/m*3 9.3 C 0 km/h
1156 09-12-2009 15:07:02 9.4 C 5.97 g/m*3 9.4 C 0 km/h
1157 09-12-2009 15:19:01 9.2 C 5.89 g/m*3 9.2 C 0 km/h
1158 09-12-2009 15:31:02 9.1 C 5.86 g/m*3 9.1 C 0 km/h
1159 09-12-2009 15:43:02 9.1 C 5.94 g/m*3 9.1 C 0 km/h
1160 09-12-2009 15:55:01 9 C 5.91 g/m*3 9 C 0 km/h
1161 09-12-2009 16:07:02 9 C 5.99 g/m*3 9 C 0 km/h
1162 09-12-2009 16:19:01 8.9 C 6.13 g/m*3 8.9 C 0 km/h
1163 09-12-2009 16:31:01 8.7 C 6.14 g/m*3 8.7 C 0 km/h
1164 09-12-2009 16:43:01 8.6 C 6.19 g/m*3 8.6 C 0 km/h
1165 09-12-2009 16:55:01 8.6 C 6.27 g/m*3 8.6 C 0 km/h
1166 09-12-2009 17:07:01 8.5 C 6.32 g/m*3 8.5 C 0 km/h
1167 09-12-2009 17:19:02 8.4 C 6.28 g/m*3 8.4 C 0 km/h
1168 09-12-2009 17:31:01 8.4 C 6.36 g/m*3 8.4 C 0 km/h
1169 09-12-2009 17:43:01 8.4 C 6.36 g/m*3 8.4 C 0 km/h
1170 09-12-2009 17:55:01 8.2 C 6.36 g/m*3 8.2 C 0 km/h
1171 09-12-2009 18:07:02 8.1 C 6.41 g/m*3 8.1 C 0 km/h
1172 09-12-2009 18:19:01 8.2 C 6.53 g/m*3 8.2 C 0 km/h
1173 09-12-2009 18:31:01 8.2 C 6.53 g/m*3 8.2 C 0 km/h
1174 09-12-2009 18:43:01 8.2 C 6.53 g/m*3 8.2 C 0 km/h
1175 09-12-2009 18:55:01 8.4 C 6.62 g/m*3 8.4 C 0 km/h
Sensor: Nr:Datum:Temp:Abs-Feuchte:Windchill:Wind:
Aussen-T/F 1176 09-12-2009 19:07:01 8.1 C 6.41 g/m*3 8.1 C 0 km/h
1177 09-12-2009 19:19:02 7.8 C 6.53 g/m*3 7.8 C 0 km/h
1178 09-12-2009 19:31:01 7.8 C 6.69 g/m*3 7.8 C 0 km/h
1179 09-12-2009 19:43:01 7.7 C 6.73 g/m*3 7.7 C 0 km/h
1180 09-12-2009 19:55:01 7.7 C 6.81 g/m*3 7.7 C 0 km/h
1181 09-12-2009 20:07:01 7.7 C 6.89 g/m*3 7.7 C 0 km/h
1182 09-12-2009 20:19:02 7.8 C 6.94 g/m*3 7.8 C 0 km/h
1183 09-12-2009 20:31:01 7.8 C 7.02 g/m*3 7.8 C 0 km/h
1184 09-12-2009 20:43:01 7.8 C 7.02 g/m*3 7.8 C 0 km/h
1185 09-12-2009 20:55:02 7.7 C 7.05 g/m*3 7.7 C 0 km/h
1186 09-12-2009 21:07:02 7.7 C 7.05 g/m*3 7.7 C 0 km/h
1187 09-12-2009 21:19:01 7.8 C 7.1 g/m*3 7.8 C 0 km/h
1188 09-12-2009 21:31:01 7.8 C 7.1 g/m*3 7.8 C 0 km/h
1189 09-12-2009 21:43:01 7.6 C 7.01 g/m*3 7.6 C 0 km/h
1190 09-12-2009 21:55:01 7.6 C 7.09 g/m*3 7.6 C 0 km/h
1191 09-12-2009 22:08:02 7.6 C 7.09 g/m*3 7.6 C 0 km/h
1192 09-12-2009 22:20:02 7.6 C 7.09 g/m*3 7.6 C 0 km/h
1193 09-12-2009 22:32:02 7.7 C 7.14 g/m*3 7.7 C 0 km/h
1194 09-12-2009 22:44:03 7.6 C 7.17 g/m*3 7.6 C 0 km/h
1195 09-12-2009 22:56:03 7.6 C 7.17 g/m*3 7.6 C 0 km/h
1196 09-12-2009 23:08:03 7.6 C 7.17 g/m*3 7.6 C 0 km/h
1197 09-12-2009 23:20:03 7.5 C 7.12 g/m*3 7.5 C 0 km/h
1198 09-12-2009 23:32:03 7.5 C 7.2 g/m*3 7.5 C 0 km/h
1199 09-12-2009 23:44:03 7.5 C 7.28 g/m*3 7.5 C 0 km/h
1200 09-12-2009 23:56:03 7.5 C 7.28 g/m*3 7.5 C 0 km/h
Sensor: Nr:Datum:Temp:Abs-Feuchte:Windchill:Wind:
Aussen-T/F 1201 10-12-2009 00:08:03 7.5 C 7.36 g/m*3 7.5 C 0 km/h
1202 10-12-2009 00:20:03 7.4 C 7.32 g/m*3 7.4 C 0 km/h
1203 10-12-2009 00:32:03 7.4 C 7.32 g/m*3 7.4 C 0 km/h
1204 10-12-2009 00:44:03 7.4 C 7.32 g/m*3 7.4 C 0 km/h
1205 10-12-2009 00:56:03 7.5 C 7.44 g/m*3 7.5 C 0 km/h
1206 10-12-2009 01:08:03 7.5 C 7.44 g/m*3 7.5 C 0 km/h
1207 10-12-2009 01:20:03 7.5 C 7.44 g/m*3 7.5 C 0 km/h
1208 10-12-2009 01:32:03 7.6 C 7.49 g/m*3 7.6 C 0 km/h
1209 10-12-2009 01:44:04 7.6 C 7.49 g/m*3 7.6 C 0 km/h
1210 10-12-2009 01:56:04 7.7 C 7.54 g/m*3 7.7 C 0 km/h
1211 10-12-2009 02:08:04 7.7 C 7.54 g/m*3 7.7 C 0 km/h
1212 10-12-2009 02:20:04 7.6 C 7.49 g/m*3 7.6 C 0 km/h
1213 10-12-2009 02:32:04 7.6 C 7.49 g/m*3 7.6 C 0 km/h
1214 10-12-2009 02:44:04 7.6 C 7.49 g/m*3 7.6 C 0 km/h
1215 10-12-2009 02:56:04 7.7 C 7.54 g/m*3 7.7 C 0 km/h
1216 10-12-2009 03:08:04 7.7 C 7.54 g/m*3 7.7 C 0 km/h
1217 10-12-2009 03:20:04 7.7 C 7.54 g/m*3 7.7 C 0 km/h
1218 10-12-2009 03:32:04 7.7 C 7.62 g/m*3 7.7 C 0 km/h
1219 10-12-2009 03:44:04 7.8 C 7.67 g/m*3 7.8 C 0 km/h
1220 10-12-2009 03:56:04 7.8 C 7.67 g/m*3 7.8 C 0 km/h
1221 10-12-2009 04:08:04 7.8 C 7.67 g/m*3 7.8 C 0 km/h
1222 10-12-2009 04:20:04 7.8 C 7.67 g/m*3 7.8 C 0 km/h
1223 10-12-2009 04:32:04 7.8 C 7.67 g/m*3 7.8 C 0 km/h
1224 10-12-2009 04:44:04 7.8 C 7.67 g/m*3 7.8 C 0 km/h
1225 10-12-2009 04:56:04 7.8 C 7.67 g/m*3 7.8 C 0 km/h
Sensor: Nr:Datum:Temp:Abs-Feuchte:Windchill:Wind:
Aussen-T/F 1226 10-12-2009 05:08:04 7.8 C 7.67 g/m*3 7.8 C 0 km/h
1227 10-12-2009 05:20:04 7.9 C 7.72 g/m*3 7.9 C 0 km/h
1228 10-12-2009 05:32:04 7.9 C 7.72 g/m*3 7.9 C 0 km/h
1229 10-12-2009 05:44:04 7.8 C 7.67 g/m*3 7.8 C 0 km/h
1230 10-12-2009 05:56:04 7.9 C 7.8 g/m*3 7.9 C 0 km/h
1231 10-12-2009 06:08:05 8 C 7.77 g/m*3 8 C 0 km/h
1232 10-12-2009 06:20:05 8.4 C 7.97 g/m*3 8.4 C 0 km/h
1233 10-12-2009 06:32:05 8.5 C 8.11 g/m*3 8.5 C 0 km/h
1234 10-12-2009 06:44:05 8.7 C 8.22 g/m*3 8.7 C 0 km/h
1235 10-12-2009 06:56:05 8.9 C 8.32 g/m*3 8.9 C 0 km/h
1236 10-12-2009 07:08:02 9 C 8.38 g/m*3 9 C 0 km/h
1237 10-12-2009 07:20:02 8.9 C 8.32 g/m*3 8.9 C 0 km/h
1238 10-12-2009 07:32:02 8.9 C 8.32 g/m*3 8.9 C 0 km/h
1239 10-12-2009 07:44:02 8.8 C 8.27 g/m*3 8.8 C 0 km/h
1240 10-12-2009 07:56:02 8.9 C 8.32 g/m*3 8.9 C 0 km/h
1241 10-12-2009 08:08:01 8.9 C 8.32 g/m*3 8.9 C 0 km/h
1242 10-12-2009 08:20:02 8.8 C 8.27 g/m*3 8.8 C 0 km/h
1243 10-12-2009 08:32:02 8.5 C 8.11 g/m*3 8.5 C 0 km/h
1244 10-12-2009 08:44:02 8.5 C 8.11 g/m*3 8.5 C 0 km/h
1245 10-12-2009 08:56:01 8.4 C 8.06 g/m*3 8.4 C 0 km/h
1246 10-12-2009 09:08:01 8.7 C 8.22 g/m*3 8.7 C 0 km/h
1247 10-12-2009 09:20:01 8.7 C 8.22 g/m*3 8.7 C 0 km/h
1248 10-12-2009 09:32:01 8.8 C 8.27 g/m*3 8.8 C 0 km/h
1249 10-12-2009 09:44:01 8.9 C 8.32 g/m*3 8.9 C 0 km/h
1250 10-12-2009 09:56:02 8.9 C 8.32 g/m*3 8.9 C 0 km/h
Sensor: Nr:Datum:Temp:Abs-Feuchte:Windchill:Wind:
Aussen-T/F 1251 10-12-2009 10:08:02 8.9 C 8.32 g/m*3 8.9 C 0 km/h
1252 10-12-2009 10:20:01 9 C 8.38 g/m*3 9 C 0 km/h
1253 10-12-2009 10:32:02 9 C 8.29 g/m*3 9 C 0 km/h
1254 10-12-2009 10:44:02 8.9 C 8.32 g/m*3 8.9 C 0 km/h
1255 10-12-2009 10:56:02 9.1 C 8.34 g/m*3 9.1 C 0 km/h
1256 10-12-2009 11:08:02 9.3 C 8.45 g/m*3 9.3 C 0 km/h
1257 10-12-2009 11:20:01 9.7 C 8.57 g/m*3 9.7 C 0 km/h
1258 10-12-2009 11:32:01 9.6 C 8.43 g/m*3 9.6 C 0 km/h
1259 10-12-2009 11:44:01 9.8 C 8.35 g/m*3 9.8 C 0 km/h
1260 10-12-2009 11:56:02 10 C 7.99 g/m*3 10 C 0 km/h
1261 10-12-2009 12:08:02 10 C 7.52 g/m*3 10 C 0 km/h
1262 10-12-2009 12:20:02 10 C 7.8 g/m*3 10 C 0 km/h
1263 10-12-2009 12:32:01 10 C 7.61 g/m*3 10 C 0 km/h
1264 10-12-2009 12:44:01 10.1 C 7.09 g/m*3 10.1 C 0 km/h
1265 10-12-2009 12:56:03 10.1 C 6.71 g/m*3 10.1 C 0 km/h
1266 10-12-2009 13:08:02 10.3 C 6.8 g/m*3 10.3 C 0 km/h
1267 10-12-2009 13:20:03 10.4 C 6.46 g/m*3 10.4 C 0 km/h
1268 10-12-2009 13:32:02 10.7 C 6.29 g/m*3 10.7 C 0 km/h
1269 10-12-2009 13:44:02 10.8 C 6.13 g/m*3 10.8 C 0 km/h
1270 10-12-2009 13:56:02 10.9 C 5.97 g/m*3 10.9 C 0 km/h
1271 10-12-2009 14:08:01 10.8 C 6.03 g/m*3 10.8 C 0 km/h
1272 10-12-2009 14:20:02 10.8 C 6.03 g/m*3 10.8 C 0 km/h
1273 10-12-2009 14:32:02 10.8 C 6.03 g/m*3 10.8 C 0 km/h
1274 10-12-2009 14:44:02 10.8 C 5.93 g/m*3 10.8 C 0 km/h
1275 10-12-2009 14:56:02 11 C 5.71 g/m*3 11 C 0 km/h
Sensor: Nr:Datum:Temp:Abs-Feuchte:Windchill:Wind:
Aussen-T/F 1276 10-12-2009 15:08:02 10.8 C 5.73 g/m*3 10.8 C 0 km/h
1277 10-12-2009 15:20:02 10.8 C 5.63 g/m*3 10.8 C 0 km/h
1278 10-12-2009 15:32:02 10.5 C 5.53 g/m*3 10.5 C 0 km/h
1279 10-12-2009 15:44:02 10.4 C 5.3 g/m*3 10.4 C 0 km/h
1280 10-12-2009 15:56:02 10.4 C 5.11 g/m*3 10.4 C 0 km/h
1281 10-12-2009 16:08:02 10.2 C 5.14 g/m*3 10.2 C 0 km/h
1282 10-12-2009 16:20:01 10.1 C 5.01 g/m*3 10.1 C 0 km/h
1283 10-12-2009 16:32:02 9.9 C 5.04 g/m*3 9.9 C 0 km/h
1284 10-12-2009 16:44:02 9.8 C 5.1 g/m*3 9.8 C 0 km/h
1285 10-12-2009 16:56:02 9.8 C 5.2 g/m*3 9.8 C 0 km/h
1286 10-12-2009 17:08:02 9.7 C 5.35 g/m*3 9.7 C 0 km/h
1287 10-12-2009 17:20:02 9.5 C 5.37 g/m*3 9.5 C 0 km/h
1288 10-12-2009 17:32:02 9.3 C 5.39 g/m*3 9.3 C 0 km/h
1289 10-12-2009 17:44:03 9.1 C 5.5 g/m*3 9.1 C 0 km/h
1290 10-12-2009 17:56:01 9 C 5.29 g/m*3 9 C 0 km/h
1291 10-12-2009 18:08:02 8.7 C 5.28 g/m*3 8.7 C 0 km/h
1292 10-12-2009 18:20:01 8.5 C 5.29 g/m*3 8.5 C 0 km/h
1293 10-12-2009 18:32:02 8.7 C 5.45 g/m*3 8.7 C 0 km/h
1294 10-12-2009 18:44:02 8.7 C 5.53 g/m*3 8.7 C 0 km/h
1295 10-12-2009 18:56:01 8.7 C 5.53 g/m*3 8.7 C 0 km/h
1296 10-12-2009 19:08:02 8.7 C 5.71 g/m*3 8.7 C 0 km/h
1297 10-12-2009 19:20:02 8.2 C 5.95 g/m*3 8.2 C 0 km/h
1298 10-12-2009 19:32:02 8.2 C 6.11 g/m*3 8.2 C 0 km/h
1299 10-12-2009 19:44:02 8.1 C 6.16 g/m*3 8.1 C 0 km/h
1300 10-12-2009 19:56:02 8.3 C 6.15 g/m*3 8.3 C 0 km/h
Sensor: Nr:Datum:Temp:Abs-Feuchte:Windchill:Wind:
Aussen-T/F 1301 10-12-2009 20:08:03 8.3 C 6.15 g/m*3 8.3 C 0 km/h
1302 10-12-2009 20:20:04 8.6 C 6.1 g/m*3 8.6 C 0 km/h
1303 10-12-2009 20:32:02 8.6 C 6.02 g/m*3 8.6 C 0 km/h
1304 10-12-2009 20:44:02 8.5 C 5.98 g/m*3 8.5 C 0 km/h
1305 10-12-2009 20:56:02 8.6 C 5.93 g/m*3 8.6 C 0 km/h
1306 10-12-2009 21:08:02 8.5 C 6.06 g/m*3 8.5 C 0 km/h
1307 10-12-2009 21:20:02 7.9 C 6.24 g/m*3 7.9 C 0 km/h
1308 10-12-2009 21:32:02 7.9 C 6.32 g/m*3 7.9 C 0 km/h
1309 10-12-2009 21:44:02 7.9 C 6.32 g/m*3 7.9 C 0 km/h
1310 10-12-2009 21:56:02 8.2 C 6.2 g/m*3 8.2 C 0 km/h
1311 10-12-2009 22:08:01 8.5 C 6.06 g/m*3 8.5 C 0 km/h
1312 10-12-2009 22:21:03 8.5 C 6.06 g/m*3 8.5 C 0 km/h
1313 10-12-2009 22:33:03 8.4 C 6.11 g/m*3 8.4 C 0 km/h
1314 10-12-2009 22:45:03 8.3 C 6.24 g/m*3 8.3 C 0 km/h
1315 10-12-2009 22:57:03 8.3 C 6.32 g/m*3 8.3 C 0 km/h
1316 10-12-2009 23:09:03 8.3 C 6.32 g/m*3 8.3 C 0 km/h
1317 10-12-2009 23:21:03 8.1 C 6.41 g/m*3 8.1 C 0 km/h
1318 10-12-2009 23:33:03 8 C 6.45 g/m*3 8 C 0 km/h
1319 10-12-2009 23:45:03 7.9 C 6.74 g/m*3 7.9 C 0 km/h
1320 10-12-2009 23:57:03 7.7 C 6.81 g/m*3 7.7 C 0 km/h
1321 11-12-2009 00:09:03 7.6 C 6.93 g/m*3 7.6 C 0 km/h
1322 11-12-2009 00:21:03 7.5 C 7.04 g/m*3 7.5 C 0 km/h
1323 11-12-2009 00:33:03 7.6 C 7.09 g/m*3 7.6 C 0 km/h
1324 11-12-2009 00:45:03 7.7 C 7.14 g/m*3 7.7 C 0 km/h
1325 11-12-2009 00:57:03 7.8 C 7.1 g/m*3 7.8 C 0 km/h
Sensor: Nr:Datum:Temp:Abs-Feuchte:Windchill:Wind:
Aussen-T/F 1326 11-12-2009 01:09:03 7.8 C 7.1 g/m*3 7.8 C 0 km/h
1327 11-12-2009 01:21:03 7.8 C 7.1 g/m*3 7.8 C 0 km/h
1328 11-12-2009 01:33:03 7.8 C 7.1 g/m*3 7.8 C 0 km/h
1329 11-12-2009 01:45:03 7.9 C 7.06 g/m*3 7.9 C 0 km/h
1330 11-12-2009 01:57:03 7.9 C 6.98 g/m*3 7.9 C 0 km/h
1331 11-12-2009 02:09:04 8 C 6.86 g/m*3 8 C 0 km/h
1332 11-12-2009 02:21:04 7.9 C 6.9 g/m*3 7.9 C 0 km/h
1333 11-12-2009 02:33:04 7.8 C 6.94 g/m*3 7.8 C 0 km/h
1334 11-12-2009 02:45:04 7.9 C 6.98 g/m*3 7.9 C 0 km/h
1335 11-12-2009 02:57:04 8 C 6.94 g/m*3 8 C 0 km/h
1336 11-12-2009 03:09:04 8 C 6.94 g/m*3 8 C 0 km/h
1337 11-12-2009 03:21:04 8 C 6.86 g/m*3 8 C 0 km/h
1338 11-12-2009 03:33:04 7.9 C 6.98 g/m*3 7.9 C 0 km/h
1339 11-12-2009 03:45:04 7.9 C 7.06 g/m*3 7.9 C 0 km/h
1340 11-12-2009 03:57:04 7.9 C 7.06 g/m*3 7.9 C 0 km/h
1341 11-12-2009 04:09:04 8.1 C 6.91 g/m*3 8.1 C 0 km/h
1342 11-12-2009 04:21:04 8.2 C 6.95 g/m*3 8.2 C 0 km/h
1343 11-12-2009 04:33:04 8.1 C 6.91 g/m*3 8.1 C 0 km/h
1344 11-12-2009 04:45:04 8.1 C 6.91 g/m*3 8.1 C 0 km/h
1345 11-12-2009 04:57:04 8 C 6.86 g/m*3 8 C 0 km/h
1346 11-12-2009 05:09:04 7.9 C 6.98 g/m*3 7.9 C 0 km/h
1347 11-12-2009 05:21:04 7.8 C 7.02 g/m*3 7.8 C 0 km/h
1348 11-12-2009 05:33:04 7.8 C 7.02 g/m*3 7.8 C 0 km/h
1349 11-12-2009 05:45:04 7.9 C 7.06 g/m*3 7.9 C 0 km/h
1350 11-12-2009 05:57:04 7.9 C 6.9 g/m*3 7.9 C 0 km/h
Sensor: Nr:Datum:Temp:Abs-Feuchte:Windchill:Wind:
Aussen-T/F 1351 11-12-2009 06:09:04 8 C 6.7 g/m*3 8 C 0 km/h
1352 11-12-2009 06:21:04 7.8 C 6.77 g/m*3 7.8 C 0 km/h
1353 11-12-2009 06:33:05 7.6 C 6.93 g/m*3 7.6 C 0 km/h
1354 11-12-2009 06:45:05 7.4 C 7 g/m*3 7.4 C 0 km/h
1355 11-12-2009 06:57:05 7.3 C 6.95 g/m*3 7.3 C 0 km/h
1356 11-12-2009 07:09:02 7 C 6.82 g/m*3 7 C 0 km/h
1357 11-12-2009 07:21:03 7.3 C 7.03 g/m*3 7.3 C 0 km/h
1358 11-12-2009 07:33:03 7.4 C 7.08 g/m*3 7.4 C 0 km/h
1359 11-12-2009 07:45:02 7.4 C 7 g/m*3 7.4 C 0 km/h
1360 11-12-2009 07:57:02 7.6 C 7.01 g/m*3 7.6 C 0 km/h
1361 11-12-2009 08:09:02 7.6 C 6.77 g/m*3 7.6 C 0 km/h
1362 11-12-2009 08:21:02 7.7 C 6.57 g/m*3 7.7 C 0 km/h
1363 11-12-2009 08:33:03 7.7 C 6.49 g/m*3 7.7 C 0 km/h
1364 11-12-2009 08:45:02 7.7 C 6.57 g/m*3 7.7 C 0 km/h
1365 11-12-2009 08:57:02 7.8 C 6.61 g/m*3 7.8 C 0 km/h
1366 11-12-2009 09:09:02 7.7 C 6.49 g/m*3 7.7 C 0 km/h
1367 11-12-2009 09:21:01 7.7 C 6.41 g/m*3 7.7 C 0 km/h
1368 11-12-2009 09:33:02 7.6 C 6.2 g/m*3 7.6 C 0 km/h
1369 11-12-2009 09:45:02 7.6 C 6.04 g/m*3 7.6 C 0 km/h
1370 11-12-2009 09:57:02 7.6 C 5.96 g/m*3 7.6 C 0 km/h
1371 11-12-2009 10:09:02 7.4 C 5.73 g/m*3 7.4 C 0 km/h
1372 11-12-2009 10:21:02 7.4 C 5.57 g/m*3 7.4 C 0 km/h
1373 11-12-2009 10:33:02 7.3 C 5.45 g/m*3 7.3 C 0 km/h
1374 11-12-2009 10:45:02 7.3 C 5.45 g/m*3 7.3 C 0 km/h
1375 11-12-2009 10:57:02 7.5 C 5.44 g/m*3 7.5 C 0 km/h
Sensor: Nr:Datum:Temp:Abs-Feuchte:Windchill:Wind:
Aussen-T/F 1376 11-12-2009 11:09:02 7.6 C 5.4 g/m*3 7.6 C 0 km/h
1377 11-12-2009 11:21:02 7.5 C 5.44 g/m*3 7.5 C 0 km/h
1378 11-12-2009 11:33:02 7.5 C 5.36 g/m*3 7.5 C 0 km/h
1379 11-12-2009 11:45:02 7.9 C 5.42 g/m*3 7.9 C 0 km/h
1380 11-12-2009 11:57:02 8.2 C 5.36 g/m*3 8.2 C 0 km/h
1381 11-12-2009 12:09:02 8.3 C 5.31 g/m*3 8.3 C 0 km/h
1382 11-12-2009 12:21:03 8 C 5.29 g/m*3 8 C 0 km/h
1383 11-12-2009 12:33:02 7.8 C 5.3 g/m*3 7.8 C 0 km/h
1384 11-12-2009 12:45:03 7.7 C 5.27 g/m*3 7.7 C 0 km/h
1385 11-12-2009 12:57:03 7.7 C 5.27 g/m*3 7.7 C 0 km/h
1386 11-12-2009 13:09:02 7.9 C 5.34 g/m*3 7.9 C 0 km/h
1387 11-12-2009 13:21:02 7.9 C 5.42 g/m*3 7.9 C 0 km/h
1388 11-12-2009 13:33:02 7.8 C 5.3 g/m*3 7.8 C 0 km/h
1389 11-12-2009 13:45:02 7.7 C 5.27 g/m*3 7.7 C 0 km/h
1390 11-12-2009 13:57:02 7.7 C 5.35 g/m*3 7.7 C 0 km/h
1391 11-12-2009 14:09:02 7.6 C 5.32 g/m*3 7.6 C 0 km/h
1392 11-12-2009 14:21:02 7.4 C 5.17 g/m*3 7.4 C 0 km/h
1393 11-12-2009 14:33:02 7.3 C 5.14 g/m*3 7.3 C 0 km/h
1394 11-12-2009 14:45:02 7.3 C 5.14 g/m*3 7.3 C 0 km/h
1395 11-12-2009 14:57:03 7.3 C 5.21 g/m*3 7.3 C 0 km/h
1396 11-12-2009 15:09:01 7.1 C 5.15 g/m*3 7.1 C 0 km/h
1397 11-12-2009 15:21:01 7.1 C 5.15 g/m*3 7.1 C 0 km/h
1398 11-12-2009 15:33:02 7 C 5.19 g/m*3 7 C 0 km/h
1399 11-12-2009 15:45:02 7 C 5.27 g/m*3 7 C 0 km/h
1400 11-12-2009 15:57:02 6.8 C 5.51 g/m*3 6.8 C 0 km/h
Sensor: Nr:Datum:Temp:Abs-Feuchte:Windchill:Wind:
Aussen-T/F 1401 11-12-2009 16:09:02 6.5 C 5.55 g/m*3 6.5 C 0 km/h
1402 11-12-2009 16:21:02 6.3 C 5.63 g/m*3 6.3 C 0 km/h
1403 11-12-2009 16:33:02 6.4 C 5.74 g/m*3 6.4 C 0 km/h
1404 11-12-2009 16:45:02 6.3 C 5.7 g/m*3 6.3 C 0 km/h
1405 11-12-2009 16:57:02 6.3 C 5.7 g/m*3 6.3 C 0 km/h
1406 11-12-2009 17:09:02 6.3 C 5.63 g/m*3 6.3 C 0 km/h
1407 11-12-2009 17:21:02 6.2 C 5.66 g/m*3 6.2 C 0 km/h
1408 11-12-2009 17:33:02 6 C 5.81 g/m*3 6 C 0 km/h
1409 11-12-2009 17:45:02 5.8 C 6.02 g/m*3 5.8 C 0 km/h
1410 11-12-2009 17:57:02 5.8 C 6.16 g/m*3 5.8 C 0 km/h
1411 11-12-2009 18:09:02 5.8 C 6.23 g/m*3 5.8 C 0 km/h
1412 11-12-2009 18:21:02 5.9 C 6.35 g/m*3 5.9 C 0 km/h
1413 11-12-2009 18:33:02 5.7 C 6.33 g/m*3 5.7 C 0 km/h
1414 11-12-2009 18:45:02 5.6 C 6.36 g/m*3 5.6 C 0 km/h
1415 11-12-2009 18:57:02 5.4 C 6.28 g/m*3 5.4 C 0 km/h
1416 11-12-2009 19:09:01 5.4 C 6.35 g/m*3 5.4 C 0 km/h
1417 11-12-2009 19:21:02 5.4 C 6.35 g/m*3 5.4 C 0 km/h
1418 11-12-2009 19:33:02 5.3 C 6.38 g/m*3 5.3 C 0 km/h
1419 11-12-2009 19:45:02 5.1 C 6.29 g/m*3 5.1 C 0 km/h
1420 11-12-2009 19:57:02 4.6 C 6.09 g/m*3 4.6 C 0 km/h
1421 11-12-2009 20:09:02 4.3 C 5.9 g/m*3 4.3 C 0 km/h
1422 11-12-2009 20:21:02 4 C 5.79 g/m*3 4 C 0 km/h
1423 11-12-2009 20:33:02 3.9 C 5.75 g/m*3 3.9 C 0 km/h
1424 11-12-2009 20:45:01 3.7 C 5.73 g/m*3 3.7 C 0 km/h
1425 11-12-2009 20:57:01 3.5 C 5.6 g/m*3 3.5 C 0 km/h
Sensor: Nr:Datum:Temp:Abs-Feuchte:Windchill:Wind:
Aussen-T/F 1426 11-12-2009 21:09:01 3.4 C 5.56 g/m*3 3.4 C 0 km/h
1427 11-12-2009 21:21:02 3.2 C 5.54 g/m*3 3.2 C 0 km/h
1428 11-12-2009 21:33:01 3.3 C 5.58 g/m*3 3.3 C 0 km/h
1429 11-12-2009 21:45:02 3.4 C 5.68 g/m*3 3.4 C 0 km/h
1430 11-12-2009 21:57:02 3.4 C 5.68 g/m*3 3.4 C 0 km/h
1431 11-12-2009 22:09:02 3.4 C 5.68 g/m*3 3.4 C 0 km/h
1432 11-12-2009 22:21:02 3.4 C 5.68 g/m*3 3.4 C 0 km/h
1433 11-12-2009 22:33:02 3.3 C 5.64 g/m*3 3.3 C 0 km/h
1434 11-12-2009 22:45:02 3.4 C 5.68 g/m*3 3.4 C 0 km/h
1435 11-12-2009 22:57:02 3.4 C 5.68 g/m*3 3.4 C 0 km/h
1436 11-12-2009 23:09:01 3.4 C 5.68 g/m*3 3.4 C 0 km/h
1437 11-12-2009 23:21:02 3.4 C 5.68 g/m*3 3.4 C 0 km/h
1438 11-12-2009 23:33:02 3.4 C 5.68 g/m*3 3.4 C 0 km/h
1439 11-12-2009 23:45:02 3.2 C 5.6 g/m*3 3.2 C 0 km/h
1440 11-12-2009 23:57:02 3.3 C 5.64 g/m*3 3.3 C 0 km/h
1441 12-12-2009 00:09:03 3.4 C 5.68 g/m*3 3.4 C 0 km/h
1442 12-12-2009 00:21:02 3.4 C 5.68 g/m*3 3.4 C 0 km/h
1443 12-12-2009 00:33:02 3.1 C 5.57 g/m*3 3.1 C 0 km/h
1444 12-12-2009 00:45:01 3.1 C 5.63 g/m*3 3.1 C 0 km/h
1445 12-12-2009 00:57:01 3.3 C 5.7 g/m*3 3.3 C 0 km/h
1446 12-12-2009 01:09:02 3.4 C 5.74 g/m*3 3.4 C 0 km/h
1447 12-12-2009 01:21:01 3.2 C 5.66 g/m*3 3.2 C 0 km/h
1448 12-12-2009 01:33:01 3.2 C 5.66 g/m*3 3.2 C 0 km/h
1449 12-12-2009 01:45:01 3.1 C 5.63 g/m*3 3.1 C 0 km/h
1450 12-12-2009 01:57:01 3.3 C 5.7 g/m*3 3.3 C 0 km/h
Sensor: Nr:Datum:Temp:Abs-Feuchte:Windchill:Wind:
Aussen-T/F 1451 12-12-2009 02:09:02 3.3 C 5.7 g/m*3 3.3 C 0 km/h
1452 12-12-2009 02:21:02 3.2 C 5.66 g/m*3 3.2 C 0 km/h
1453 12-12-2009 02:33:01 3.1 C 5.63 g/m*3 3.1 C 0 km/h
1454 12-12-2009 02:46:03 3.2 C 5.72 g/m*3 3.2 C 0 km/h
1455 12-12-2009 02:58:03 3.4 C 5.8 g/m*3 3.4 C 0 km/h
1456 12-12-2009 03:10:03 3.4 C 5.8 g/m*3 3.4 C 0 km/h
1457 12-12-2009 03:22:03 3.3 C 5.7 g/m*3 3.3 C 0 km/h
1458 12-12-2009 03:34:02 3.4 C 5.74 g/m*3 3.4 C 0 km/h
1459 12-12-2009 03:46:02 3.2 C 5.6 g/m*3 3.2 C 0 km/h
1460 12-12-2009 03:58:02 3.1 C 5.57 g/m*3 3.1 C 0 km/h
1461 12-12-2009 04:10:02 3.1 C 5.51 g/m*3 3.1 C 0 km/h
1462 12-12-2009 04:22:02 3.1 C 5.51 g/m*3 3.1 C 0 km/h
1463 12-12-2009 04:34:02 2.9 C 5.49 g/m*3 2.9 C 0 km/h
1464 12-12-2009 04:46:02 2.9 C 5.49 g/m*3 2.9 C 0 km/h
1465 12-12-2009 04:58:02 2.9 C 5.49 g/m*3 2.9 C 0 km/h
1466 12-12-2009 05:10:02 3 C 5.47 g/m*3 3 C 0 km/h
1467 12-12-2009 05:22:02 2.9 C 5.49 g/m*3 2.9 C 0 km/h
1468 12-12-2009 05:34:02 2.9 C 5.49 g/m*3 2.9 C 0 km/h
1469 12-12-2009 05:46:02 3 C 5.47 g/m*3 3 C 0 km/h
1470 12-12-2009 05:58:02 2.9 C 5.49 g/m*3 2.9 C 0 km/h
1471 12-12-2009 06:10:02 2.9 C 5.49 g/m*3 2.9 C 0 km/h
1472 12-12-2009 06:22:02 3 C 5.47 g/m*3 3 C 0 km/h
1473 12-12-2009 06:34:02 3 C 5.47 g/m*3 3 C 0 km/h
1474 12-12-2009 06:46:02 3.1 C 5.51 g/m*3 3.1 C 0 km/h
1475 12-12-2009 06:58:02 3.1 C 5.51 g/m*3 3.1 C 0 km/h
Sensor: Nr:Datum:Temp:Abs-Feuchte:Windchill:Wind:
Aussen-T/F 1476 12-12-2009 07:10:01 3.1 C 5.51 g/m*3 3.1 C 0 km/h
1477 12-12-2009 07:22:02 3.1 C 5.51 g/m*3 3.1 C 0 km/h
1478 12-12-2009 07:34:01 3.1 C 5.51 g/m*3 3.1 C 0 km/h
1479 12-12-2009 07:46:02 3.1 C 5.51 g/m*3 3.1 C 0 km/h
1480 12-12-2009 07:58:02 3.1 C 5.51 g/m*3 3.1 C 0 km/h
1481 12-12-2009 08:10:02 3.1 C 5.51 g/m*3 3.1 C 0 km/h
1482 12-12-2009 08:22:02 3.1 C 5.51 g/m*3 3.1 C 0 km/h
1483 12-12-2009 08:34:02 3.4 C 5.62 g/m*3 3.4 C 0 km/h
1484 12-12-2009 08:46:02 3.1 C 5.51 g/m*3 3.1 C 0 km/h
1485 12-12-2009 08:58:02 3.1 C 5.51 g/m*3 3.1 C 0 km/h
1486 12-12-2009 09:10:02 3.2 C 5.54 g/m*3 3.2 C 0 km/h
1487 12-12-2009 09:22:01 3.2 C 5.54 g/m*3 3.2 C 0 km/h
1488 12-12-2009 09:34:02 3.3 C 5.58 g/m*3 3.3 C 0 km/h
1489 12-12-2009 09:46:02 3.4 C 5.62 g/m*3 3.4 C 0 km/h
1490 12-12-2009 09:58:02 3.4 C 5.62 g/m*3 3.4 C 0 km/h
1491 12-12-2009 10:10:02 3.4 C 5.56 g/m*3 3.4 C 0 km/h
1492 12-12-2009 10:22:01 3.5 C 5.6 g/m*3 3.5 C 0 km/h
1493 12-12-2009 10:34:02 3.4 C 5.56 g/m*3 3.4 C 0 km/h
1494 12-12-2009 10:46:02 3.3 C 5.52 g/m*3 3.3 C 0 km/h
1495 12-12-2009 10:58:02 3.4 C 5.56 g/m*3 3.4 C 0 km/h
1496 12-12-2009 11:10:02 3.6 C 5.63 g/m*3 3.6 C 0 km/h
1497 12-12-2009 11:22:02 3.6 C 5.63 g/m*3 3.6 C 0 km/h
1498 12-12-2009 11:34:02 3.6 C 5.63 g/m*3 3.6 C 0 km/h
1499 12-12-2009 11:46:02 3.7 C 5.61 g/m*3 3.7 C 0 km/h
1500 12-12-2009 11:58:02 3.8 C 5.65 g/m*3 3.8 C 0 km/h
Sensor: Nr:Datum:Temp:Abs-Feuchte:Windchill:Wind:
Aussen-T/F 1501 12-12-2009 12:10:02 3.8 C 5.58 g/m*3 3.8 C 0 km/h
1502 12-12-2009 12:22:01 3.8 C 5.58 g/m*3 3.8 C 0 km/h
1503 12-12-2009 12:34:02 3.8 C 5.58 g/m*3 3.8 C 0 km/h
1504 12-12-2009 12:46:01 3.8 C 5.52 g/m*3 3.8 C 0 km/h
1505 12-12-2009 12:58:01 4 C 5.53 g/m*3 4 C 0 km/h
1506 12-12-2009 13:10:02 4.2 C 5.54 g/m*3 4.2 C 0 km/h
1507 12-12-2009 13:22:02 4.2 C 5.54 g/m*3 4.2 C 0 km/h
1508 12-12-2009 13:34:01 4.4 C 5.55 g/m*3 4.4 C 0 km/h
1509 12-12-2009 13:46:02 4.5 C 5.52 g/m*3 4.5 C 0 km/h
1510 12-12-2009 13:58:02 4.5 C 5.46 g/m*3 4.5 C 0 km/h
1511 12-12-2009 14:10:01 4.5 C 5.39 g/m*3 4.5 C 0 km/h
1512 12-12-2009 14:22:02 4.6 C 5.43 g/m*3 4.6 C 0 km/h
1513 12-12-2009 14:34:01 4.7 C 5.46 g/m*3 4.7 C 0 km/h
1514 12-12-2009 14:46:03 4.6 C 5.43 g/m*3 4.6 C 0 km/h
1515 12-12-2009 14:58:03 4.5 C 5.39 g/m*3 4.5 C 0 km/h
1516 12-12-2009 15:10:02 4.4 C 5.29 g/m*3 4.4 C 0 km/h
1517 12-12-2009 15:22:02 4.4 C 5.22 g/m*3 4.4 C 0 km/h
1518 12-12-2009 15:34:02 4.4 C 5.22 g/m*3 4.4 C 0 km/h
1519 12-12-2009 15:46:02 4.4 C 5.03 g/m*3 4.4 C 0 km/h
1520 12-12-2009 15:58:02 4.4 C 4.9 g/m*3 4.4 C 0 km/h
1521 12-12-2009 16:10:01 4.4 C 4.83 g/m*3 4.4 C 0 km/h
1522 12-12-2009 16:22:02 4.3 C 4.74 g/m*3 4.3 C 0 km/h
1523 12-12-2009 16:34:02 4.2 C 4.77 g/m*3 4.2 C 0 km/h
1524 12-12-2009 16:46:02 4.2 C 4.9 g/m*3 4.2 C 0 km/h
1525 12-12-2009 16:58:03 4.1 C 4.86 g/m*3 4.1 C 0 km/h
Sensor: Nr:Datum:Temp:Abs-Feuchte:Windchill:Wind:
Aussen-T/F 1526 12-12-2009 17:10:01 4.1 C 4.8 g/m*3 4.1 C 0 km/h
1527 12-12-2009 17:22:01 4.1 C 4.74 g/m*3 4.1 C 0 km/h
1528 12-12-2009 17:34:02 4 C 4.77 g/m*3 4 C 0 km/h
1529 12-12-2009 17:46:02 4 C 4.77 g/m*3 4 C 0 km/h
1530 12-12-2009 17:58:02 4 C 4.77 g/m*3 4 C 0 km/h
1531 12-12-2009 18:10:01 3.9 C 4.86 g/m*3 3.9 C 0 km/h
1532 12-12-2009 18:22:02 3.9 C 4.86 g/m*3 3.9 C 0 km/h
1533 12-12-2009 18:34:02 3.8 C 4.83 g/m*3 3.8 C 0 km/h
1534 12-12-2009 18:46:01 3.9 C 4.8 g/m*3 3.9 C 0 km/h
1535 12-12-2009 18:58:01 3.9 C 4.86 g/m*3 3.9 C 0 km/h
1536 12-12-2009 19:10:02 3.8 C 4.83 g/m*3 3.8 C 0 km/h
1537 12-12-2009 19:22:01 3.8 C 4.77 g/m*3 3.8 C 0 km/h
1538 12-12-2009 19:34:02 3.5 C 4.67 g/m*3 3.5 C 0 km/h
1539 12-12-2009 19:46:02 3.1 C 4.61 g/m*3 3.1 C 0 km/h
1540 12-12-2009 19:58:02 2.8 C 4.69 g/m*3 2.8 C 0 km/h
1541 12-12-2009 20:10:02 2.7 C 4.72 g/m*3 2.7 C 0 km/h
1542 12-12-2009 20:22:01 2.8 C 4.81 g/m*3 2.8 C 0 km/h
1543 12-12-2009 20:34:02 3 C 4.82 g/m*3 3 C 0 km/h
1544 12-12-2009 20:46:02 3 C 4.82 g/m*3 3 C 0 km/h
1545 12-12-2009 20:58:02 3.2 C 4.76 g/m*3 3.2 C 0 km/h
1546 12-12-2009 21:10:02 3.1 C 4.73 g/m*3 3.1 C 0 km/h
1547 12-12-2009 21:22:02 3.2 C 4.82 g/m*3 3.2 C 0 km/h
1548 12-12-2009 21:34:01 3.1 C 4.79 g/m*3 3.1 C 0 km/h
1549 12-12-2009 21:46:02 3 C 4.76 g/m*3 3 C 0 km/h
1550 12-12-2009 21:58:02 3.1 C 4.85 g/m*3 3.1 C 0 km/h
Sensor: Nr:Datum:Temp:Abs-Feuchte:Windchill:Wind:
Aussen-T/F 1551 12-12-2009 22:10:01 3.1 C 4.85 g/m*3 3.1 C 0 km/h
1552 12-12-2009 22:22:02 3 C 4.82 g/m*3 3 C 0 km/h
1553 12-12-2009 22:34:01 3 C 4.82 g/m*3 3 C 0 km/h
1554 12-12-2009 22:46:02 3 C 4.82 g/m*3 3 C 0 km/h
1555 12-12-2009 22:58:02 3 C 4.82 g/m*3 3 C 0 km/h
1556 12-12-2009 23:10:02 3 C 4.76 g/m*3 3 C 0 km/h
1557 12-12-2009 23:22:02 3.1 C 4.73 g/m*3 3.1 C 0 km/h
1558 12-12-2009 23:34:03 3.1 C 4.67 g/m*3 3.1 C 0 km/h
1559 12-12-2009 23:46:02 3.2 C 4.7 g/m*3 3.2 C 0 km/h
1560 12-12-2009 23:58:02 3.1 C 4.67 g/m*3 3.1 C 0 km/h
1561 13-12-2009 00:10:01 3.1 C 4.61 g/m*3 3.1 C 0 km/h
1562 13-12-2009 00:22:01 3.1 C 4.61 g/m*3 3.1 C 0 km/h
1563 13-12-2009 00:34:02 3.1 C 4.61 g/m*3 3.1 C 0 km/h
1564 13-12-2009 00:46:01 3.1 C 4.67 g/m*3 3.1 C 0 km/h
1565 13-12-2009 00:58:01 3.1 C 4.67 g/m*3 3.1 C 0 km/h
1566 13-12-2009 01:10:02 3.1 C 4.67 g/m*3 3.1 C 0 km/h
1567 13-12-2009 01:22:02 3 C 4.58 g/m*3 3 C 0 km/h
1568 13-12-2009 01:34:02 2.9 C 4.61 g/m*3 2.9 C 0 km/h
1569 13-12-2009 01:46:02 2.8 C 4.63 g/m*3 2.8 C 0 km/h
1570 13-12-2009 01:58:02 2.6 C 4.63 g/m*3 2.6 C 0 km/h
1571 13-12-2009 02:10:02 2.6 C 4.69 g/m*3 2.6 C 0 km/h
1572 13-12-2009 02:22:02 2.4 C 4.68 g/m*3 2.4 C 0 km/h
1573 13-12-2009 02:34:01 2.4 C 4.74 g/m*3 2.4 C 0 km/h
1574 13-12-2009 02:47:04 2.2 C 4.79 g/m*3 2.2 C 0 km/h
1575 13-12-2009 02:59:04 2.2 C 4.79 g/m*3 2.2 C 0 km/h
Sensor: Nr:Datum:Temp:Abs-Feuchte:Windchill:Wind:
Aussen-T/F 1576 13-12-2009 03:11:03 2.1 C 4.81 g/m*3 2.1 C 0 km/h
1577 13-12-2009 03:23:03 2.1 C 4.87 g/m*3 2.1 C 0 km/h
1578 13-12-2009 03:35:01 2.2 C 4.9 g/m*3 2.2 C 0 km/h
1579 13-12-2009 03:47:01 2.3 C 4.99 g/m*3 2.3 C 0 km/h
1580 13-12-2009 03:59:01 2.2 C 4.96 g/m*3 2.2 C 0 km/h
1581 13-12-2009 04:11:02 2.2 C 4.96 g/m*3 2.2 C 0 km/h
1582 13-12-2009 04:23:01 2.2 C 4.96 g/m*3 2.2 C 0 km/h
1583 13-12-2009 04:35:01 2.2 C 4.96 g/m*3 2.2 C 0 km/h
1584 13-12-2009 04:47:01 2.2 C 4.9 g/m*3 2.2 C 0 km/h
1585 13-12-2009 04:59:01 2.2 C 4.9 g/m*3 2.2 C 0 km/h
1586 13-12-2009 05:11:01 2.2 C 4.9 g/m*3 2.2 C 0 km/h
1587 13-12-2009 05:23:02 2.2 C 4.84 g/m*3 2.2 C 0 km/h
1588 13-12-2009 05:35:01 2.2 C 4.84 g/m*3 2.2 C 0 km/h
1589 13-12-2009 05:47:03 2.2 C 4.84 g/m*3 2.2 C 0 km/h
1590 13-12-2009 05:59:03 2.2 C 4.84 g/m*3 2.2 C 0 km/h
1591 13-12-2009 06:11:02 2.2 C 4.79 g/m*3 2.2 C 0 km/h
1592 13-12-2009 06:23:02 2.2 C 4.79 g/m*3 2.2 C 0 km/h
1593 13-12-2009 06:35:02 2.2 C 4.79 g/m*3 2.2 C 0 km/h
1594 13-12-2009 06:47:02 2 C 4.56 g/m*3 2 C 0 km/h
1595 13-12-2009 06:59:02 2.1 C 4.25 g/m*3 2.1 C 0 km/h
1596 13-12-2009 07:11:01 2 C 4.06 g/m*3 2 C 0 km/h
1597 13-12-2009 07:23:02 1.7 C 4.03 g/m*3 1.7 C 0 km/h
1598 13-12-2009 07:35:02 1.7 C 4.08 g/m*3 1.7 C 0 km/h
1599 13-12-2009 07:47:02 1.7 C 4.03 g/m*3 1.7 C 0 km/h
1600 13-12-2009 07:59:02 1.7 C 3.97 g/m*3 1.7 C 0 km/h
Sensor: Nr:Datum:Temp:Abs-Feuchte:Windchill:Wind:
Aussen-T/F 1601 13-12-2009 08:11:03 1.7 C 4.03 g/m*3 1.7 C 0 km/h
1602 13-12-2009 08:23:02 1.7 C 4.08 g/m*3 1.7 C 0 km/h
1603 13-12-2009 08:35:02 1.7 C 4.08 g/m*3 1.7 C 0 km/h
1604 13-12-2009 08:47:01 1.7 C 4.08 g/m*3 1.7 C 0 km/h
1605 13-12-2009 08:59:01 1.8 C 4.11 g/m*3 1.8 C 0 km/h
1606 13-12-2009 09:11:02 1.8 C 4.11 g/m*3 1.8 C 0 km/h
1607 13-12-2009 09:23:01 1.9 C 4.14 g/m*3 1.9 C 0 km/h
1608 13-12-2009 09:35:01 2 C 4.11 g/m*3 2 C 0 km/h
1609 13-12-2009 09:47:01 2.1 C 4.14 g/m*3 2.1 C 0 km/h
1610 13-12-2009 09:59:01 2.1 C 4.08 g/m*3 2.1 C 0 km/h
1611 13-12-2009 10:11:02 2.1 C 3.97 g/m*3 2.1 C 0 km/h
1612 13-12-2009 10:23:01 2.1 C 3.92 g/m*3 2.1 C 0 km/h
1613 13-12-2009 10:35:02 2.1 C 3.75 g/m*3 2.1 C 0 km/h
1614 13-12-2009 10:47:01 2.3 C 3.69 g/m*3 2.3 C 0 km/h
1615 13-12-2009 10:59:01 2.3 C 3.52 g/m*3 2.3 C 0 km/h
1616 13-12-2009 11:11:02 2.3 C 3.52 g/m*3 2.3 C 0 km/h
1617 13-12-2009 11:23:01 2.3 C 3.52 g/m*3 2.3 C 0 km/h
1618 13-12-2009 11:35:01 2.7 C 3.67 g/m*3 2.7 C 0 km/h
1619 13-12-2009 11:47:01 2.8 C 3.7 g/m*3 2.8 C 0 km/h
1620 13-12-2009 11:59:01 2.5 C 3.56 g/m*3 2.5 C 0 km/h
1621 13-12-2009 12:11:01 2.5 C 3.56 g/m*3 2.5 C 0 km/h
1622 13-12-2009 12:23:02 2.6 C 3.59 g/m*3 2.6 C 0 km/h
1623 13-12-2009 12:35:01 2.6 C 3.59 g/m*3 2.6 C 0 km/h
1624 13-12-2009 12:47:02 2.9 C 3.48 g/m*3 2.9 C 0 km/h
1625 13-12-2009 12:59:02 2.8 C 3.4 g/m*3 2.8 C 0 km/h
Sensor: Nr:Datum:Temp:Abs-Feuchte:Windchill:Wind:
Aussen-T/F 1626 13-12-2009 13:11:02 2.6 C 3.47 g/m*3 2.6 C 0 km/h
1627 13-12-2009 13:23:02 2.6 C 3.47 g/m*3 2.6 C 0 km/h
1628 13-12-2009 13:35:02 2.7 C 3.5 g/m*3 2.7 C 0 km/h
1629 13-12-2009 13:47:02 2.8 C 3.58 g/m*3 2.8 C 0 km/h
1630 13-12-2009 13:59:02 2.8 C 3.28 g/m*3 2.8 C 0 km/h
1631 13-12-2009 14:11:02 2.6 C 3.07 g/m*3 2.6 C 0 km/h
1632 13-12-2009 14:23:02 2.3 C 3.01 g/m*3 2.3 C 0 km/h
1633 13-12-2009 14:35:01 2 C 2.95 g/m*3 2 C 0 km/h
1634 13-12-2009 14:47:02 1.7 C 2.99 g/m*3 1.7 C 0 km/h
1635 13-12-2009 14:59:02 1.6 C 2.97 g/m*3 1.6 C 0 km/h
1636 13-12-2009 15:11:02 1.6 C 2.97 g/m*3 1.6 C 0 km/h
1637 13-12-2009 15:23:02 1.5 C 3.01 g/m*3 1.5 C 0 km/h
1638 13-12-2009 15:35:03 1.4 C 2.72 g/m*3 1.4 C 0 km/h
1639 13-12-2009 15:47:02 1.4 C 2.72 g/m*3 1.4 C 0 km/h
1640 13-12-2009 15:59:02 1.3 C 2.7 g/m*3 1.3 C 0 km/h
1641 13-12-2009 16:11:01 1.2 C 2.63 g/m*3 1.2 C 0 km/h
1642 13-12-2009 16:23:02 1.1 C 2.67 g/m*3 1.1 C 0 km/h
1643 13-12-2009 16:35:01 1 C 2.7 g/m*3 1 C 0 km/h
1644 13-12-2009 16:47:02 1 C 2.8 g/m*3 1 C 0 km/h
1645 13-12-2009 16:59:02 0.9 C 2.73 g/m*3 0.9 C 0 km/h
1646 13-12-2009 17:11:01 0.8 C 2.61 g/m*3 0.8 C 0 km/h
1647 13-12-2009 17:23:01 0.8 C 2.61 g/m*3 0.8 C 0 km/h
1648 13-12-2009 17:35:02 0.8 C 2.51 g/m*3 0.8 C 0 km/h
1649 13-12-2009 17:47:02 0.6 C 2.42 g/m*3 0.6 C 0 km/h
1650 13-12-2009 17:59:02 0.6 C 2.42 g/m*3 0.6 C 0 km/h
Sensor: Nr:Datum:Temp:Abs-Feuchte:Windchill:Wind:
Aussen-T/F 1651 13-12-2009 18:11:02 0.5 C 2.41 g/m*3 0.5 C 0 km/h
1652 13-12-2009 18:23:02 0.5 C 2.46 g/m*3 0.5 C 0 km/h
1653 13-12-2009 18:35:02 0.4 C 2.39 g/m*3 0.4 C 0 km/h
1654 13-12-2009 18:47:01 0.3 C 2.37 g/m*3 0.3 C 0 km/h
1655 13-12-2009 18:59:01 0.2 C 2.41 g/m*3 0.2 C 0 km/h
1656 13-12-2009 19:11:02 0.2 C 2.36 g/m*3 0.2 C 0 km/h
1657 13-12-2009 19:23:01 0 C 2.37 g/m*3 0 C 0 km/h
1658 13-12-2009 19:35:02 -0.2 C 2.39 g/m*3 -0.2 C 0 km/h
1659 13-12-2009 19:47:02 -0.4 C 2.4 g/m*3 -0.4 C 0 km/h
1660 13-12-2009 19:59:02 -0.5 C 2.43 g/m*3 -0.5 C 0 km/h
1661 13-12-2009 20:11:02 -0.6 C 2.42 g/m*3 -0.6 C 0 km/h
1662 13-12-2009 20:23:02 -0.6 C 2.46 g/m*3 -0.6 C 0 km/h
1663 13-12-2009 20:35:02 -0.7 C 2.45 g/m*3 -0.7 C 0 km/h
1664 13-12-2009 20:47:02 -0.7 C 2.45 g/m*3 -0.7 C 0 km/h
1665 13-12-2009 20:59:02 -0.8 C 2.43 g/m*3 -0.8 C 0 km/h
1666 13-12-2009 21:11:02 -0.9 C 2.46 g/m*3 -0.9 C 0 km/h
1667 13-12-2009 21:23:02 -0.9 C 2.5 g/m*3 -0.9 C 0 km/h
1668 13-12-2009 21:35:02 -0.9 C 2.5 g/m*3 -0.9 C 0 km/h
1669 13-12-2009 21:47:02 -0.7 C 2.54 g/m*3 -0.7 C 0 km/h
1670 13-12-2009 21:59:02 -0.5 C 2.57 g/m*3 -0.5 C 0 km/h
1671 13-12-2009 22:11:02 -0.5 C 2.57 g/m*3 -0.5 C 0 km/h
1672 13-12-2009 22:24:02 -0.4 C 2.59 g/m*3 -0.4 C 0 km/h
1673 13-12-2009 22:36:02 -0.5 C 2.57 g/m*3 -0.5 C 0 km/h
1674 13-12-2009 22:48:02 -0.4 C 2.59 g/m*3 -0.4 C 0 km/h
1675 13-12-2009 23:00:02 -0.3 C 2.56 g/m*3 -0.3 C 0 km/h
Sensor: Nr:Datum:Temp:Abs-Feuchte:Windchill:Wind:
Aussen-T/F 1676 13-12-2009 23:12:02 -0.3 C 2.56 g/m*3 -0.3 C 0 km/h
1677 13-12-2009 23:24:02 -0.3 C 2.56 g/m*3 -0.3 C 0 km/h
1678 13-12-2009 23:36:02 -0.3 C 2.61 g/m*3 -0.3 C 0 km/h
1679 13-12-2009 23:48:02 -0.3 C 2.61 g/m*3 -0.3 C 0 km/h
1680 14-12-2009 00:00:02 -0.3 C 2.66 g/m*3 -0.3 C 0 km/h
1681 14-12-2009 00:12:02 -0.3 C 2.71 g/m*3 -0.3 C 0 km/h
1682 14-12-2009 00:24:02 -0.4 C 2.73 g/m*3 -0.4 C 0 km/h
1683 14-12-2009 00:36:02 -0.4 C 2.83 g/m*3 -0.4 C 0 km/h
1684 14-12-2009 00:48:02 -0.5 C 2.86 g/m*3 -0.5 C 0 km/h
1685 14-12-2009 01:00:02 -0.7 C 2.86 g/m*3 -0.7 C 0 km/h
1686 14-12-2009 01:12:02 -1.1 C 2.83 g/m*3 -1.1 C 0 km/h
1687 14-12-2009 01:24:02 -1.4 C 2.86 g/m*3 -1.4 C 0 km/h
1688 14-12-2009 01:36:02 -1.7 C 2.84 g/m*3 -1.7 C 0 km/h
1689 14-12-2009 01:48:02 -2 C 2.78 g/m*3 -2 C 0 km/h
1690 14-12-2009 02:00:03 -2.2 C 2.78 g/m*3 -2.2 C 0 km/h
1691 14-12-2009 02:12:03 -2.3 C 2.81 g/m*3 -2.3 C 0 km/h
1692 14-12-2009 02:24:03 -2.4 C 2.79 g/m*3 -2.4 C 0 km/h
1693 14-12-2009 02:36:03 -2.4 C 2.83 g/m*3 -2.4 C 0 km/h
1694 14-12-2009 02:48:03 -2.5 C 2.85 g/m*3 -2.5 C 0 km/h
1695 14-12-2009 03:00:03 -2.5 C 2.85 g/m*3 -2.5 C 0 km/h
1696 14-12-2009 03:12:03 -2.7 C 2.85 g/m*3 -2.7 C 0 km/h
1697 14-12-2009 03:24:03 -2.5 C 2.93 g/m*3 -2.5 C 0 km/h
1698 14-12-2009 03:36:03 -2.1 C 3.01 g/m*3 -2.1 C 0 km/h
1699 14-12-2009 03:48:03 -1.8 C 3.08 g/m*3 -1.8 C 0 km/h
1700 14-12-2009 04:00:03 -1.7 C 3.06 g/m*3 -1.7 C 0 km/h
Sensor: Nr:Datum:Temp:Abs-Feuchte:Windchill:Wind:
Aussen-T/F 1701 14-12-2009 04:12:03 -1.5 C 3.06 g/m*3 -1.5 C 0 km/h
1702 14-12-2009 04:24:03 -1.4 C 3.08 g/m*3 -1.4 C 0 km/h
1703 14-12-2009 04:36:03 -1.3 C 3.01 g/m*3 -1.3 C 0 km/h
1704 14-12-2009 04:48:03 -1.2 C 2.99 g/m*3 -1.2 C 0 km/h
1705 14-12-2009 05:00:03 -1.1 C 2.96 g/m*3 -1.1 C 0 km/h
1706 14-12-2009 05:12:03 -0.9 C 2.87 g/m*3 -0.9 C 0 km/h
1707 14-12-2009 05:24:03 -0.9 C 2.82 g/m*3 -0.9 C 0 km/h
1708 14-12-2009 05:36:03 -0.9 C 2.78 g/m*3 -0.9 C 0 km/h
1709 14-12-2009 05:48:03 -0.8 C 2.75 g/m*3 -0.8 C 0 km/h
1710 14-12-2009 06:00:03 -0.8 C 2.66 g/m*3 -0.8 C 0 km/h
1711 14-12-2009 06:12:04 -0.7 C 2.68 g/m*3 -0.7 C 0 km/h
1712 14-12-2009 06:24:04 -0.7 C 2.63 g/m*3 -0.7 C 0 km/h
1713 14-12-2009 06:36:04 -0.7 C 2.58 g/m*3 -0.7 C 0 km/h
1714 14-12-2009 06:48:04 -0.8 C 2.57 g/m*3 -0.8 C 0 km/h
1715 14-12-2009 07:00:04 -0.8 C 2.57 g/m*3 -0.8 C 0 km/h
1716 14-12-2009 07:12:04 -0.8 C 2.52 g/m*3 -0.8 C 0 km/h
1717 14-12-2009 07:24:04 -0.8 C 2.52 g/m*3 -0.8 C 0 km/h
1718 14-12-2009 07:36:04 -0.7 C 2.58 g/m*3 -0.7 C 0 km/h
1719 14-12-2009 07:48:02 -0.7 C 2.63 g/m*3 -0.7 C 0 km/h
1720 14-12-2009 08:00:02 -0.7 C 2.63 g/m*3 -0.7 C 0 km/h
1721 14-12-2009 08:12:02 -0.7 C 2.63 g/m*3 -0.7 C 0 km/h
1722 14-12-2009 08:24:02 -0.7 C 2.58 g/m*3 -0.7 C 0 km/h
1723 14-12-2009 08:36:01 -0.7 C 2.63 g/m*3 -0.7 C 0 km/h
1724 14-12-2009 08:48:02 -0.7 C 2.63 g/m*3 -0.7 C 0 km/h
1725 14-12-2009 09:00:02 -0.7 C 2.63 g/m*3 -0.7 C 0 km/h
Sensor: Nr:Datum:Temp:Abs-Feuchte:Windchill:Wind:
Aussen-T/F 1726 14-12-2009 09:12:02 -0.7 C 2.63 g/m*3 -0.7 C 0 km/h
1727 14-12-2009 09:24:02 -0.7 C 2.63 g/m*3 -0.7 C 0 km/h
1728 14-12-2009 09:36:03 -0.7 C 2.58 g/m*3 -0.7 C 0 km/h
1729 14-12-2009 09:48:02 -0.7 C 2.54 g/m*3 -0.7 C 0 km/h
1730 14-12-2009 10:00:02 -0.6 C 2.51 g/m*3 -0.6 C 0 km/h
1731 14-12-2009 10:12:03 -0.5 C 2.48 g/m*3 -0.5 C 0 km/h
1732 14-12-2009 10:24:02 -0.4 C 2.5 g/m*3 -0.4 C 0 km/h
1733 14-12-2009 10:36:03 -0.5 C 2.43 g/m*3 -0.5 C 0 km/h
1734 14-12-2009 10:48:02 -0.2 C 2.53 g/m*3 -0.2 C 0 km/h
1735 14-12-2009 11:00:02 -0.2 C 2.48 g/m*3 -0.2 C 0 km/h
1736 14-12-2009 11:12:02 -0.2 C 2.48 g/m*3 -0.2 C 0 km/h
1737 14-12-2009 11:24:01 0 C 2.52 g/m*3 0 C 0 km/h
1738 14-12-2009 11:36:02 0.1 C 2.49 g/m*3 0.1 C 0 km/h
1739 14-12-2009 11:48:01 0.3 C 2.52 g/m*3 0.3 C 0 km/h
1740 14-12-2009 12:00:01 0.2 C 2.46 g/m*3 0.2 C 0 km/h
1741 14-12-2009 12:12:02 0.1 C 2.44 g/m*3 0.1 C 0 km/h
1742 14-12-2009 12:24:01 0.1 C 2.44 g/m*3 0.1 C 0 km/h
1743 14-12-2009 12:36:02 0.1 C 2.44 g/m*3 0.1 C 0 km/h
1744 14-12-2009 12:48:01 0 C 2.42 g/m*3 0 C 0 km/h
1745 14-12-2009 13:00:01 0 C 2.42 g/m*3 0 C 0 km/h
1746 14-12-2009 13:12:02 0 C 2.42 g/m*3 0 C 0 km/h
1747 14-12-2009 13:24:01 0.1 C 2.44 g/m*3 0.1 C 0 km/h
1748 14-12-2009 13:36:01 0.2 C 2.46 g/m*3 0.2 C 0 km/h
1749 14-12-2009 13:48:01 0.4 C 2.49 g/m*3 0.4 C 0 km/h
1750 14-12-2009 14:00:01 0.6 C 2.58 g/m*3 0.6 C 0 km/h
Sensor: Nr:Datum:Temp:Abs-Feuchte:Windchill:Wind:
Aussen-T/F 1751 14-12-2009 14:12:01 0.6 C 2.63 g/m*3 0.6 C 0 km/h
1752 14-12-2009 14:24:02 0.3 C 2.57 g/m*3 0.3 C 0 km/h
1753 14-12-2009 14:36:01 0.2 C 2.6 g/m*3 0.2 C 0 km/h
1754 14-12-2009 14:48:02 0.1 C 2.63 g/m*3 0.1 C 0 km/h
1755 14-12-2009 15:00:02 0 C 2.62 g/m*3 0 C 0 km/h
1756 14-12-2009 15:12:01 -0.1 C 2.65 g/m*3 -0.1 C 0 km/h
1757 14-12-2009 15:24:02 -0.3 C 2.56 g/m*3 -0.3 C 0 km/h
1758 14-12-2009 15:36:01 -0.4 C 2.59 g/m*3 -0.4 C 0 km/h
1759 14-12-2009 15:48:02 -0.5 C 2.57 g/m*3 -0.5 C 0 km/h
1760 14-12-2009 16:00:02 -0.4 C 2.64 g/m*3 -0.4 C 0 km/h
1761 14-12-2009 16:12:02 -0.5 C 2.62 g/m*3 -0.5 C 0 km/h
1762 14-12-2009 16:24:02 -0.5 C 2.67 g/m*3 -0.5 C 0 km/h
1763 14-12-2009 16:36:02 -0.5 C 2.67 g/m*3 -0.5 C 0 km/h
1764 14-12-2009 16:48:02 -0.6 C 2.65 g/m*3 -0.6 C 0 km/h
1765 14-12-2009 17:00:03 -0.4 C 2.73 g/m*3 -0.4 C 0 km/h
1766 14-12-2009 17:12:01 -0.5 C 2.71 g/m*3 -0.5 C 0 km/h
1767 14-12-2009 17:24:01 -0.6 C 2.65 g/m*3 -0.6 C 0 km/h
1768 14-12-2009 17:36:02 -0.6 C 2.65 g/m*3 -0.6 C 0 km/h
1769 14-12-2009 17:48:02 -0.6 C 2.65 g/m*3 -0.6 C 0 km/h
1770 14-12-2009 18:00:02 -0.6 C 2.7 g/m*3 -0.6 C 0 km/h
1771 14-12-2009 18:12:02 -0.6 C 2.65 g/m*3 -0.6 C 0 km/h
1772 14-12-2009 18:24:02 -0.7 C 2.58 g/m*3 -0.7 C 0 km/h
1773 14-12-2009 18:36:02 -0.7 C 2.54 g/m*3 -0.7 C 0 km/h
1774 14-12-2009 18:48:02 -0.8 C 2.57 g/m*3 -0.8 C 0 km/h
1775 14-12-2009 19:00:02 -0.8 C 2.61 g/m*3 -0.8 C 0 km/h
Sensor: Nr:Datum:Temp:Abs-Feuchte:Windchill:Wind:
Aussen-T/F 1776 14-12-2009 19:12:02 -0.7 C 2.63 g/m*3 -0.7 C 0 km/h
1777 14-12-2009 19:24:02 -0.7 C 2.68 g/m*3 -0.7 C 0 km/h
1778 14-12-2009 19:36:02 -0.7 C 2.68 g/m*3 -0.7 C 0 km/h
1779 14-12-2009 19:48:01 -0.7 C 2.68 g/m*3 -0.7 C 0 km/h
1780 14-12-2009 20:00:01 -0.6 C 2.7 g/m*3 -0.6 C 0 km/h
1781 14-12-2009 20:12:02 -0.6 C 2.7 g/m*3 -0.6 C 0 km/h
1782 14-12-2009 20:24:02 -0.6 C 2.7 g/m*3 -0.6 C 0 km/h
1783 14-12-2009 20:36:02 -0.6 C 2.7 g/m*3 -0.6 C 0 km/h
1784 14-12-2009 20:48:02 -0.6 C 2.65 g/m*3 -0.6 C 0 km/h
1785 14-12-2009 21:00:02 -0.5 C 2.71 g/m*3 -0.5 C 0 km/h
1786 14-12-2009 21:12:02 -0.5 C 2.71 g/m*3 -0.5 C 0 km/h
1787 14-12-2009 21:24:02 -0.5 C 2.76 g/m*3 -0.5 C 0 km/h
1788 14-12-2009 21:36:02 -0.5 C 2.71 g/m*3 -0.5 C 0 km/h
1789 14-12-2009 21:49:04 -0.5 C 2.67 g/m*3 -0.5 C 0 km/h
1790 14-12-2009 22:01:04 -1.1 C 2.6 g/m*3 -1.1 C 0 km/h
1791 14-12-2009 22:13:04 -1.6 C 2.6 g/m*3 -1.6 C 0 km/h
1792 14-12-2009 22:25:04 -1.8 C 2.61 g/m*3 -1.8 C 0 km/h
1793 14-12-2009 22:37:04 -2 C 2.61 g/m*3 -2 C 0 km/h
1794 14-12-2009 22:49:04 -2 C 2.66 g/m*3 -2 C 0 km/h
1795 14-12-2009 23:01:04 -2.1 C 2.64 g/m*3 -2.1 C 0 km/h
1796 14-12-2009 23:13:04 -2.2 C 2.66 g/m*3 -2.2 C 0 km/h
1797 14-12-2009 23:25:05 -2.3 C 2.64 g/m*3 -2.3 C 0 km/h
1798 14-12-2009 23:37:05 -2.4 C 2.62 g/m*3 -2.4 C 0 km/h
1799 14-12-2009 23:49:05 -2.7 C 2.65 g/m*3 -2.7 C 0 km/h
1800 15-12-2009 00:01:05 -2.7 C 2.69 g/m*3 -2.7 C 0 km/h
Sensor: Nr:Datum:Temp:Abs-Feuchte:Windchill:Wind:
Aussen-T/F 1801 15-12-2009 00:13:05 -2.7 C 2.73 g/m*3 -2.7 C 0 km/h
1802 15-12-2009 00:25:05 -2.9 C 2.69 g/m*3 -2.9 C 0 km/h
1803 15-12-2009 00:37:05 -3 C 2.67 g/m*3 -3 C 0 km/h
1804 15-12-2009 00:49:05 -3.2 C 2.67 g/m*3 -3.2 C 0 km/h
1805 15-12-2009 01:01:05 -3.3 C 2.69 g/m*3 -3.3 C 0 km/h
1806 15-12-2009 01:13:05 -3.3 C 2.73 g/m*3 -3.3 C 0 km/h
1807 15-12-2009 01:25:05 -3.3 C 2.73 g/m*3 -3.3 C 0 km/h
1808 15-12-2009 01:37:05 -3.4 C 2.71 g/m*3 -3.4 C 0 km/h
1809 15-12-2009 01:49:05 -3.5 C 2.73 g/m*3 -3.5 C 0 km/h
1810 15-12-2009 02:01:05 -3.5 C 2.73 g/m*3 -3.5 C 0 km/h
1811 15-12-2009 02:13:05 -3.5 C 2.77 g/m*3 -3.5 C 0 km/h
1812 15-12-2009 02:25:05 -3.2 C 2.83 g/m*3 -3.2 C 0 km/h
1813 15-12-2009 02:37:05 -3 C 2.87 g/m*3 -3 C 0 km/h
1814 15-12-2009 02:49:05 -2.7 C 2.93 g/m*3 -2.7 C 0 km/h
1815 15-12-2009 03:01:06 -2.6 C 2.91 g/m*3 -2.6 C 0 km/h
1816 15-12-2009 03:13:06 -2.4 C 2.91 g/m*3 -2.4 C 0 km/h
1817 15-12-2009 03:25:06 -2.3 C 2.89 g/m*3 -2.3 C 0 km/h
1818 15-12-2009 03:37:06 -2.3 C 2.89 g/m*3 -2.3 C 0 km/h
1819 15-12-2009 03:49:06 -2.2 C 2.91 g/m*3 -2.2 C 0 km/h
1820 15-12-2009 04:01:06 -2.1 C 2.93 g/m*3 -2.1 C 0 km/h
1821 15-12-2009 04:13:06 -2 C 2.95 g/m*3 -2 C 0 km/h
1822 15-12-2009 04:25:06 -1.9 C 2.97 g/m*3 -1.9 C 0 km/h
1823 15-12-2009 04:37:06 -1.9 C 2.97 g/m*3 -1.9 C 0 km/h
1824 15-12-2009 04:49:06 -1.9 C 2.97 g/m*3 -1.9 C 0 km/h
1825 15-12-2009 05:01:06 -1.9 C 2.97 g/m*3 -1.9 C 0 km/h
Sensor: Nr:Datum:Temp:Abs-Feuchte:Windchill:Wind:
Aussen-T/F 1826 15-12-2009 05:13:06 -1.9 C 2.97 g/m*3 -1.9 C 0 km/h
1827 15-12-2009 05:25:06 -1.8 C 3.04 g/m*3 -1.8 C 0 km/h
1828 15-12-2009 05:37:06 -1.8 C 3.04 g/m*3 -1.8 C 0 km/h
1829 15-12-2009 05:49:06 -1.8 C 3.08 g/m*3 -1.8 C 0 km/h
1830 15-12-2009 06:01:06 -1.7 C 3.1 g/m*3 -1.7 C 0 km/h
1831 15-12-2009 06:13:06 -1.6 C 3.12 g/m*3 -1.6 C 0 km/h
1832 15-12-2009 06:25:06 -1.5 C 3.14 g/m*3 -1.5 C 0 km/h
1833 15-12-2009 06:37:06 -1.6 C 3.12 g/m*3 -1.6 C 0 km/h
1834 15-12-2009 06:49:06 -1.6 C 3.12 g/m*3 -1.6 C 0 km/h
1835 15-12-2009 07:01:07 -1.7 C 3.1 g/m*3 -1.7 C 0 km/h
1836 15-12-2009 07:13:07 -1.7 C 3.14 g/m*3 -1.7 C 0 km/h
1837 15-12-2009 07:25:02 -1.6 C 3.16 g/m*3 -1.6 C 0 km/h
1838 15-12-2009 07:37:02 -1.6 C 3.16 g/m*3 -1.6 C 0 km/h
1839 15-12-2009 07:49:02 -1.5 C 3.19 g/m*3 -1.5 C 0 km/h
1840 15-12-2009 08:01:01 -1.3 C 3.19 g/m*3 -1.3 C 0 km/h
1841 15-12-2009 08:13:01 -1.2 C 3.21 g/m*3 -1.2 C 0 km/h
1842 15-12-2009 08:25:02 -1.2 C 3.21 g/m*3 -1.2 C 0 km/h
1843 15-12-2009 08:37:02 -1.1 C 3.23 g/m*3 -1.1 C 0 km/h
1844 15-12-2009 08:49:02 -1 C 3.25 g/m*3 -1 C 0 km/h
1845 15-12-2009 09:01:02 -0.9 C 3.28 g/m*3 -0.9 C 0 km/h
1846 15-12-2009 09:13:02 -0.9 C 3.23 g/m*3 -0.9 C 0 km/h
1847 15-12-2009 09:25:01 -0.7 C 3.28 g/m*3 -0.7 C 0 km/h
1848 15-12-2009 09:37:02 -0.5 C 3.28 g/m*3 -0.5 C 0 km/h
1849 15-12-2009 09:49:02 -0.4 C 3.2 g/m*3 -0.4 C 0 km/h
1850 15-12-2009 10:01:02 -0.2 C 3.15 g/m*3 -0.2 C 0 km/h
Sensor: Nr:Datum:Temp:Abs-Feuchte:Windchill:Wind:
Aussen-T/F 1851 15-12-2009 10:13:02 0 C 3.15 g/m*3 0 C 0 km/h
1852 15-12-2009 10:25:02 0.1 C 3.17 g/m*3 0.1 C 0 km/h
1853 15-12-2009 10:37:02 0.2 C 3.14 g/m*3 0.2 C 0 km/h
1854 15-12-2009 10:49:02 0.3 C 3.17 g/m*3 0.3 C 0 km/h
1855 15-12-2009 11:01:02 0.3 C 3.12 g/m*3 0.3 C 0 km/h
1856 15-12-2009 11:13:03 0.4 C 3.14 g/m*3 0.4 C 0 km/h
1857 15-12-2009 11:25:02 0.3 C 3.12 g/m*3 0.3 C 0 km/h
1858 15-12-2009 11:37:02 0.5 C 3.11 g/m*3 0.5 C 0 km/h
1859 15-12-2009 11:49:01 0.7 C 3.05 g/m*3 0.7 C 0 km/h
1860 15-12-2009 12:01:01 0.9 C 3.04 g/m*3 0.9 C 0 km/h
1861 15-12-2009 12:13:01 1 C 2.91 g/m*3 1 C 0 km/h
1862 15-12-2009 12:25:02 1 C 2.91 g/m*3 1 C 0 km/h
1863 15-12-2009 12:37:01 0.8 C 2.92 g/m*3 0.8 C 0 km/h
1864 15-12-2009 12:49:01 0.7 C 2.85 g/m*3 0.7 C 0 km/h
1865 15-12-2009 13:01:01 0.8 C 2.87 g/m*3 0.8 C 0 km/h
1866 15-12-2009 13:13:01 1.1 C 2.87 g/m*3 1.1 C 0 km/h
1867 15-12-2009 13:25:02 1.6 C 2.87 g/m*3 1.6 C 0 km/h
1868 15-12-2009 13:37:01 1.6 C 2.81 g/m*3 1.6 C 0 km/h
1869 15-12-2009 13:49:02 1.6 C 2.76 g/m*3 1.6 C 0 km/h
1870 15-12-2009 14:01:02 1.6 C 2.7 g/m*3 1.6 C 0 km/h
1871 15-12-2009 14:13:02 1.6 C 2.65 g/m*3 1.6 C 0 km/h
1872 15-12-2009 14:25:02 1.5 C 2.69 g/m*3 1.5 C 0 km/h
1873 15-12-2009 14:37:02 1.4 C 2.67 g/m*3 1.4 C 0 km/h
1874 15-12-2009 14:49:02 1.3 C 2.65 g/m*3 1.3 C 0 km/h
1875 15-12-2009 15:01:01 1.2 C 2.63 g/m*3 1.2 C 0 km/h
Sensor: Nr:Datum:Temp:Abs-Feuchte:Windchill:Wind:
Aussen-T/F 1876 15-12-2009 15:13:01 1.2 C 2.63 g/m*3 1.2 C 0 km/h
1877 15-12-2009 15:25:02 1.2 C 2.63 g/m*3 1.2 C 0 km/h
1878 15-12-2009 15:37:02 1.1 C 2.67 g/m*3 1.1 C 0 km/h
1879 15-12-2009 15:49:02 1 C 2.65 g/m*3 1 C 0 km/h
1880 15-12-2009 16:01:02 1 C 2.65 g/m*3 1 C 0 km/h
1881 15-12-2009 16:13:02 1 C 2.6 g/m*3 1 C 0 km/h
1882 15-12-2009 16:25:02 0.9 C 2.63 g/m*3 0.9 C 0 km/h
1883 15-12-2009 16:37:02 0.9 C 2.68 g/m*3 0.9 C 0 km/h
1884 15-12-2009 16:49:02 0.8 C 2.66 g/m*3 0.8 C 0 km/h
1885 15-12-2009 17:01:02 0.7 C 2.64 g/m*3 0.7 C 0 km/h
1886 15-12-2009 17:13:02 0.7 C 2.64 g/m*3 0.7 C 0 km/h
1887 15-12-2009 17:25:02 0.6 C 2.68 g/m*3 0.6 C 0 km/h
1888 15-12-2009 17:37:02 0.6 C 2.73 g/m*3 0.6 C 0 km/h
1889 15-12-2009 17:49:01 0.6 C 2.68 g/m*3 0.6 C 0 km/h
1890 15-12-2009 18:01:01 0.6 C 2.68 g/m*3 0.6 C 0 km/h
1891 15-12-2009 18:13:01 0.6 C 2.63 g/m*3 0.6 C 0 km/h
1892 15-12-2009 18:25:02 0.6 C 2.63 g/m*3 0.6 C 0 km/h
1893 15-12-2009 18:37:02 0.6 C 2.63 g/m*3 0.6 C 0 km/h
1894 15-12-2009 18:49:02 0.6 C 2.68 g/m*3 0.6 C 0 km/h
1895 15-12-2009 19:01:02 0.5 C 2.71 g/m*3 0.5 C 0 km/h
1896 15-12-2009 19:13:02 0.4 C 2.69 g/m*3 0.4 C 0 km/h
1897 15-12-2009 19:25:05 0.4 C 2.74 g/m*3 0.4 C 0 km/h
1898 15-12-2009 19:37:02 0.4 C 2.69 g/m*3 0.4 C 0 km/h
1899 15-12-2009 19:49:02 0.4 C 2.74 g/m*3 0.4 C 0 km/h
1900 15-12-2009 20:01:56 0.5 C 2.71 g/m*3 0.5 C 0 km/h
Sensor: Nr:Datum:Temp:Abs-Feuchte:Windchill:Wind:
Aussen-T/F 1901 15-12-2009 20:13:56 0.5 C 2.76 g/m*3 0.5 C 0 km/h
1902 15-12-2009 20:25:02 0.4 C 2.69 g/m*3 0.4 C 0 km/h
1903 15-12-2009 20:37:02 0.5 C 2.66 g/m*3 0.5 C 0 km/h
1904 15-12-2009 20:49:02 0.5 C 2.71 g/m*3 0.5 C 0 km/h
1905 15-12-2009 21:01:01 0.5 C 2.71 g/m*3 0.5 C 0 km/h
1906 15-12-2009 21:13:01 0.5 C 2.71 g/m*3 0.5 C 0 km/h
1907 15-12-2009 21:25:01 0.3 C 2.67 g/m*3 0.3 C 0 km/h
1908 15-12-2009 21:37:02 0.2 C 2.65 g/m*3 0.2 C 0 km/h
1909 15-12-2009 21:49:02 0.2 C 2.65 g/m*3 0.2 C 0 km/h
1910 15-12-2009 22:01:02 0.1 C 2.63 g/m*3 0.1 C 0 km/h
1911 15-12-2009 22:13:02 0.1 C 2.68 g/m*3 0.1 C 0 km/h
1912 15-12-2009 22:25:02 0.1 C 2.68 g/m*3 0.1 C 0 km/h
1913 15-12-2009 22:38:02 0 C 2.66 g/m*3 0 C 0 km/h
1914 15-12-2009 22:50:02 0 C 2.66 g/m*3 0 C 0 km/h
1915 15-12-2009 23:02:02 -0.1 C 2.69 g/m*3 -0.1 C 0 km/h
1916 15-12-2009 23:14:02 -0.2 C 2.72 g/m*3 -0.2 C 0 km/h
1917 15-12-2009 23:26:03 -0.2 C 2.72 g/m*3 -0.2 C 0 km/h
1918 15-12-2009 23:38:03 -0.2 C 2.72 g/m*3 -0.2 C 0 km/h
1919 15-12-2009 23:50:03 -0.2 C 2.72 g/m*3 -0.2 C 0 km/h
1920 16-12-2009 00:02:03 -0.2 C 2.77 g/m*3 -0.2 C 0 km/h
1921 16-12-2009 00:14:03 -0.2 C 2.77 g/m*3 -0.2 C 0 km/h
1922 16-12-2009 00:26:03 -0.3 C 2.75 g/m*3 -0.3 C 0 km/h
1923 16-12-2009 00:38:03 -0.4 C 2.78 g/m*3 -0.4 C 0 km/h
1924 16-12-2009 00:50:03 -0.5 C 2.76 g/m*3 -0.5 C 0 km/h
1925 16-12-2009 01:02:03 -0.9 C 2.73 g/m*3 -0.9 C 0 km/h
Sensor: Nr:Datum:Temp:Abs-Feuchte:Windchill:Wind:
Aussen-T/F 1926 16-12-2009 01:14:03 -1 C 2.76 g/m*3 -1 C 0 km/h
1927 16-12-2009 01:26:03 -1.1 C 2.78 g/m*3 -1.1 C 0 km/h
1928 16-12-2009 01:38:03 -1.1 C 2.74 g/m*3 -1.1 C 0 km/h
1929 16-12-2009 01:50:03 -1.1 C 2.74 g/m*3 -1.1 C 0 km/h
1930 16-12-2009 02:02:03 -1.2 C 2.76 g/m*3 -1.2 C 0 km/h
1931 16-12-2009 02:14:03 -1.3 C 2.74 g/m*3 -1.3 C 0 km/h
1932 16-12-2009 02:26:03 -1.3 C 2.79 g/m*3 -1.3 C 0 km/h
1933 16-12-2009 02:38:03 -1.2 C 2.81 g/m*3 -1.2 C 0 km/h
1934 16-12-2009 02:50:03 -1.1 C 2.83 g/m*3 -1.1 C 0 km/h
1935 16-12-2009 03:02:03 -1.1 C 2.78 g/m*3 -1.1 C 0 km/h
1936 16-12-2009 03:14:04 -1.1 C 2.78 g/m*3 -1.1 C 0 km/h
1937 16-12-2009 03:26:04 -1.1 C 2.78 g/m*3 -1.1 C 0 km/h
1938 16-12-2009 03:38:04 -1 C 2.85 g/m*3 -1 C 0 km/h
1939 16-12-2009 03:50:04 -1 C 2.85 g/m*3 -1 C 0 km/h
1940 16-12-2009 04:02:04 -1 C 2.8 g/m*3 -1 C 0 km/h
1941 16-12-2009 04:14:04 -1 C 2.8 g/m*3 -1 C 0 km/h
1942 16-12-2009 04:26:04 -1 C 2.8 g/m*3 -1 C 0 km/h
1943 16-12-2009 04:38:04 -1.1 C 2.78 g/m*3 -1.1 C 0 km/h
1944 16-12-2009 04:50:04 -1.1 C 2.78 g/m*3 -1.1 C 0 km/h
1945 16-12-2009 05:02:04 -1.1 C 2.83 g/m*3 -1.1 C 0 km/h
1946 16-12-2009 05:14:04 -1.2 C 2.81 g/m*3 -1.2 C 0 km/h
1947 16-12-2009 05:26:04 -1.2 C 2.85 g/m*3 -1.2 C 0 km/h
1948 16-12-2009 05:38:04 -1.2 C 2.85 g/m*3 -1.2 C 0 km/h
1949 16-12-2009 05:50:04 -1.1 C 2.92 g/m*3 -1.1 C 0 km/h
1950 16-12-2009 06:02:04 -1.1 C 2.87 g/m*3 -1.1 C 0 km/h
Sensor: Nr:Datum:Temp:Abs-Feuchte:Windchill:Wind:
Aussen-T/F 1951 16-12-2009 06:14:04 -1.1 C 2.87 g/m*3 -1.1 C 0 km/h
1952 16-12-2009 06:26:04 -1.2 C 2.85 g/m*3 -1.2 C 0 km/h
1953 16-12-2009 06:38:04 -1.2 C 2.85 g/m*3 -1.2 C 0 km/h
1954 16-12-2009 06:50:04 -1.2 C 2.85 g/m*3 -1.2 C 0 km/h
1955 16-12-2009 07:02:03 -1.2 C 2.85 g/m*3 -1.2 C 0 km/h
1956 16-12-2009 07:14:03 -1.2 C 2.85 g/m*3 -1.2 C 0 km/h
1957 16-12-2009 07:26:02 -1.2 C 2.85 g/m*3 -1.2 C 0 km/h
1958 16-12-2009 07:38:02 -1.2 C 2.9 g/m*3 -1.2 C 0 km/h
1959 16-12-2009 07:50:01 -1.2 C 2.9 g/m*3 -1.2 C 0 km/h
1960 16-12-2009 08:02:02 -1.2 C 2.9 g/m*3 -1.2 C 0 km/h
1961 16-12-2009 08:14:02 -1.2 C 2.9 g/m*3 -1.2 C 0 km/h
1962 16-12-2009 08:26:02 -1.2 C 2.9 g/m*3 -1.2 C 0 km/h
1963 16-12-2009 08:38:02 -1.2 C 2.9 g/m*3 -1.2 C 0 km/h
1964 16-12-2009 08:50:03 -1.2 C 2.9 g/m*3 -1.2 C 0 km/h
1965 16-12-2009 09:02:02 -1.2 C 2.94 g/m*3 -1.2 C 0 km/h
1966 16-12-2009 09:14:02 -1.2 C 2.94 g/m*3 -1.2 C 0 km/h
1967 16-12-2009 09:26:03 -1.1 C 2.96 g/m*3 -1.1 C 0 km/h
1968 16-12-2009 09:38:02 -1 C 2.98 g/m*3 -1 C 0 km/h
1969 16-12-2009 09:50:02 -0.8 C 2.98 g/m*3 -0.8 C 0 km/h
1970 16-12-2009 10:02:02 -0.6 C 3.02 g/m*3 -0.6 C 0 km/h
1971 16-12-2009 10:14:02 -0.4 C 3.02 g/m*3 -0.4 C 0 km/h
1972 16-12-2009 10:26:02 -0.2 C 3.01 g/m*3 -0.2 C 0 km/h
1973 16-12-2009 10:38:02 -0.2 C 2.91 g/m*3 -0.2 C 0 km/h
1974 16-12-2009 10:50:02 0 C 2.96 g/m*3 0 C 0 km/h
1975 16-12-2009 11:02:02 0.1 C 2.98 g/m*3 0.1 C 0 km/h
Sensor: Nr:Datum:Temp:Abs-Feuchte:Windchill:Wind:
Aussen-T/F 1976 16-12-2009 11:14:02 0.2 C 2.95 g/m*3 0.2 C 0 km/h
1977 16-12-2009 11:26:02 0.1 C 2.88 g/m*3 0.1 C 0 km/h
1978 16-12-2009 11:38:03 0.2 C 2.9 g/m*3 0.2 C 0 km/h
1979 16-12-2009 11:50:02 0.4 C 2.89 g/m*3 0.4 C 0 km/h
1980 16-12-2009 12:02:02 0.6 C 2.98 g/m*3 0.6 C 0 km/h
1981 16-12-2009 12:14:02 0.8 C 2.97 g/m*3 0.8 C 0 km/h
1982 16-12-2009 12:26:02 0.7 C 2.9 g/m*3 0.7 C 0 km/h
1983 16-12-2009 12:38:02 1 C 2.96 g/m*3 1 C 0 km/h
1984 16-12-2009 12:50:02 1.1 C 2.93 g/m*3 1.1 C 0 km/h
1985 16-12-2009 13:02:03 1.1 C 2.93 g/m*3 1.1 C 0 km/h
1986 16-12-2009 13:14:03 1.2 C 2.89 g/m*3 1.2 C 0 km/h
1987 16-12-2009 13:26:02 1.1 C 2.82 g/m*3 1.1 C 0 km/h
1988 16-12-2009 13:38:03 0.6 C 2.78 g/m*3 0.6 C 0 km/h
1989 16-12-2009 13:50:02 0.6 C 2.78 g/m*3 0.6 C 0 km/h
1990 16-12-2009 14:02:02 0.8 C 2.76 g/m*3 0.8 C 0 km/h
1991 16-12-2009 14:14:02 0.9 C 2.84 g/m*3 0.9 C 0 km/h
1992 16-12-2009 14:26:01 1 C 2.7 g/m*3 1 C 0 km/h
1993 16-12-2009 14:38:02 1.3 C 2.75 g/m*3 1.3 C 0 km/h
1994 16-12-2009 14:50:02 1.1 C 2.72 g/m*3 1.1 C 0 km/h
1995 16-12-2009 15:02:02 0.7 C 2.69 g/m*3 0.7 C 0 km/h
1996 16-12-2009 15:14:03 0.4 C 2.59 g/m*3 0.4 C 0 km/h
1997 16-12-2009 15:26:01 0 C 2.62 g/m*3 0 C 0 km/h
1998 16-12-2009 15:38:02 -0.3 C 2.61 g/m*3 -0.3 C 0 km/h
1999 16-12-2009 15:50:02 -0.5 C 2.62 g/m*3 -0.5 C 0 km/h
2000 16-12-2009 16:02:02 -0.6 C 2.6 g/m*3 -0.6 C 0 km/h
Sensor: Nr:Datum:Temp:Abs-Feuchte:Windchill:Wind:
Aussen-T/F 2001 16-12-2009 16:14:02 -0.7 C 2.58 g/m*3 -0.7 C 0 km/h
2002 16-12-2009 16:26:02 -0.9 C 2.55 g/m*3 -0.9 C 0 km/h
2003 16-12-2009 16:38:02 -1.1 C 2.51 g/m*3 -1.1 C 0 km/h
2004 16-12-2009 16:50:01 -1.3 C 2.48 g/m*3 -1.3 C 0 km/h
2005 16-12-2009 17:02:02 -1.5 C 2.49 g/m*3 -1.5 C 0 km/h
2006 16-12-2009 17:14:02 -1.7 C 2.5 g/m*3 -1.7 C 0 km/h
2007 16-12-2009 17:26:02 -1.7 C 2.58 g/m*3 -1.7 C 0 km/h
2008 16-12-2009 17:38:02 -1.8 C 2.61 g/m*3 -1.8 C 0 km/h
2009 16-12-2009 17:50:02 -1.9 C 2.63 g/m*3 -1.9 C 0 km/h
2010 16-12-2009 18:02:02 -2 C 2.66 g/m*3 -2 C 0 km/h
2011 16-12-2009 18:14:02 -2.1 C 2.68 g/m*3 -2.1 C 0 km/h
2012 16-12-2009 18:26:02 -2 C 2.7 g/m*3 -2 C 0 km/h
2013 16-12-2009 18:38:03 -2 C 2.7 g/m*3 -2 C 0 km/h
2014 16-12-2009 18:50:02 -2 C 2.7 g/m*3 -2 C 0 km/h
2015 16-12-2009 19:02:01 -1.9 C 2.76 g/m*3 -1.9 C 0 km/h
2016 16-12-2009 19:14:01 -1.9 C 2.76 g/m*3 -1.9 C 0 km/h
2017 16-12-2009 19:26:01 -2.1 C 2.72 g/m*3 -2.1 C 0 km/h
2018 16-12-2009 19:38:02 -2.3 C 2.68 g/m*3 -2.3 C 0 km/h
2019 16-12-2009 19:50:02 -2.5 C 2.65 g/m*3 -2.5 C 0 km/h
2020 16-12-2009 20:02:02 -2.6 C 2.67 g/m*3 -2.6 C 0 km/h
2021 16-12-2009 20:14:02 -2.8 C 2.67 g/m*3 -2.8 C 0 km/h
2022 16-12-2009 20:26:01 -2.9 C 2.69 g/m*3 -2.9 C 0 km/h
2023 16-12-2009 20:38:02 -3 C 2.71 g/m*3 -3 C 0 km/h
2024 16-12-2009 20:50:02 -3.1 C 2.69 g/m*3 -3.1 C 0 km/h
2025 16-12-2009 21:02:02 -3.2 C 2.71 g/m*3 -3.2 C 0 km/h
Sensor: Nr:Datum:Temp:Abs-Feuchte:Windchill:Wind:
Aussen-T/F 2026 16-12-2009 21:14:02 -3.2 C 2.75 g/m*3 -3.2 C 0 km/h
2027 16-12-2009 21:26:02 -3.3 C 2.73 g/m*3 -3.3 C 0 km/h
2028 16-12-2009 21:38:02 -3.5 C 2.69 g/m*3 -3.5 C 0 km/h
2029 16-12-2009 21:50:02 -3.7 C 2.69 g/m*3 -3.7 C 0 km/h
2030 16-12-2009 22:02:02 -3.7 C 2.73 g/m*3 -3.7 C 0 km/h
2031 16-12-2009 22:14:02 -3.8 C 2.71 g/m*3 -3.8 C 0 km/h
2032 16-12-2009 22:27:05 -3.9 C 2.69 g/m*3 -3.9 C 0 km/h
2033 16-12-2009 22:39:05 -3.9 C 2.73 g/m*3 -3.9 C 0 km/h
2034 16-12-2009 22:51:05 -3.8 C 2.78 g/m*3 -3.8 C 0 km/h
2035 16-12-2009 23:03:05 -3.8 C 2.78 g/m*3 -3.8 C 0 km/h
2036 16-12-2009 23:15:06 -4.1 C 2.72 g/m*3 -4.1 C 0 km/h
2037 16-12-2009 23:27:06 -4.3 C 2.69 g/m*3 -4.3 C 0 km/h
2038 16-12-2009 23:39:06 -4.4 C 2.67 g/m*3 -4.4 C 0 km/h
2039 16-12-2009 23:51:06 -4.4 C 2.67 g/m*3 -4.4 C 0 km/h
2040 17-12-2009 00:03:06 -4.6 C 2.66 g/m*3 -4.6 C 0 km/h
2041 17-12-2009 00:15:06 -4.7 C 2.64 g/m*3 -4.7 C 0 km/h
2042 17-12-2009 00:27:06 -4.8 C 2.66 g/m*3 -4.8 C 0 km/h
2043 17-12-2009 00:39:06 -5.1 C 2.6 g/m*3 -5.1 C 0 km/h
2044 17-12-2009 00:51:06 -5.3 C 2.57 g/m*3 -5.3 C 0 km/h
2045 17-12-2009 01:03:06 -5.2 C 2.62 g/m*3 -5.2 C 0 km/h
2046 17-12-2009 01:15:06 -5.4 C 2.58 g/m*3 -5.4 C 0 km/h
2047 17-12-2009 01:27:06 -5.3 C 2.63 g/m*3 -5.3 C 0 km/h
2048 17-12-2009 01:39:06 -5.3 C 2.63 g/m*3 -5.3 C 0 km/h
2049 17-12-2009 01:51:06 -5.6 C 2.58 g/m*3 -5.6 C 0 km/h
2050 17-12-2009 02:03:06 -5.6 C 2.58 g/m*3 -5.6 C 0 km/h
Sensor: Nr:Datum:Temp:Abs-Feuchte:Windchill:Wind:
Aussen-T/F 2051 17-12-2009 02:15:06 -5.5 C 2.63 g/m*3 -5.5 C 0 km/h
2052 17-12-2009 02:27:06 -5.6 C 2.64 g/m*3 -5.6 C 0 km/h
2053 17-12-2009 02:39:06 -5.7 C 2.62 g/m*3 -5.7 C 0 km/h
2054 17-12-2009 02:51:06 -5.9 C 2.58 g/m*3 -5.9 C 0 km/h
2055 17-12-2009 03:03:06 -5.9 C 2.58 g/m*3 -5.9 C 0 km/h
2056 17-12-2009 03:15:06 -5.6 C 2.67 g/m*3 -5.6 C 0 km/h
2057 17-12-2009 03:27:07 -5.4 C 2.75 g/m*3 -5.4 C 0 km/h
2058 17-12-2009 03:39:07 -5.3 C 2.77 g/m*3 -5.3 C 0 km/h
2059 17-12-2009 03:51:07 -5.4 C 2.75 g/m*3 -5.4 C 0 km/h
2060 17-12-2009 04:03:07 -5.3 C 2.77 g/m*3 -5.3 C 0 km/h
2061 17-12-2009 04:15:07 -5.4 C 2.75 g/m*3 -5.4 C 0 km/h
2062 17-12-2009 04:27:07 -5.5 C 2.73 g/m*3 -5.5 C 0 km/h
2063 17-12-2009 04:39:07 -5.6 C 2.71 g/m*3 -5.6 C 0 km/h
2064 17-12-2009 04:51:07 -5.9 C 2.65 g/m*3 -5.9 C 0 km/h
2065 17-12-2009 05:03:07 -5.9 C 2.65 g/m*3 -5.9 C 0 km/h
2066 17-12-2009 05:15:07 -6 C 2.63 g/m*3 -6 C 0 km/h
2067 17-12-2009 05:27:07 -5.8 C 2.67 g/m*3 -5.8 C 0 km/h
2068 17-12-2009 05:39:07 -5.9 C 2.65 g/m*3 -5.9 C 0 km/h
2069 17-12-2009 05:51:07 -6 C 2.63 g/m*3 -6 C 0 km/h
2070 17-12-2009 06:03:07 -6 C 2.63 g/m*3 -6 C 0 km/h
2071 17-12-2009 06:15:07 -6.1 C 2.61 g/m*3 -6.1 C 0 km/h
2072 17-12-2009 06:27:07 -6 C 2.63 g/m*3 -6 C 0 km/h
2073 17-12-2009 06:39:07 -6.2 C 2.59 g/m*3 -6.2 C 0 km/h
2074 17-12-2009 06:51:02 -6.2 C 2.59 g/m*3 -6.2 C 0 km/h
2075 17-12-2009 07:03:02 -6.1 C 2.61 g/m*3 -6.1 C 0 km/h
Sensor: Nr:Datum:Temp:Abs-Feuchte:Windchill:Wind:
Aussen-T/F 2076 17-12-2009 07:15:02 -6.2 C 2.59 g/m*3 -6.2 C 0 km/h
2077 17-12-2009 07:27:02 -6.4 C 2.55 g/m*3 -6.4 C 0 km/h
2078 17-12-2009 07:39:02 -6.5 C 2.53 g/m*3 -6.5 C 0 km/h
2079 17-12-2009 07:51:02 -6.6 C 2.52 g/m*3 -6.6 C 0 km/h
2080 17-12-2009 08:03:01 -6.7 C 2.5 g/m*3 -6.7 C 0 km/h
2081 17-12-2009 08:15:01 -6.7 C 2.5 g/m*3 -6.7 C 0 km/h
2082 17-12-2009 08:27:01 -6.6 C 2.52 g/m*3 -6.6 C 0 km/h
2083 17-12-2009 08:39:02 -6.2 C 2.62 g/m*3 -6.2 C 0 km/h
2084 17-12-2009 08:51:02 -6 C 2.66 g/m*3 -6 C 0 km/h
2085 17-12-2009 09:03:02 -6 C 2.66 g/m*3 -6 C 0 km/h
2086 17-12-2009 09:15:02 -6 C 2.63 g/m*3 -6 C 0 km/h
2087 17-12-2009 09:27:02 -5.9 C 2.65 g/m*3 -5.9 C 0 km/h
2088 17-12-2009 09:39:02 -5.8 C 2.67 g/m*3 -5.8 C 0 km/h
2089 17-12-2009 09:51:02 -5.7 C 2.69 g/m*3 -5.7 C 0 km/h
2090 17-12-2009 10:03:03 -5.6 C 2.71 g/m*3 -5.6 C 0 km/h
2091 17-12-2009 10:15:02 -5.5 C 2.73 g/m*3 -5.5 C 0 km/h
2092 17-12-2009 10:27:02 -5.3 C 2.77 g/m*3 -5.3 C 0 km/h
2093 17-12-2009 10:39:02 -5.1 C 2.81 g/m*3 -5.1 C 0 km/h
2094 17-12-2009 10:51:01 -4.9 C 2.85 g/m*3 -4.9 C 0 km/h
2095 17-12-2009 11:03:02 -4.5 C 2.93 g/m*3 -4.5 C 0 km/h
2096 17-12-2009 11:15:01 -4.2 C 2.96 g/m*3 -4.2 C 0 km/h
2097 17-12-2009 11:27:01 -4 C 3 g/m*3 -4 C 0 km/h
2098 17-12-2009 11:39:01 -4.1 C 2.94 g/m*3 -4.1 C 0 km/h
2099 17-12-2009 11:51:01 -4.1 C 2.94 g/m*3 -4.1 C 0 km/h
2100 17-12-2009 12:03:01 -4.1 C 2.94 g/m*3 -4.1 C 0 km/h
Sensor: Nr:Datum:Temp:Abs-Feuchte:Windchill:Wind:
Aussen-T/F 2101 17-12-2009 12:15:02 -3.8 C 3.01 g/m*3 -3.8 C 0 km/h
2102 17-12-2009 12:27:02 -3 C 3.14 g/m*3 -3 C 0 km/h
2103 17-12-2009 12:39:01 -2.3 C 3.05 g/m*3 -2.3 C 0 km/h
2104 17-12-2009 12:51:01 -1.9 C 2.84 g/m*3 -1.9 C 0 km/h
2105 17-12-2009 13:03:01 -1.8 C 2.78 g/m*3 -1.8 C 0 km/h
2106 17-12-2009 13:15:02 -1.7 C 2.76 g/m*3 -1.7 C 0 km/h
2107 17-12-2009 13:27:02 -1.6 C 2.64 g/m*3 -1.6 C 0 km/h
2108 17-12-2009 13:39:01 -1.5 C 2.62 g/m*3 -1.5 C 0 km/h
2109 17-12-2009 13:51:02 -1.5 C 2.62 g/m*3 -1.5 C 0 km/h
2110 17-12-2009 14:03:02 -1.4 C 2.64 g/m*3 -1.4 C 0 km/h
2111 17-12-2009 14:15:02 -1.4 C 2.64 g/m*3 -1.4 C 0 km/h
2112 17-12-2009 14:27:03 -1.3 C 2.66 g/m*3 -1.3 C 0 km/h
2113 17-12-2009 14:39:02 -1.3 C 2.61 g/m*3 -1.3 C 0 km/h
2114 17-12-2009 14:51:02 -1.3 C 2.52 g/m*3 -1.3 C 0 km/h
2115 17-12-2009 15:03:01 -1.3 C 2.48 g/m*3 -1.3 C 0 km/h
2116 17-12-2009 15:15:02 -1.6 C 2.43 g/m*3 -1.6 C 0 km/h
2117 17-12-2009 15:27:02 -1.7 C 2.45 g/m*3 -1.7 C 0 km/h
2118 17-12-2009 15:39:02 -2 C 2.49 g/m*3 -2 C 0 km/h
2119 17-12-2009 15:51:02 -2.2 C 2.54 g/m*3 -2.2 C 0 km/h
2120 17-12-2009 16:03:03 -2.3 C 2.56 g/m*3 -2.3 C 0 km/h
2121 17-12-2009 16:15:02 -2.5 C 2.52 g/m*3 -2.5 C 0 km/h
2122 17-12-2009 16:27:02 -2.7 C 2.53 g/m*3 -2.7 C 0 km/h
2123 17-12-2009 16:39:02 -2.6 C 2.51 g/m*3 -2.6 C 0 km/h
2124 17-12-2009 16:51:01 -2.6 C 2.51 g/m*3 -2.6 C 0 km/h
2125 17-12-2009 17:03:02 -3 C 2.44 g/m*3 -3 C 0 km/h
Sensor: Nr:Datum:Temp:Abs-Feuchte:Windchill:Wind:
Aussen-T/F 2126 17-12-2009 17:15:01 -3.5 C 2.39 g/m*3 -3.5 C 0 km/h
2127 17-12-2009 17:27:01 -3.8 C 2.37 g/m*3 -3.8 C 0 km/h
2128 17-12-2009 17:39:02 -4.1 C 2.36 g/m*3 -4.1 C 0 km/h
2129 17-12-2009 17:51:01 -4.2 C 2.34 g/m*3 -4.2 C 0 km/h
2130 17-12-2009 18:03:02 -4.5 C 2.29 g/m*3 -4.5 C 0 km/h
2131 17-12-2009 18:15:01 -4.6 C 2.28 g/m*3 -4.6 C 0 km/h
2132 17-12-2009 18:27:01 -4.5 C 2.33 g/m*3 -4.5 C 0 km/h
2133 17-12-2009 18:39:02 -4.6 C 2.35 g/m*3 -4.6 C 0 km/h
2134 17-12-2009 18:51:01 -4.6 C 2.35 g/m*3 -4.6 C 0 km/h
2135 17-12-2009 19:03:02 -4.7 C 2.37 g/m*3 -4.7 C 0 km/h
2136 17-12-2009 19:15:02 -4.6 C 2.42 g/m*3 -4.6 C 0 km/h
2137 17-12-2009 19:27:02 -4.7 C 2.4 g/m*3 -4.7 C 0 km/h
2138 17-12-2009 19:39:02 -4.7 C 2.44 g/m*3 -4.7 C 0 km/h
2139 17-12-2009 19:51:02 -4.6 C 2.45 g/m*3 -4.6 C 0 km/h
2140 17-12-2009 20:03:01 -4.7 C 2.44 g/m*3 -4.7 C 0 km/h
2141 17-12-2009 20:15:02 -4.6 C 2.49 g/m*3 -4.6 C 0 km/h
2142 17-12-2009 20:27:02 -4.4 C 2.52 g/m*3 -4.4 C 0 km/h
2143 17-12-2009 20:39:01 -4.2 C 2.56 g/m*3 -4.2 C 0 km/h
2144 17-12-2009 20:51:02 -4.1 C 2.58 g/m*3 -4.1 C 0 km/h
2145 17-12-2009 21:03:01 -4.1 C 2.54 g/m*3 -4.1 C 0 km/h
2146 17-12-2009 21:15:01 -4.1 C 2.54 g/m*3 -4.1 C 0 km/h
2147 17-12-2009 21:27:01 -4.1 C 2.58 g/m*3 -4.1 C 0 km/h
2148 17-12-2009 21:39:01 -4.1 C 2.58 g/m*3 -4.1 C 0 km/h
2149 17-12-2009 21:51:02 -4 C 2.56 g/m*3 -4 C 0 km/h
2150 17-12-2009 22:04:03 -4 C 2.56 g/m*3 -4 C 0 km/h
Sensor: Nr:Datum:Temp:Abs-Feuchte:Windchill:Wind:
Aussen-T/F 2151 17-12-2009 22:16:03 -3.9 C 2.54 g/m*3 -3.9 C 0 km/h
2152 17-12-2009 22:28:03 -3.9 C 2.51 g/m*3 -3.9 C 0 km/h
2153 17-12-2009 22:40:03 -3.7 C 2.54 g/m*3 -3.7 C 0 km/h
2154 17-12-2009 22:52:03 -3.7 C 2.54 g/m*3 -3.7 C 0 km/h
2155 17-12-2009 23:04:03 -3.7 C 2.54 g/m*3 -3.7 C 0 km/h
2156 17-12-2009 23:16:03 -3.8 C 2.49 g/m*3 -3.8 C 0 km/h
2157 17-12-2009 23:28:03 -4 C 2.41 g/m*3 -4 C 0 km/h
2158 17-12-2009 23:40:03 -4.2 C 2.38 g/m*3 -4.2 C 0 km/h
2159 17-12-2009 23:52:03 -4.3 C 2.4 g/m*3 -4.3 C 0 km/h
2160 18-12-2009 00:04:03 -4.6 C 2.35 g/m*3 -4.6 C 0 km/h
2161 18-12-2009 00:16:03 -4.9 C 2.33 g/m*3 -4.9 C 0 km/h
2162 18-12-2009 00:28:03 -5.1 C 2.37 g/m*3 -5.1 C 0 km/h
2163 18-12-2009 00:40:03 -5.3 C 2.33 g/m*3 -5.3 C 0 km/h
2164 18-12-2009 00:52:03 -5.4 C 2.35 g/m*3 -5.4 C 0 km/h
2165 18-12-2009 01:04:03 -5.5 C 2.33 g/m*3 -5.5 C 0 km/h
2166 18-12-2009 01:16:03 -5.6 C 2.35 g/m*3 -5.6 C 0 km/h
2167 18-12-2009 01:28:03 -5.7 C 2.33 g/m*3 -5.7 C 0 km/h
2168 18-12-2009 01:40:03 -5.6 C 2.38 g/m*3 -5.6 C 0 km/h
2169 18-12-2009 01:52:04 -5.6 C 2.41 g/m*3 -5.6 C 0 km/h
2170 18-12-2009 02:04:04 -5.4 C 2.41 g/m*3 -5.4 C 0 km/h
2171 18-12-2009 02:16:04 -5.7 C 2.33 g/m*3 -5.7 C 0 km/h
2172 18-12-2009 02:28:04 -6 C 2.28 g/m*3 -6 C 0 km/h
2173 18-12-2009 02:40:04 -6.1 C 2.3 g/m*3 -6.1 C 0 km/h
2174 18-12-2009 02:52:04 -6.3 C 2.26 g/m*3 -6.3 C 0 km/h
2175 18-12-2009 03:04:04 -6.4 C 2.28 g/m*3 -6.4 C 0 km/h
Sensor: Nr:Datum:Temp:Abs-Feuchte:Windchill:Wind:
Aussen-T/F 2176 18-12-2009 03:16:04 -6.5 C 2.29 g/m*3 -6.5 C 0 km/h
2177 18-12-2009 03:28:04 -6.6 C 2.27 g/m*3 -6.6 C 0 km/h
2178 18-12-2009 03:40:04 -6.7 C 2.26 g/m*3 -6.7 C 0 km/h
2179 18-12-2009 03:52:04 -6.6 C 2.3 g/m*3 -6.6 C 0 km/h
2180 18-12-2009 04:04:04 -6.7 C 2.32 g/m*3 -6.7 C 0 km/h
2181 18-12-2009 04:16:04 -6.8 C 2.3 g/m*3 -6.8 C 0 km/h
2182 18-12-2009 04:28:04 -6.8 C 2.3 g/m*3 -6.8 C 0 km/h
2183 18-12-2009 04:40:04 -6.9 C 2.31 g/m*3 -6.9 C 0 km/h
2184 18-12-2009 04:52:04 -7.1 C 2.28 g/m*3 -7.1 C 0 km/h
2185 18-12-2009 05:04:04 -7.1 C 2.28 g/m*3 -7.1 C 0 km/h
2186 18-12-2009 05:16:04 -7.2 C 2.29 g/m*3 -7.2 C 0 km/h
2187 18-12-2009 05:28:04 -7.4 C 2.26 g/m*3 -7.4 C 0 km/h
2188 18-12-2009 05:40:04 -7.4 C 2.26 g/m*3 -7.4 C 0 km/h
2189 18-12-2009 05:52:04 -7.5 C 2.24 g/m*3 -7.5 C 0 km/h
2190 18-12-2009 06:04:04 -7.5 C 2.24 g/m*3 -7.5 C 0 km/h
2191 18-12-2009 06:16:05 -7.6 C 2.25 g/m*3 -7.6 C 0 km/h
2192 18-12-2009 06:28:05 -7.7 C 2.24 g/m*3 -7.7 C 0 km/h
2193 18-12-2009 06:40:05 -7.8 C 2.22 g/m*3 -7.8 C 0 km/h
2194 18-12-2009 06:52:05 -7.9 C 2.2 g/m*3 -7.9 C 0 km/h
2195 18-12-2009 07:04:02 -7.9 C 2.2 g/m*3 -7.9 C 0 km/h
2196 18-12-2009 07:16:02 -7.8 C 2.22 g/m*3 -7.8 C 0 km/h
2197 18-12-2009 07:28:03 -7.7 C 2.24 g/m*3 -7.7 C 0 km/h
2198 18-12-2009 07:40:02 -7.3 C 2.33 g/m*3 -7.3 C 0 km/h
2199 18-12-2009 07:52:02 -7.1 C 2.37 g/m*3 -7.1 C 0 km/h
2200 18-12-2009 08:04:02 -6.8 C 2.42 g/m*3 -6.8 C 0 km/h
Sensor: Nr:Datum:Temp:Abs-Feuchte:Windchill:Wind:
Aussen-T/F 2201 18-12-2009 08:16:02 -6.6 C 2.46 g/m*3 -6.6 C 0 km/h
2202 18-12-2009 08:28:02 -6.5 C 2.44 g/m*3 -6.5 C 0 km/h
2203 18-12-2009 08:40:02 -6.6 C 2.43 g/m*3 -6.6 C 0 km/h
2204 18-12-2009 08:52:02 -6.7 C 2.38 g/m*3 -6.7 C 0 km/h
2205 18-12-2009 09:04:02 -6.7 C 2.38 g/m*3 -6.7 C 0 km/h
2206 18-12-2009 09:16:01 -6.6 C 2.39 g/m*3 -6.6 C 0 km/h
2207 18-12-2009 09:28:01 -6.4 C 2.43 g/m*3 -6.4 C 0 km/h
2208 18-12-2009 09:40:02 -6.1 C 2.48 g/m*3 -6.1 C 0 km/h
2209 18-12-2009 09:52:02 -5.7 C 2.56 g/m*3 -5.7 C 0 km/h
2210 18-12-2009 10:04:02 -5.4 C 2.58 g/m*3 -5.4 C 0 km/h
2211 18-12-2009 10:16:01 -5.2 C 2.58 g/m*3 -5.2 C 0 km/h
2212 18-12-2009 10:28:01 -4.8 C 2.63 g/m*3 -4.8 C 0 km/h
2213 18-12-2009 10:40:02 -4.4 C 2.67 g/m*3 -4.4 C 0 km/h
2214 18-12-2009 10:52:02 -4.2 C 2.6 g/m*3 -4.2 C 0 km/h
2215 18-12-2009 11:04:02 -4.1 C 2.51 g/m*3 -4.1 C 0 km/h
2216 18-12-2009 11:16:01 -3.9 C 2.54 g/m*3 -3.9 C 0 km/h
2217 18-12-2009 11:28:01 -3.7 C 2.54 g/m*3 -3.7 C 0 km/h
2218 18-12-2009 11:40:02 -3.6 C 2.52 g/m*3 -3.6 C 0 km/h
2219 18-12-2009 11:52:02 -3.4 C 2.52 g/m*3 -3.4 C 0 km/h
2220 18-12-2009 12:04:02 -3.1 C 2.5 g/m*3 -3.1 C 0 km/h
2221 18-12-2009 12:16:02 -2.9 C 2.49 g/m*3 -2.9 C 0 km/h
2222 18-12-2009 12:28:02 -3 C 2.44 g/m*3 -3 C 0 km/h
2223 18-12-2009 12:40:02 -3 C 2.44 g/m*3 -3 C 0 km/h
2224 18-12-2009 12:52:02 -3.2 C 2.44 g/m*3 -3.2 C 0 km/h
2225 18-12-2009 13:04:02 -3 C 2.51 g/m*3 -3 C 0 km/h
Sensor: Nr:Datum:Temp:Abs-Feuchte:Windchill:Wind:
Aussen-T/F 2226 18-12-2009 13:16:02 -2.8 C 2.59 g/m*3 -2.8 C 0 km/h
2227 18-12-2009 13:28:02 -2.8 C 2.55 g/m*3 -2.8 C 0 km/h
2228 18-12-2009 13:40:01 -2.4 C 2.66 g/m*3 -2.4 C 0 km/h
2229 18-12-2009 13:52:02 -2.1 C 2.68 g/m*3 -2.1 C 0 km/h
2230 18-12-2009 14:04:01 -2.1 C 2.64 g/m*3 -2.1 C 0 km/h
2231 18-12-2009 14:16:02 -2.2 C 2.66 g/m*3 -2.2 C 0 km/h
2232 18-12-2009 14:28:02 -2.1 C 2.72 g/m*3 -2.1 C 0 km/h
2233 18-12-2009 14:40:01 -2 C 2.78 g/m*3 -2 C 0 km/h
2234 18-12-2009 14:52:02 -1.9 C 2.84 g/m*3 -1.9 C 0 km/h
2235 18-12-2009 15:04:02 -1.8 C 2.91 g/m*3 -1.8 C 0 km/h
2236 18-12-2009 15:16:02 -1.8 C 2.86 g/m*3 -1.8 C 0 km/h
2237 18-12-2009 15:28:02 -1.9 C 2.89 g/m*3 -1.9 C 0 km/h
2238 18-12-2009 15:40:03 -1.9 C 2.89 g/m*3 -1.9 C 0 km/h
2239 18-12-2009 15:52:02 -1.9 C 2.8 g/m*3 -1.9 C 0 km/h
2240 18-12-2009 16:04:02 -2 C 2.74 g/m*3 -2 C 0 km/h
2241 18-12-2009 16:16:01 -2.1 C 2.89 g/m*3 -2.1 C 0 km/h
2242 18-12-2009 16:28:01 -2.5 C 3.01 g/m*3 -2.5 C 0 km/h
2243 18-12-2009 16:40:02 -2.6 C 3.07 g/m*3 -2.6 C 0 km/h
2244 18-12-2009 16:52:02 -2.7 C 3.05 g/m*3 -2.7 C 0 km/h
2245 18-12-2009 17:04:02 -2.9 C 3.05 g/m*3 -2.9 C 0 km/h
2246 18-12-2009 17:16:02 -3 C 3.02 g/m*3 -3 C 0 km/h
2247 18-12-2009 17:28:02 -3 C 3.02 g/m*3 -3 C 0 km/h
2248 18-12-2009 17:40:02 -2.9 C 3.01 g/m*3 -2.9 C 0 km/h
2249 18-12-2009 17:52:02 -3 C 2.83 g/m*3 -3 C 0 km/h
2250 18-12-2009 18:04:01 -3.2 C 2.59 g/m*3 -3.2 C 0 km/h
Sensor: Nr:Datum:Temp:Abs-Feuchte:Windchill:Wind:
Aussen-T/F 2251 18-12-2009 18:16:02 -3.4 C 2.52 g/m*3 -3.4 C 0 km/h
2252 18-12-2009 18:28:02 -3.6 C 2.45 g/m*3 -3.6 C 0 km/h
2253 18-12-2009 18:40:01 -3.7 C 2.35 g/m*3 -3.7 C 0 km/h
2254 18-12-2009 18:52:02 -3.8 C 2.12 g/m*3 -3.8 C 0 km/h
2255 18-12-2009 19:04:02 -3.8 C 2.08 g/m*3 -3.8 C 0 km/h
2256 18-12-2009 19:16:02 -3.8 C 2.12 g/m*3 -3.8 C 0 km/h
2257 18-12-2009 19:28:02 -4.1 C 1.96 g/m*3 -4.1 C 0 km/h
2258 18-12-2009 19:40:03 -4.2 C 1.8 g/m*3 -4.2 C 0 km/h
2259 18-12-2009 19:52:02 -4.2 C 1.8 g/m*3 -4.2 C 0 km/h
2260 18-12-2009 20:04:01 -4.6 C 1.61 g/m*3 -4.6 C 0 km/h
2261 18-12-2009 20:16:02 -4.8 C 1.59 g/m*3 -4.8 C 0 km/h
2262 18-12-2009 20:28:02 -5.1 C 1.55 g/m*3 -5.1 C 0 km/h
2263 18-12-2009 20:40:02 -5.2 C 1.51 g/m*3 -5.2 C 0 km/h
2264 18-12-2009 20:52:02 -5.2 C 1.54 g/m*3 -5.2 C 0 km/h
2265 18-12-2009 21:04:01 -5.3 C 1.5 g/m*3 -5.3 C 0 km/h
2266 18-12-2009 21:16:01 -5.4 C 1.49 g/m*3 -5.4 C 0 km/h
2267 18-12-2009 21:28:01 -5.4 C 1.59 g/m*3 -5.4 C 0 km/h
2268 18-12-2009 21:41:29 -5.4 C 1.69 g/m*3 -5.4 C 0 km/h
2269 18-12-2009 21:53:29 -5.4 C 1.72 g/m*3 -5.4 C 0 km/h
2270 18-12-2009 22:05:29 -5.7 C 1.78 g/m*3 -5.7 C 0 km/h
2271 18-12-2009 22:17:29 -5.8 C 1.86 g/m*3 -5.8 C 0 km/h
2272 18-12-2009 22:29:29 -6 C 1.93 g/m*3 -6 C 0 km/h
2273 18-12-2009 22:41:29 -7.2 C 1.83 g/m*3 -7.2 C 0 km/h
2274 18-12-2009 22:53:29 -7.4 C 1.89 g/m*3 -7.4 C 0 km/h
2275 18-12-2009 23:05:29 -7.3 C 1.96 g/m*3 -7.3 C 0 km/h
Sensor: Nr:Datum:Temp:Abs-Feuchte:Windchill:Wind:
Aussen-T/F 2276 18-12-2009 23:17:29 -7.6 C 1.92 g/m*3 -7.6 C 0 km/h
2277 18-12-2009 23:29:29 -7.8 C 1.89 g/m*3 -7.8 C 0 km/h
2278 18-12-2009 23:41:29 -7.9 C 1.87 g/m*3 -7.9 C 0 km/h
2279 18-12-2009 23:53:29 -8.2 C 1.75 g/m*3 -8.2 C 0 km/h
2280 19-12-2009 00:05:29 -8.5 C 1.69 g/m*3 -8.5 C 0 km/h
2281 19-12-2009 00:17:29 -8.6 C 1.65 g/m*3 -8.6 C 0 km/h
2282 19-12-2009 00:29:29 -8.8 C 1.57 g/m*3 -8.8 C 0 km/h
2283 19-12-2009 00:41:29 -9.1 C 1.49 g/m*3 -9.1 C 0 km/h
2284 19-12-2009 00:53:29 -9.4 C 1.43 g/m*3 -9.4 C 0 km/h
2285 19-12-2009 01:05:29 -9.6 C 1.38 g/m*3 -9.6 C 0 km/h
2286 19-12-2009 01:17:29 -9.8 C 1.36 g/m*3 -9.8 C 0 km/h
2287 19-12-2009 01:29:30 -9.9 C 1.35 g/m*3 -9.9 C 0 km/h
2288 19-12-2009 01:41:30 -10 C 1.3 g/m*3 -10 C 0 km/h
2289 19-12-2009 01:53:30 -10 C 1.27 g/m*3 -10 C 0 km/h
2290 19-12-2009 02:05:30 -10 C 1.25 g/m*3 -10 C 0 km/h
2291 19-12-2009 02:17:30 -10 C 1.22 g/m*3 -10 C 0 km/h
2292 19-12-2009 02:29:30 -10 C 1.25 g/m*3 -10 C 0 km/h
2293 19-12-2009 02:41:30 -10.4 C 1.17 g/m*3 -10.4 C 0 km/h
2294 19-12-2009 02:53:30 -11.2 C 1.1 g/m*3 -11.2 C 0 km/h
2295 19-12-2009 03:05:30 -11.8 C 1.07 g/m*3 -11.8 C 0 km/h
2296 19-12-2009 03:17:30 -12.1 C 1.06 g/m*3 -12.1 C 0 km/h
2297 19-12-2009 03:29:30 -12.3 C 1.07 g/m*3 -12.3 C 0 km/h
2298 19-12-2009 03:41:30 -12.5 C 1.07 g/m*3 -12.5 C 0 km/h
2299 19-12-2009 03:53:30 -12.5 C 1.09 g/m*3 -12.5 C 0 km/h
2300 19-12-2009 04:05:30 -12.5 C 1.09 g/m*3 -12.5 C 0 km/h
Sensor: Nr:Datum:Temp:Abs-Feuchte:Windchill:Wind:
Aussen-T/F 2301 19-12-2009 04:17:30 -12.6 C 1.08 g/m*3 -12.6 C 0 km/h
2302 19-12-2009 04:29:30 -12.6 C 1.1 g/m*3 -12.6 C 0 km/h
2303 19-12-2009 04:41:30 -12.6 C 1.08 g/m*3 -12.6 C 0 km/h
2304 19-12-2009 04:53:30 -12.6 C 1.06 g/m*3 -12.6 C 0 km/h
2305 19-12-2009 05:05:30 -12.7 C 1.04 g/m*3 -12.7 C 0 km/h
2306 19-12-2009 05:17:30 -13.1 C 1 g/m*3 -13.1 C 0 km/h
2307 19-12-2009 05:29:30 -13.2 C 1 g/m*3 -13.2 C 0 km/h
2308 19-12-2009 05:41:30 -13.3 C 1.01 g/m*3 -13.3 C 0 km/h
2309 19-12-2009 05:53:30 -13.4 C 1.02 g/m*3 -13.4 C 0 km/h
2310 19-12-2009 06:05:31 -13.5 C 1.03 g/m*3 -13.5 C 0 km/h
2311 19-12-2009 06:17:31 -13.6 C 1.02 g/m*3 -13.6 C 0 km/h
2312 19-12-2009 06:29:31 -13.7 C 1.03 g/m*3 -13.7 C 0 km/h
2313 19-12-2009 06:41:31 -13.9 C 1.01 g/m*3 -13.9 C 0 km/h
2314 19-12-2009 06:53:31 -13.7 C 1.05 g/m*3 -13.7 C 0 km/h
2315 19-12-2009 07:05:31 -13.9 C 1.05 g/m*3 -13.9 C 0 km/h
2316 19-12-2009 07:17:31 -14 C 1.04 g/m*3 -14 C 0 km/h
2317 19-12-2009 07:29:31 -13.7 C 1.08 g/m*3 -13.7 C 0 km/h
2318 19-12-2009 07:41:01 -13.5 C 1.1 g/m*3 -13.5 C 0 km/h
2319 19-12-2009 07:53:02 -13.4 C 1.13 g/m*3 -13.4 C 0 km/h
2320 19-12-2009 08:05:02 -13.5 C 1.12 g/m*3 -13.5 C 0 km/h
2321 19-12-2009 08:17:02 -13.7 C 1.1 g/m*3 -13.7 C 0 km/h
2322 19-12-2009 08:29:03 -13.7 C 1.1 g/m*3 -13.7 C 0 km/h
2323 19-12-2009 08:41:02 -14 C 1.07 g/m*3 -14 C 0 km/h
2324 19-12-2009 08:53:02 -14.1 C 1.07 g/m*3 -14.1 C 0 km/h
2325 19-12-2009 09:05:01 -14.1 C 1.07 g/m*3 -14.1 C 0 km/h
Sensor: Nr:Datum:Temp:Abs-Feuchte:Windchill:Wind:
Aussen-T/F 2326 19-12-2009 09:17:02 -13.9 C 1.1 g/m*3 -13.9 C 0 km/h
2327 19-12-2009 09:29:02 -13.9 C 1.1 g/m*3 -13.9 C 0 km/h
2328 19-12-2009 09:41:02 -13.9 C 1.08 g/m*3 -13.9 C 0 km/h
2329 19-12-2009 09:53:02 -13.7 C 1.12 g/m*3 -13.7 C 0 km/h
2330 19-12-2009 10:05:03 -13.5 C 1.14 g/m*3 -13.5 C 0 km/h
2331 19-12-2009 10:17:02 -13.4 C 1.16 g/m*3 -13.4 C 0 km/h
2332 19-12-2009 10:29:02 -13.2 C 1.16 g/m*3 -13.2 C 0 km/h
2333 19-12-2009 10:41:03 -13 C 1.18 g/m*3 -13 C 0 km/h
2334 19-12-2009 10:53:02 -12.7 C 1.19 g/m*3 -12.7 C 0 km/h
2335 19-12-2009 11:05:02 -12.8 C 1.16 g/m*3 -12.8 C 0 km/h
2336 19-12-2009 11:17:01 -12.8 C 1.14 g/m*3 -12.8 C 0 km/h
2337 19-12-2009 11:29:01 -12.7 C 1.15 g/m*3 -12.7 C 0 km/h
2338 19-12-2009 11:41:02 -12.6 C 1.14 g/m*3 -12.6 C 0 km/h
2339 19-12-2009 11:53:02 -12.6 C 1.12 g/m*3 -12.6 C 0 km/h
2340 19-12-2009 12:05:02 -12.3 C 1.15 g/m*3 -12.3 C 0 km/h
2341 19-12-2009 12:17:02 -12 C 1.13 g/m*3 -12 C 0 km/h
2342 19-12-2009 12:29:02 -11.5 C 1.16 g/m*3 -11.5 C 0 km/h
2343 19-12-2009 12:41:02 -11.7 C 1.12 g/m*3 -11.7 C 0 km/h
2344 19-12-2009 12:53:02 -11.7 C 1.12 g/m*3 -11.7 C 0 km/h
2345 19-12-2009 13:05:02 -11.6 C 1.11 g/m*3 -11.6 C 0 km/h
2346 19-12-2009 13:17:01 -11.6 C 1.11 g/m*3 -11.6 C 0 km/h
2347 19-12-2009 13:29:01 -11.4 C 1.12 g/m*3 -11.4 C 0 km/h
2348 19-12-2009 13:41:02 -11.3 C 1.11 g/m*3 -11.3 C 0 km/h
2349 19-12-2009 13:53:02 -11.1 C 1.13 g/m*3 -11.1 C 0 km/h
2350 19-12-2009 14:05:02 -11.2 C 1.12 g/m*3 -11.2 C 0 km/h
Sensor: Nr:Datum:Temp:Abs-Feuchte:Windchill:Wind:
Aussen-T/F 2351 19-12-2009 14:17:02 -11.2 C 1.12 g/m*3 -11.2 C 0 km/h
2352 19-12-2009 14:29:02 -11.1 C 1.11 g/m*3 -11.1 C 0 km/h
2353 19-12-2009 14:41:02 -11.2 C 1.12 g/m*3 -11.2 C 0 km/h
2354 19-12-2009 14:53:02 -11.2 C 1.12 g/m*3 -11.2 C 0 km/h
2355 19-12-2009 15:05:02 -11.2 C 1.12 g/m*3 -11.2 C 0 km/h
2356 19-12-2009 15:17:02 -11.1 C 1.15 g/m*3 -11.1 C 0 km/h
2357 19-12-2009 15:29:02 -11 C 1.16 g/m*3 -11 C 0 km/h
2358 19-12-2009 15:41:02 -11.2 C 1.14 g/m*3 -11.2 C 0 km/h
2359 19-12-2009 15:53:02 -11.4 C 1.12 g/m*3 -11.4 C 0 km/h
2360 19-12-2009 16:05:02 -11.7 C 1.12 g/m*3 -11.7 C 0 km/h
2361 19-12-2009 16:17:02 -12 C 1.11 g/m*3 -12 C 0 km/h
2362 19-12-2009 16:29:02 -12.1 C 1.1 g/m*3 -12.1 C 0 km/h
2363 19-12-2009 16:41:02 -12.3 C 1.11 g/m*3 -12.3 C 0 km/h
2364 19-12-2009 16:53:02 -12.4 C 1.1 g/m*3 -12.4 C 0 km/h
2365 19-12-2009 17:05:02 -12.4 C 1.1 g/m*3 -12.4 C 0 km/h
2366 19-12-2009 17:17:03 -12.4 C 1.12 g/m*3 -12.4 C 0 km/h
2367 19-12-2009 17:29:03 -12.5 C 1.09 g/m*3 -12.5 C 0 km/h
2368 19-12-2009 17:41:02 -12.7 C 1.07 g/m*3 -12.7 C 0 km/h
2369 19-12-2009 17:53:02 -13 C 1.05 g/m*3 -13 C 0 km/h
2370 19-12-2009 18:05:04 -13.2 C 1.05 g/m*3 -13.2 C 0 km/h
2371 19-12-2009 18:17:02 -13.3 C 1.06 g/m*3 -13.3 C 0 km/h
2372 19-12-2009 18:29:02 -13.4 C 1.05 g/m*3 -13.4 C 0 km/h
2373 19-12-2009 18:41:04 -13.6 C 1.05 g/m*3 -13.6 C 0 km/h
2374 19-12-2009 18:53:05 -13.8 C 1.04 g/m*3 -13.8 C 0 km/h
2375 19-12-2009 19:05:04 -13.5 C 1.1 g/m*3 -13.5 C 0 km/h
Sensor: Nr:Datum:Temp:Abs-Feuchte:Windchill:Wind:
Aussen-T/F 2376 19-12-2009 19:17:03 -13.9 C 1.1 g/m*3 -13.9 C 0 km/h
2377 19-12-2009 19:29:03 -13.9 C 1.1 g/m*3 -13.9 C 0 km/h
2378 19-12-2009 19:41:03 -14.2 C 1.09 g/m*3 -14.2 C 0 km/h
2379 19-12-2009 19:53:02 -14.4 C 1.07 g/m*3 -14.4 C 0 km/h
2380 19-12-2009 20:05:02 -14.6 C 1.07 g/m*3 -14.6 C 0 km/h
2381 19-12-2009 20:17:02 -14.8 C 1.06 g/m*3 -14.8 C 0 km/h
2382 19-12-2009 20:29:02 -14.8 C 1.07 g/m*3 -14.8 C 0 km/h
2383 19-12-2009 20:41:02 -14.9 C 1.07 g/m*3 -14.9 C 0 km/h
2384 19-12-2009 20:53:02 -15 C 1.06 g/m*3 -15 C 0 km/h
2385 19-12-2009 21:05:03 -15.1 C 1.05 g/m*3 -15.1 C 0 km/h
2386 19-12-2009 21:17:02 -15 C 1.06 g/m*3 -15 C 0 km/h
2387 19-12-2009 21:29:02 -15 C 1.06 g/m*3 -15 C 0 km/h
2388 19-12-2009 21:41:02 -15.1 C 1.05 g/m*3 -15.1 C 0 km/h
2389 19-12-2009 21:53:01 -15.3 C 1.03 g/m*3 -15.3 C 0 km/h
2390 19-12-2009 22:05:01 -15.3 C 1.05 g/m*3 -15.3 C 0 km/h
2391 19-12-2009 22:17:02 -15.4 C 1.02 g/m*3 -15.4 C 0 km/h
2392 19-12-2009 22:29:02 -15.5 C 1.02 g/m*3 -15.5 C 0 km/h
2393 19-12-2009 22:41:01 -15.6 C 1.02 g/m*3 -15.6 C 0 km/h
2394 19-12-2009 22:53:03 -15.7 C 1.02 g/m*3 -15.7 C 0 km/h
2395 19-12-2009 23:05:02 -15.8 C 0.99 g/m*3 -15.8 C 0 km/h
2396 19-12-2009 23:17:02 -15.8 C 0.99 g/m*3 -15.8 C 0 km/h
2397 19-12-2009 23:29:02 -15.8 C 0.99 g/m*3 -15.8 C 0 km/h
2398 19-12-2009 23:41:02 -15.9 C 0.98 g/m*3 -15.9 C 0 km/h
2399 19-12-2009 23:53:02 -15.9 C 0.98 g/m*3 -15.9 C 0 km/h
2400 20-12-2009 00:05:01 -16 C 0.98 g/m*3 -16 C 0 km/h
Sensor: Nr:Datum:Temp:Abs-Feuchte:Windchill:Wind:
Aussen-T/F 2401 20-12-2009 00:17:02 -16.1 C 0.97 g/m*3 -16.1 C 0 km/h
2402 20-12-2009 00:29:02 -16.2 C 0.96 g/m*3 -16.2 C 0 km/h
2403 20-12-2009 00:41:01 -16.3 C 0.95 g/m*3 -16.3 C 0 km/h
2404 20-12-2009 00:54:01 -16.2 C 0.98 g/m*3 -16.2 C 0 km/h
2405 20-12-2009 01:06:01 -16.2 C 0.98 g/m*3 -16.2 C 0 km/h
2406 20-12-2009 01:18:01 -16.3 C 0.95 g/m*3 -16.3 C 0 km/h
2407 20-12-2009 01:30:01 -16.4 C 0.95 g/m*3 -16.4 C 0 km/h
2408 20-12-2009 01:42:01 -16.4 C 0.95 g/m*3 -16.4 C 0 km/h
2409 20-12-2009 01:54:01 -16.4 C 0.95 g/m*3 -16.4 C 0 km/h
2410 20-12-2009 02:06:01 -16 C 0.99 g/m*3 -16 C 0 km/h
2411 20-12-2009 02:18:01 -16.1 C 0.98 g/m*3 -16.1 C 0 km/h
2412 20-12-2009 02:30:01 -16.1 C 0.98 g/m*3 -16.1 C 0 km/h
2413 20-12-2009 02:42:01 -16.1 C 0.98 g/m*3 -16.1 C 0 km/h
2414 20-12-2009 02:54:01 -16 C 0.99 g/m*3 -16 C 0 km/h
2415 20-12-2009 03:06:02 -16 C 0.99 g/m*3 -16 C 0 km/h
2416 20-12-2009 03:18:02 -15.9 C 1 g/m*3 -15.9 C 0 km/h
2417 20-12-2009 03:30:02 -15.8 C 1.01 g/m*3 -15.8 C 0 km/h
2418 20-12-2009 03:42:02 -15.4 C 1.06 g/m*3 -15.4 C 0 km/h
2419 20-12-2009 03:54:02 -14.8 C 1.12 g/m*3 -14.8 C 0 km/h
2420 20-12-2009 04:06:02 -14.5 C 1.13 g/m*3 -14.5 C 0 km/h
2421 20-12-2009 04:18:02 -14.7 C 1.1 g/m*3 -14.7 C 0 km/h
2422 20-12-2009 04:30:02 -14.8 C 1.09 g/m*3 -14.8 C 0 km/h
2423 20-12-2009 04:42:02 -14.5 C 1.12 g/m*3 -14.5 C 0 km/h
2424 20-12-2009 04:54:02 -14.3 C 1.13 g/m*3 -14.3 C 0 km/h
2425 20-12-2009 05:06:02 -14.2 C 1.16 g/m*3 -14.2 C 0 km/h
Sensor: Nr:Datum:Temp:Abs-Feuchte:Windchill:Wind:
Aussen-T/F 2426 20-12-2009 05:18:02 -14.1 C 1.17 g/m*3 -14.1 C 0 km/h
2427 20-12-2009 05:30:02 -13.3 C 1.24 g/m*3 -13.3 C 0 km/h
2428 20-12-2009 05:42:02 -12.8 C 1.26 g/m*3 -12.8 C 0 km/h
2429 20-12-2009 05:54:02 -13 C 1.22 g/m*3 -13 C 0 km/h
2430 20-12-2009 06:06:03 -12.8 C 1.22 g/m*3 -12.8 C 0 km/h
2431 20-12-2009 06:18:03 -12.5 C 1.25 g/m*3 -12.5 C 0 km/h
2432 20-12-2009 06:30:03 -12.3 C 1.25 g/m*3 -12.3 C 0 km/h
2433 20-12-2009 06:42:03 -12 C 1.25 g/m*3 -12 C 0 km/h
2434 20-12-2009 06:54:03 -12.5 C 1.19 g/m*3 -12.5 C 0 km/h
2435 20-12-2009 07:06:03 -12.8 C 1.18 g/m*3 -12.8 C 0 km/h
2436 20-12-2009 07:18:03 -12.9 C 1.19 g/m*3 -12.9 C 0 km/h
2437 20-12-2009 07:30:03 -12.7 C 1.23 g/m*3 -12.7 C 0 km/h
2438 20-12-2009 07:42:03 -12.5 C 1.27 g/m*3 -12.5 C 0 km/h
2439 20-12-2009 07:54:03 -12.1 C 1.33 g/m*3 -12.1 C 0 km/h
2440 20-12-2009 08:06:02 -11.6 C 1.38 g/m*3 -11.6 C 0 km/h
2441 20-12-2009 08:18:02 -11.3 C 1.41 g/m*3 -11.3 C 0 km/h
2442 20-12-2009 08:30:02 -11.2 C 1.42 g/m*3 -11.2 C 0 km/h
2443 20-12-2009 08:42:01 -11 C 1.44 g/m*3 -11 C 0 km/h
2444 20-12-2009 08:54:02 -10.8 C 1.46 g/m*3 -10.8 C 0 km/h
2445 20-12-2009 09:06:02 -10.6 C 1.51 g/m*3 -10.6 C 0 km/h
2446 20-12-2009 09:18:02 -10 C 1.55 g/m*3 -10 C 0 km/h
2447 20-12-2009 09:30:02 -9.6 C 1.6 g/m*3 -9.6 C 0 km/h
2448 20-12-2009 09:42:02 -9.1 C 1.59 g/m*3 -9.1 C 0 km/h
2449 20-12-2009 09:54:01 -8.8 C 1.6 g/m*3 -8.8 C 0 km/h
2450 20-12-2009 10:06:01 -8.5 C 1.61 g/m*3 -8.5 C 0 km/h
Sensor: Nr:Datum:Temp:Abs-Feuchte:Windchill:Wind:
Aussen-T/F 2451 20-12-2009 10:18:01 -8.2 C 1.62 g/m*3 -8.2 C 0 km/h
2452 20-12-2009 10:30:01 -8 C 1.64 g/m*3 -8 C 0 km/h
2453 20-12-2009 10:42:01 -7.8 C 1.67 g/m*3 -7.8 C 0 km/h
2454 20-12-2009 10:54:01 -7.4 C 1.69 g/m*3 -7.4 C 0 km/h
2455 20-12-2009 11:06:02 -7.2 C 1.68 g/m*3 -7.2 C 0 km/h
2456 20-12-2009 11:18:01 -7.1 C 1.7 g/m*3 -7.1 C 0 km/h
2457 20-12-2009 11:30:01 -7 C 1.71 g/m*3 -7 C 0 km/h
2458 20-12-2009 11:42:01 -6.7 C 1.81 g/m*3 -6.7 C 0 km/h
2459 20-12-2009 11:54:02 -6.5 C 1.83 g/m*3 -6.5 C 0 km/h
2460 20-12-2009 12:06:02 -6.2 C 1.87 g/m*3 -6.2 C 0 km/h
2461 20-12-2009 12:18:02 -6.1 C 1.92 g/m*3 -6.1 C 0 km/h
2462 20-12-2009 12:30:02 -5.9 C 2.01 g/m*3 -5.9 C 0 km/h
2463 20-12-2009 12:42:02 -6 C 2.06 g/m*3 -6 C 0 km/h
2464 20-12-2009 12:54:02 -5.9 C 2.14 g/m*3 -5.9 C 0 km/h
2465 20-12-2009 13:06:02 -5.8 C 2.25 g/m*3 -5.8 C 0 km/h
2466 20-12-2009 13:18:03 -5.7 C 2.33 g/m*3 -5.7 C 0 km/h
2467 20-12-2009 13:30:03 -5.7 C 2.36 g/m*3 -5.7 C 0 km/h
2468 20-12-2009 13:42:02 -5.6 C 2.41 g/m*3 -5.6 C 0 km/h
2469 20-12-2009 13:54:02 -5.5 C 2.46 g/m*3 -5.5 C 0 km/h
2470 20-12-2009 14:06:02 -5.4 C 2.51 g/m*3 -5.4 C 0 km/h
2471 20-12-2009 14:18:01 -5.3 C 2.57 g/m*3 -5.3 C 0 km/h
2472 20-12-2009 14:30:01 -5.3 C 2.57 g/m*3 -5.3 C 0 km/h
2473 20-12-2009 14:42:01 -5.2 C 2.62 g/m*3 -5.2 C 0 km/h
2474 20-12-2009 14:54:01 -5 C 2.66 g/m*3 -5 C 0 km/h
2475 20-12-2009 15:06:01 -5 C 2.66 g/m*3 -5 C 0 km/h
Sensor: Nr:Datum:Temp:Abs-Feuchte:Windchill:Wind:
Aussen-T/F 2476 20-12-2009 15:18:02 -4.9 C 2.68 g/m*3 -4.9 C 0 km/h
2477 20-12-2009 15:30:02 -4.7 C 2.71 g/m*3 -4.7 C 0 km/h
2478 20-12-2009 15:42:01 -4.4 C 2.74 g/m*3 -4.4 C 0 km/h
2479 20-12-2009 15:54:02 -4.3 C 2.76 g/m*3 -4.3 C 0 km/h
2480 20-12-2009 16:06:02 -4.3 C 2.72 g/m*3 -4.3 C 0 km/h
2481 20-12-2009 16:18:03 -4 C 2.82 g/m*3 -4 C 0 km/h
2482 20-12-2009 16:30:03 -3.8 C 2.86 g/m*3 -3.8 C 0 km/h
2483 20-12-2009 16:42:02 -3.7 C 2.84 g/m*3 -3.7 C 0 km/h
2484 20-12-2009 16:54:03 -3.7 C 2.8 g/m*3 -3.7 C 0 km/h
2485 20-12-2009 17:06:02 -3.5 C 2.84 g/m*3 -3.5 C 0 km/h
2486 20-12-2009 17:18:02 -3.2 C 2.9 g/m*3 -3.2 C 0 km/h
2487 20-12-2009 17:30:02 -3 C 2.95 g/m*3 -3 C 0 km/h
2488 20-12-2009 17:42:02 -2.8 C 2.95 g/m*3 -2.8 C 0 km/h
2489 20-12-2009 17:54:02 -2.8 C 2.95 g/m*3 -2.8 C 0 km/h
2490 20-12-2009 18:06:02 -2.7 C 2.97 g/m*3 -2.7 C 0 km/h
2491 20-12-2009 18:18:02 -2.7 C 2.97 g/m*3 -2.7 C 0 km/h
2492 20-12-2009 18:30:02 -2.7 C 3.01 g/m*3 -2.7 C 0 km/h
2493 20-12-2009 18:42:02 -2.5 C 3.05 g/m*3 -2.5 C 0 km/h
2494 20-12-2009 18:54:02 -2.3 C 3.1 g/m*3 -2.3 C 0 km/h
2495 20-12-2009 19:06:02 -2 C 3.12 g/m*3 -2 C 0 km/h
2496 20-12-2009 19:18:01 -1.8 C 3.12 g/m*3 -1.8 C 0 km/h
2497 20-12-2009 19:30:01 -1.9 C 3.1 g/m*3 -1.9 C 0 km/h
2498 20-12-2009 19:42:02 -2 C 3.08 g/m*3 -2 C 0 km/h
2499 20-12-2009 19:54:02 -1.9 C 3.14 g/m*3 -1.9 C 0 km/h
2500 20-12-2009 20:06:02 -1.7 C 3.14 g/m*3 -1.7 C 0 km/h
Sensor: Nr:Datum:Temp:Abs-Feuchte:Windchill:Wind:
Aussen-T/F 2501 20-12-2009 20:18:01 -1.6 C 3.16 g/m*3 -1.6 C 0 km/h
2502 20-12-2009 20:30:01 -1.7 C 3.14 g/m*3 -1.7 C 0 km/h
2503 20-12-2009 20:42:02 -1.6 C 3.16 g/m*3 -1.6 C 0 km/h
2504 20-12-2009 20:54:02 -1.5 C 3.19 g/m*3 -1.5 C 0 km/h
2505 20-12-2009 21:06:02 -1.5 C 3.14 g/m*3 -1.5 C 0 km/h
2506 20-12-2009 21:18:01 -1.3 C 3.14 g/m*3 -1.3 C 0 km/h
2507 20-12-2009 21:30:01 -1.1 C 3.14 g/m*3 -1.1 C 0 km/h
2508 20-12-2009 21:42:02 -1.1 C 3.05 g/m*3 -1.1 C 0 km/h
2509 20-12-2009 21:54:02 -1.2 C 2.99 g/m*3 -1.2 C 0 km/h
2510 20-12-2009 22:06:02 -1.3 C 2.92 g/m*3 -1.3 C 0 km/h
2511 20-12-2009 22:18:02 -1.8 C 2.78 g/m*3 -1.8 C 0 km/h
2512 20-12-2009 22:30:02 -2 C 2.78 g/m*3 -2 C 0 km/h
2513 20-12-2009 22:42:02 -2.1 C 2.76 g/m*3 -2.1 C 0 km/h
2514 20-12-2009 22:54:02 -2 C 2.87 g/m*3 -2 C 0 km/h
2515 20-12-2009 23:06:01 -2 C 2.87 g/m*3 -2 C 0 km/h
2516 20-12-2009 23:18:01 -2.1 C 2.85 g/m*3 -2.1 C 0 km/h
2517 20-12-2009 23:30:01 -2.3 C 2.85 g/m*3 -2.3 C 0 km/h
2518 20-12-2009 23:42:02 -2.6 C 2.83 g/m*3 -2.6 C 0 km/h
2519 20-12-2009 23:54:02 -2.6 C 2.87 g/m*3 -2.6 C 0 km/h
2520 21-12-2009 00:06:02 -2.7 C 2.85 g/m*3 -2.7 C 0 km/h
2521 21-12-2009 00:18:02 -3.1 C 2.81 g/m*3 -3.1 C 0 km/h
2522 21-12-2009 00:30:02 -3.2 C 2.79 g/m*3 -3.2 C 0 km/h
2523 21-12-2009 00:42:02 -3.2 C 2.79 g/m*3 -3.2 C 0 km/h
2524 21-12-2009 00:54:01 -3.3 C 2.77 g/m*3 -3.3 C 0 km/h
2525 21-12-2009 01:06:02 -3.3 C 2.77 g/m*3 -3.3 C 0 km/h
Sensor: Nr:Datum:Temp:Abs-Feuchte:Windchill:Wind:
Aussen-T/F 2526 21-12-2009 01:18:01 -3.7 C 2.73 g/m*3 -3.7 C 0 km/h
2527 21-12-2009 01:30:01 -3.9 C 2.73 g/m*3 -3.9 C 0 km/h
2528 21-12-2009 01:42:02 -4.1 C 2.72 g/m*3 -4.1 C 0 km/h
2529 21-12-2009 01:54:02 -4.2 C 2.74 g/m*3 -4.2 C 0 km/h
2530 21-12-2009 02:06:02 -4.2 C 2.74 g/m*3 -4.2 C 0 km/h
2531 21-12-2009 02:18:01 -4.4 C 2.7 g/m*3 -4.4 C 0 km/h
2532 21-12-2009 02:30:01 -4.3 C 2.76 g/m*3 -4.3 C 0 km/h
2533 21-12-2009 02:42:02 -4.1 C 2.8 g/m*3 -4.1 C 0 km/h
2534 21-12-2009 02:55:03 -4 C 2.82 g/m*3 -4 C 0 km/h
2535 21-12-2009 03:07:03 -3.8 C 2.86 g/m*3 -3.8 C 0 km/h
2536 21-12-2009 03:19:04 -4 C 2.82 g/m*3 -4 C 0 km/h
2537 21-12-2009 03:31:02 -3.9 C 2.84 g/m*3 -3.9 C 0 km/h
2538 21-12-2009 03:43:02 -4 C 2.82 g/m*3 -4 C 0 km/h
2539 21-12-2009 03:55:02 -4 C 2.82 g/m*3 -4 C 0 km/h
2540 21-12-2009 04:07:02 -4 C 2.85 g/m*3 -4 C 0 km/h
2541 21-12-2009 04:19:02 -4.4 C 2.74 g/m*3 -4.4 C 0 km/h
2542 21-12-2009 04:31:02 -4.8 C 2.66 g/m*3 -4.8 C 0 km/h
2543 21-12-2009 04:43:02 -5.2 C 2.62 g/m*3 -5.2 C 0 km/h
2544 21-12-2009 04:55:02 -5.3 C 2.63 g/m*3 -5.3 C 0 km/h
2545 21-12-2009 05:07:02 -5.3 C 2.67 g/m*3 -5.3 C 0 km/h
2546 21-12-2009 05:19:02 -5.3 C 2.67 g/m*3 -5.3 C 0 km/h
2547 21-12-2009 05:31:02 -5.3 C 2.7 g/m*3 -5.3 C 0 km/h
2548 21-12-2009 05:43:02 -5.1 C 2.77 g/m*3 -5.1 C 0 km/h
2549 21-12-2009 05:55:02 -5.1 C 2.77 g/m*3 -5.1 C 0 km/h
2550 21-12-2009 06:07:02 -4.8 C 2.83 g/m*3 -4.8 C 0 km/h
Sensor: Nr:Datum:Temp:Abs-Feuchte:Windchill:Wind:
Aussen-T/F 2551 21-12-2009 06:19:01 -4.6 C 2.87 g/m*3 -4.6 C 0 km/h
2552 21-12-2009 06:31:02 -4.9 C 2.74 g/m*3 -4.9 C 0 km/h
2553 21-12-2009 06:43:03 -5.1 C 2.7 g/m*3 -5.1 C 0 km/h
2554 21-12-2009 06:55:02 -5 C 2.76 g/m*3 -5 C 0 km/h
2555 21-12-2009 07:07:02 -4.7 C 2.82 g/m*3 -4.7 C 0 km/h
2556 21-12-2009 07:19:01 -4.3 C 2.86 g/m*3 -4.3 C 0 km/h
2557 21-12-2009 07:31:02 -4.2 C 2.81 g/m*3 -4.2 C 0 km/h
2558 21-12-2009 07:43:02 -4.3 C 2.76 g/m*3 -4.3 C 0 km/h
2559 21-12-2009 07:55:01 -4.5 C 2.72 g/m*3 -4.5 C 0 km/h
2560 21-12-2009 08:07:02 -4.8 C 2.63 g/m*3 -4.8 C 0 km/h
2561 21-12-2009 08:19:02 -5.2 C 2.55 g/m*3 -5.2 C 0 km/h
2562 21-12-2009 08:31:01 -5.6 C 2.51 g/m*3 -5.6 C 0 km/h
2563 21-12-2009 08:43:01 -5.7 C 2.49 g/m*3 -5.7 C 0 km/h
2564 21-12-2009 08:55:01 -6 C 2.47 g/m*3 -6 C 0 km/h
2565 21-12-2009 09:07:01 -5.8 C 2.54 g/m*3 -5.8 C 0 km/h
2566 21-12-2009 09:19:02 -5.7 C 2.56 g/m*3 -5.7 C 0 km/h
2567 21-12-2009 09:31:01 -5.7 C 2.56 g/m*3 -5.7 C 0 km/h
2568 21-12-2009 09:43:01 -5.2 C 2.68 g/m*3 -5.2 C 0 km/h
2569 21-12-2009 09:55:02 -5.3 C 2.63 g/m*3 -5.3 C 0 km/h
2570 21-12-2009 10:07:01 -5.1 C 2.67 g/m*3 -5.1 C 0 km/h
2571 21-12-2009 10:19:01 -4.7 C 2.75 g/m*3 -4.7 C 0 km/h
2572 21-12-2009 10:31:01 -4 C 2.89 g/m*3 -4 C 0 km/h
2573 21-12-2009 10:43:01 -3.3 C 2.88 g/m*3 -3.3 C 0 km/h
2574 21-12-2009 10:55:02 -2.8 C 2.91 g/m*3 -2.8 C 0 km/h
2575 21-12-2009 11:07:02 -2.6 C 2.83 g/m*3 -2.6 C 0 km/h
Sensor: Nr:Datum:Temp:Abs-Feuchte:Windchill:Wind:
Aussen-T/F 2576 21-12-2009 11:19:02 -2.6 C 2.83 g/m*3 -2.6 C 0 km/h
2577 21-12-2009 11:31:02 -2.4 C 2.87 g/m*3 -2.4 C 0 km/h
2578 21-12-2009 11:43:02 -2.2 C 2.91 g/m*3 -2.2 C 0 km/h
2579 21-12-2009 11:55:02 -2.1 C 2.93 g/m*3 -2.1 C 0 km/h
2580 21-12-2009 12:07:01 -1.7 C 2.97 g/m*3 -1.7 C 0 km/h
2581 21-12-2009 12:19:01 -1.1 C 3.05 g/m*3 -1.1 C 0 km/h
2582 21-12-2009 12:31:02 -0.9 C 3.1 g/m*3 -0.9 C 0 km/h
2583 21-12-2009 12:43:02 -0.8 C 3.07 g/m*3 -0.8 C 0 km/h
2584 21-12-2009 12:55:02 -0.8 C 3.16 g/m*3 -0.8 C 0 km/h
2585 21-12-2009 13:07:01 -0.8 C 3.21 g/m*3 -0.8 C 0 km/h
2586 21-12-2009 13:19:02 -0.7 C 3.32 g/m*3 -0.7 C 0 km/h
2587 21-12-2009 13:31:02 -0.6 C 3.35 g/m*3 -0.6 C 0 km/h
2588 21-12-2009 13:43:02 -0.4 C 3.39 g/m*3 -0.4 C 0 km/h
2589 21-12-2009 13:55:02 -0.4 C 3.39 g/m*3 -0.4 C 0 km/h
2590 21-12-2009 14:07:02 -0.4 C 3.39 g/m*3 -0.4 C 0 km/h
2591 21-12-2009 14:19:02 -0.3 C 3.42 g/m*3 -0.3 C 0 km/h
2592 21-12-2009 14:31:02 -0.2 C 3.49 g/m*3 -0.2 C 0 km/h
2593 21-12-2009 14:43:02 -0.1 C 3.51 g/m*3 -0.1 C 0 km/h
2594 21-12-2009 14:55:01 0.1 C 3.56 g/m*3 0.1 C 0 km/h
2595 21-12-2009 15:07:02 -0.1 C 3.56 g/m*3 -0.1 C 0 km/h
2596 21-12-2009 15:19:01 -0.2 C 3.58 g/m*3 -0.2 C 0 km/h
2597 21-12-2009 15:31:01 -0.2 C 3.63 g/m*3 -0.2 C 0 km/h
2598 21-12-2009 15:43:01 -0.2 C 3.63 g/m*3 -0.2 C 0 km/h
2599 21-12-2009 15:55:01 -0.3 C 3.65 g/m*3 -0.3 C 0 km/h
2600 21-12-2009 16:07:02 -0.3 C 3.65 g/m*3 -0.3 C 0 km/h
Sensor: Nr:Datum:Temp:Abs-Feuchte:Windchill:Wind:
Aussen-T/F 2601 21-12-2009 16:19:01 -0.5 C 3.65 g/m*3 -0.5 C 0 km/h
2602 21-12-2009 16:31:01 -0.7 C 3.6 g/m*3 -0.7 C 0 km/h
2603 21-12-2009 16:43:01 -0.8 C 3.62 g/m*3 -0.8 C 0 km/h
2604 21-12-2009 16:55:01 -0.9 C 3.64 g/m*3 -0.9 C 0 km/h
2605 21-12-2009 17:07:02 -0.8 C 3.67 g/m*3 -0.8 C 0 km/h
2606 21-12-2009 17:19:02 -0.9 C 3.69 g/m*3 -0.9 C 0 km/h
2607 21-12-2009 17:31:01 -1 C 3.71 g/m*3 -1 C 0 km/h
2608 21-12-2009 17:43:01 -0.9 C 3.73 g/m*3 -0.9 C 0 km/h
2609 21-12-2009 17:55:01 -0.7 C 3.83 g/m*3 -0.7 C 0 km/h
2610 21-12-2009 18:07:02 -0.7 C 3.83 g/m*3 -0.7 C 0 km/h
2611 21-12-2009 18:19:02 -0.6 C 3.86 g/m*3 -0.6 C 0 km/h
2612 21-12-2009 18:31:01 -0.5 C 3.88 g/m*3 -0.5 C 0 km/h
2613 21-12-2009 18:43:01 -0.2 C 3.97 g/m*3 -0.2 C 0 km/h
2614 21-12-2009 18:55:02 0 C 3.97 g/m*3 0 C 0 km/h
2615 21-12-2009 19:07:01 0.2 C 3.98 g/m*3 0.2 C 0 km/h
2616 21-12-2009 19:19:02 0.3 C 3.96 g/m*3 0.3 C 0 km/h
2617 21-12-2009 19:31:01 0.5 C 4.01 g/m*3 0.5 C 0 km/h
2618 21-12-2009 19:43:01 0.5 C 4.01 g/m*3 0.5 C 0 km/h
2619 21-12-2009 19:55:02 0.5 C 4.01 g/m*3 0.5 C 0 km/h
2620 21-12-2009 20:07:02 0.5 C 4.01 g/m*3 0.5 C 0 km/h
2621 21-12-2009 20:19:02 0.6 C 4.09 g/m*3 0.6 C 0 km/h
2622 21-12-2009 20:31:03 0.5 C 4.06 g/m*3 0.5 C 0 km/h
2623 21-12-2009 20:43:03 0.6 C 4.19 g/m*3 0.6 C 0 km/h
2624 21-12-2009 20:55:02 0.7 C 4.27 g/m*3 0.7 C 0 km/h
2625 21-12-2009 21:07:01 0.7 C 4.32 g/m*3 0.7 C 0 km/h
Sensor: Nr:Datum:Temp:Abs-Feuchte:Windchill:Wind:
Aussen-T/F 2626 21-12-2009 21:19:02 1 C 4.41 g/m*3 1 C 0 km/h
2627 21-12-2009 21:31:02 0.8 C 4.35 g/m*3 0.8 C 0 km/h
2628 21-12-2009 21:43:02 0.7 C 4.37 g/m*3 0.7 C 0 km/h
2629 21-12-2009 21:55:02 0.7 C 4.42 g/m*3 0.7 C 0 km/h
2630 21-12-2009 22:08:02 0.6 C 4.44 g/m*3 0.6 C 0 km/h
2631 21-12-2009 22:20:02 0.7 C 4.47 g/m*3 0.7 C 0 km/h
2632 21-12-2009 22:32:02 0.6 C 4.49 g/m*3 0.6 C 0 km/h
2633 21-12-2009 22:44:02 0.7 C 4.53 g/m*3 0.7 C 0 km/h
2634 21-12-2009 22:56:02 0.8 C 4.56 g/m*3 0.8 C 0 km/h
2635 21-12-2009 23:08:02 0.6 C 4.49 g/m*3 0.6 C 0 km/h
2636 21-12-2009 23:20:02 0.7 C 4.53 g/m*3 0.7 C 0 km/h
2637 21-12-2009 23:32:02 0.8 C 4.56 g/m*3 0.8 C 0 km/h
2638 21-12-2009 23:44:02 0.8 C 4.56 g/m*3 0.8 C 0 km/h
2639 21-12-2009 23:56:02 0.8 C 4.56 g/m*3 0.8 C 0 km/h
2640 22-12-2009 00:08:02 0.8 C 4.56 g/m*3 0.8 C 0 km/h
2641 22-12-2009 00:20:02 0.9 C 4.54 g/m*3 0.9 C 0 km/h
2642 22-12-2009 00:32:02 1 C 4.52 g/m*3 1 C 0 km/h
2643 22-12-2009 00:44:02 1.1 C 4.55 g/m*3 1.1 C 0 km/h
2644 22-12-2009 00:56:02 1 C 4.52 g/m*3 1 C 0 km/h
2645 22-12-2009 01:08:02 1 C 4.52 g/m*3 1 C 0 km/h
2646 22-12-2009 01:20:02 1 C 4.52 g/m*3 1 C 0 km/h
2647 22-12-2009 01:32:02 1 C 4.52 g/m*3 1 C 0 km/h
2648 22-12-2009 01:44:02 1 C 4.57 g/m*3 1 C 0 km/h
2649 22-12-2009 01:56:02 1.1 C 4.6 g/m*3 1.1 C 0 km/h
2650 22-12-2009 02:08:02 1.2 C 4.63 g/m*3 1.2 C 0 km/h
Sensor: Nr:Datum:Temp:Abs-Feuchte:Windchill:Wind:
Aussen-T/F 2651 22-12-2009 02:20:03 1.1 C 4.6 g/m*3 1.1 C 0 km/h
2652 22-12-2009 02:32:03 1.2 C 4.63 g/m*3 1.2 C 0 km/h
2653 22-12-2009 02:44:03 1.2 C 4.63 g/m*3 1.2 C 0 km/h
2654 22-12-2009 02:56:03 1 C 4.57 g/m*3 1 C 0 km/h
2655 22-12-2009 03:08:03 0.9 C 4.59 g/m*3 0.9 C 0 km/h
2656 22-12-2009 03:20:03 1.1 C 4.65 g/m*3 1.1 C 0 km/h
2657 22-12-2009 03:32:03 1.1 C 4.65 g/m*3 1.1 C 0 km/h
2658 22-12-2009 03:44:03 0.9 C 4.64 g/m*3 0.9 C 0 km/h
2659 22-12-2009 03:56:03 1.1 C 4.7 g/m*3 1.1 C 0 km/h
2660 22-12-2009 04:08:03 1.2 C 4.79 g/m*3 1.2 C 0 km/h
2661 22-12-2009 04:20:03 1.3 C 4.82 g/m*3 1.3 C 0 km/h
2662 22-12-2009 04:32:03 1.6 C 4.92 g/m*3 1.6 C 0 km/h
2663 22-12-2009 04:44:03 1.5 C 4.89 g/m*3 1.5 C 0 km/h
2664 22-12-2009 04:56:03 1.5 C 4.89 g/m*3 1.5 C 0 km/h
2665 22-12-2009 05:08:03 1.7 C 4.95 g/m*3 1.7 C 0 km/h
2666 22-12-2009 05:20:03 1.6 C 4.92 g/m*3 1.6 C 0 km/h
2667 22-12-2009 05:32:03 1.6 C 4.97 g/m*3 1.6 C 0 km/h
2668 22-12-2009 05:44:03 1.6 C 4.97 g/m*3 1.6 C 0 km/h
2669 22-12-2009 05:56:03 1.8 C 5.04 g/m*3 1.8 C 0 km/h
2670 22-12-2009 06:08:03 1.8 C 5.1 g/m*3 1.8 C 0 km/h
2671 22-12-2009 06:20:03 2 C 5.17 g/m*3 2 C 0 km/h
2672 22-12-2009 06:32:04 2.3 C 5.27 g/m*3 2.3 C 0 km/h
2673 22-12-2009 06:44:04 2.5 C 5.4 g/m*3 2.5 C 0 km/h
2674 22-12-2009 06:56:04 2.5 C 5.4 g/m*3 2.5 C 0 km/h
2675 22-12-2009 07:08:02 2.5 C 5.4 g/m*3 2.5 C 0 km/h
Sensor: Nr:Datum:Temp:Abs-Feuchte:Windchill:Wind:
Aussen-T/F 2676 22-12-2009 07:20:02 2.6 C 5.44 g/m*3 2.6 C 0 km/h
2677 22-12-2009 07:32:01 2.8 C 5.57 g/m*3 2.8 C 0 km/h
2678 22-12-2009 07:44:01 2.8 C 5.57 g/m*3 2.8 C 0 km/h
2679 22-12-2009 07:56:02 2.7 C 5.54 g/m*3 2.7 C 0 km/h
2680 22-12-2009 08:08:01 2.7 C 5.54 g/m*3 2.7 C 0 km/h
2681 22-12-2009 08:20:02 3 C 5.65 g/m*3 3 C 0 km/h
2682 22-12-2009 08:32:02 3 C 5.65 g/m*3 3 C 0 km/h
2683 22-12-2009 08:44:02 3.1 C 5.69 g/m*3 3.1 C 0 km/h
2684 22-12-2009 08:56:02 3 C 5.65 g/m*3 3 C 0 km/h
2685 22-12-2009 09:08:02 3 C 5.65 g/m*3 3 C 0 km/h
2686 22-12-2009 09:20:02 3.3 C 5.76 g/m*3 3.3 C 0 km/h
2687 22-12-2009 09:32:02 3.4 C 5.8 g/m*3 3.4 C 0 km/h
2688 22-12-2009 09:44:02 3.4 C 5.8 g/m*3 3.4 C 0 km/h
2689 22-12-2009 09:56:01 3.4 C 5.8 g/m*3 3.4 C 0 km/h
2690 22-12-2009 10:08:02 3.5 C 5.84 g/m*3 3.5 C 0 km/h
2691 22-12-2009 10:20:01 3.5 C 5.84 g/m*3 3.5 C 0 km/h
2692 22-12-2009 10:32:02 3.5 C 5.84 g/m*3 3.5 C 0 km/h
2693 22-12-2009 10:44:02 3.6 C 5.88 g/m*3 3.6 C 0 km/h
2694 22-12-2009 10:56:02 3.7 C 5.92 g/m*3 3.7 C 0 km/h
2695 22-12-2009 11:08:02 3.8 C 5.96 g/m*3 3.8 C 0 km/h
2696 22-12-2009 11:20:01 3.9 C 6 g/m*3 3.9 C 0 km/h
2697 22-12-2009 11:32:02 3.8 C 5.96 g/m*3 3.8 C 0 km/h
2698 22-12-2009 11:44:02 4 C 6.04 g/m*3 4 C 0 km/h
2699 22-12-2009 11:56:02 4.3 C 6.16 g/m*3 4.3 C 0 km/h
2700 22-12-2009 12:08:02 5 C 6.46 g/m*3 5 C 0 km/h
Sensor: Nr:Datum:Temp:Abs-Feuchte:Windchill:Wind:
Aussen-T/F 2701 22-12-2009 12:20:01 5.6 C 6.72 g/m*3 5.6 C 0 km/h
2702 22-12-2009 12:32:02 6 C 6.9 g/m*3 6 C 0 km/h
2703 22-12-2009 12:44:02 6 C 6.9 g/m*3 6 C 0 km/h
2704 22-12-2009 12:56:02 6 C 6.68 g/m*3 6 C 0 km/h
2705 22-12-2009 13:08:02 6 C 6.46 g/m*3 6 C 0 km/h
2706 22-12-2009 13:20:02 6.2 C 6.25 g/m*3 6.2 C 0 km/h
2707 22-12-2009 13:32:02 6.3 C 6.07 g/m*3 6.3 C 0 km/h
2708 22-12-2009 13:44:02 6.1 C 5.77 g/m*3 6.1 C 0 km/h
2709 22-12-2009 13:56:01 5.9 C 5.7 g/m*3 5.9 C 0 km/h
2710 22-12-2009 14:08:02 6 C 5.52 g/m*3 6 C 0 km/h
2711 22-12-2009 14:20:02 5.9 C 5.34 g/m*3 5.9 C 0 km/h
2712 22-12-2009 14:32:02 5.7 C 5.05 g/m*3 5.7 C 0 km/h
2713 22-12-2009 14:44:02 5.6 C 4.95 g/m*3 5.6 C 0 km/h
2714 22-12-2009 14:56:02 5.5 C 4.92 g/m*3 5.5 C 0 km/h
2715 22-12-2009 15:08:02 5.1 C 4.86 g/m*3 5.1 C 0 km/h
2716 22-12-2009 15:20:02 5 C 4.76 g/m*3 5 C 0 km/h
2717 22-12-2009 15:32:01 4.6 C 4.7 g/m*3 4.6 C 0 km/h
2718 22-12-2009 15:44:01 4.4 C 4.7 g/m*3 4.4 C 0 km/h
2719 22-12-2009 15:56:02 4.2 C 4.64 g/m*3 4.2 C 0 km/h
2720 22-12-2009 16:08:01 3.9 C 4.61 g/m*3 3.9 C 0 km/h
2721 22-12-2009 16:20:01 3.5 C 4.55 g/m*3 3.5 C 0 km/h
2722 22-12-2009 16:32:02 3.4 C 4.64 g/m*3 3.4 C 0 km/h
2723 22-12-2009 16:44:02 3.6 C 4.64 g/m*3 3.6 C 0 km/h
2724 22-12-2009 16:56:02 3.4 C 4.64 g/m*3 3.4 C 0 km/h
2725 22-12-2009 17:08:02 3.4 C 4.64 g/m*3 3.4 C 0 km/h
Sensor: Nr:Datum:Temp:Abs-Feuchte:Windchill:Wind:
Aussen-T/F 2726 22-12-2009 17:20:02 3.5 C 4.55 g/m*3 3.5 C 0 km/h
2727 22-12-2009 17:32:02 3.5 C 4.49 g/m*3 3.5 C 0 km/h
2728 22-12-2009 17:44:02 3.4 C 4.46 g/m*3 3.4 C 0 km/h
2729 22-12-2009 17:56:02 3.2 C 4.4 g/m*3 3.2 C 0 km/h
2730 22-12-2009 18:08:02 3 C 4.46 g/m*3 3 C 0 km/h
2731 22-12-2009 18:20:01 2.8 C 4.52 g/m*3 2.8 C 0 km/h
2732 22-12-2009 18:32:02 2.8 C 4.58 g/m*3 2.8 C 0 km/h
2733 22-12-2009 18:44:02 2.7 C 4.54 g/m*3 2.7 C 0 km/h
2734 22-12-2009 18:56:02 2.7 C 4.6 g/m*3 2.7 C 0 km/h
2735 22-12-2009 19:08:02 2.6 C 4.57 g/m*3 2.6 C 0 km/h
2736 22-12-2009 19:20:02 2.5 C 4.54 g/m*3 2.5 C 0 km/h
2737 22-12-2009 19:32:02 2.6 C 4.63 g/m*3 2.6 C 0 km/h
2738 22-12-2009 19:44:03 2.4 C 4.62 g/m*3 2.4 C 0 km/h
2739 22-12-2009 19:56:02 2.2 C 4.62 g/m*3 2.2 C 0 km/h
2740 22-12-2009 20:08:02 2.2 C 4.73 g/m*3 2.2 C 0 km/h
2741 22-12-2009 20:20:02 2.1 C 4.81 g/m*3 2.1 C 0 km/h
2742 22-12-2009 20:32:02 2.1 C 4.87 g/m*3 2.1 C 0 km/h
2743 22-12-2009 20:44:02 2 C 4.83 g/m*3 2 C 0 km/h
2744 22-12-2009 20:56:01 1.9 C 4.91 g/m*3 1.9 C 0 km/h
2745 22-12-2009 21:08:01 1.7 C 4.85 g/m*3 1.7 C 0 km/h
2746 22-12-2009 21:20:01 1.6 C 4.87 g/m*3 1.6 C 0 km/h
2747 22-12-2009 21:32:01 1.5 C 4.89 g/m*3 1.5 C 0 km/h
2748 22-12-2009 21:44:01 1.4 C 4.85 g/m*3 1.4 C 0 km/h
2749 22-12-2009 21:56:01 1.3 C 4.82 g/m*3 1.3 C 0 km/h
2750 22-12-2009 22:08:01 1 C 4.72 g/m*3 1 C 0 km/h
Sensor: Nr:Datum:Temp:Abs-Feuchte:Windchill:Wind:
Aussen-T/F 2751 22-12-2009 22:21:02 0.8 C 4.71 g/m*3 0.8 C 0 km/h
2752 22-12-2009 22:33:02 0.8 C 4.76 g/m*3 0.8 C 0 km/h
2753 22-12-2009 22:45:02 0.8 C 4.76 g/m*3 0.8 C 0 km/h
2754 22-12-2009 22:57:02 0.8 C 4.76 g/m*3 0.8 C 0 km/h
2755 22-12-2009 23:09:02 0.7 C 4.73 g/m*3 0.7 C 0 km/h
2756 22-12-2009 23:21:02 0.5 C 4.66 g/m*3 0.5 C 0 km/h
2757 22-12-2009 23:33:02 0.4 C 4.63 g/m*3 0.4 C 0 km/h
2758 22-12-2009 23:45:02 0.4 C 4.63 g/m*3 0.4 C 0 km/h
2759 22-12-2009 23:57:02 0.4 C 4.63 g/m*3 0.4 C 0 km/h
2760 23-12-2009 00:09:02 0.4 C 4.68 g/m*3 0.4 C 0 km/h
2761 23-12-2009 00:21:02 0.4 C 4.68 g/m*3 0.4 C 0 km/h
2762 23-12-2009 00:33:02 0.5 C 4.71 g/m*3 0.5 C 0 km/h
2763 23-12-2009 00:45:02 0.5 C 4.71 g/m*3 0.5 C 0 km/h
2764 23-12-2009 00:57:03 0.6 C 4.8 g/m*3 0.6 C 0 km/h
2765 23-12-2009 01:09:03 0.5 C 4.76 g/m*3 0.5 C 0 km/h
2766 23-12-2009 01:21:03 0.5 C 4.76 g/m*3 0.5 C 0 km/h
2767 23-12-2009 01:33:03 0.6 C 4.8 g/m*3 0.6 C 0 km/h
2768 23-12-2009 01:45:03 0.6 C 4.8 g/m*3 0.6 C 0 km/h
2769 23-12-2009 01:57:03 0.6 C 4.8 g/m*3 0.6 C 0 km/h
2770 23-12-2009 02:09:03 0.6 C 4.8 g/m*3 0.6 C 0 km/h
2771 23-12-2009 02:21:03 0.6 C 4.8 g/m*3 0.6 C 0 km/h
2772 23-12-2009 02:33:03 0.6 C 4.8 g/m*3 0.6 C 0 km/h
2773 23-12-2009 02:45:03 0.7 C 4.83 g/m*3 0.7 C 0 km/h
2774 23-12-2009 02:57:03 0.6 C 4.8 g/m*3 0.6 C 0 km/h
2775 23-12-2009 03:09:03 0.6 C 4.8 g/m*3 0.6 C 0 km/h
Sensor: Nr:Datum:Temp:Abs-Feuchte:Windchill:Wind:
Aussen-T/F 2776 23-12-2009 03:21:03 0.5 C 4.76 g/m*3 0.5 C 0 km/h
2777 23-12-2009 03:33:03 0.4 C 4.73 g/m*3 0.4 C 0 km/h
2778 23-12-2009 03:45:03 0.4 C 4.73 g/m*3 0.4 C 0 km/h
2779 23-12-2009 03:57:03 0.3 C 4.7 g/m*3 0.3 C 0 km/h
2780 23-12-2009 04:09:03 0.3 C 4.7 g/m*3 0.3 C 0 km/h
2781 23-12-2009 04:21:03 0.3 C 4.7 g/m*3 0.3 C 0 km/h
2782 23-12-2009 04:33:03 0.3 C 4.7 g/m*3 0.3 C 0 km/h
2783 23-12-2009 04:45:03 0.4 C 4.73 g/m*3 0.4 C 0 km/h
2784 23-12-2009 04:57:04 0.2 C 4.67 g/m*3 0.2 C 0 km/h
2785 23-12-2009 05:09:04 0.3 C 4.7 g/m*3 0.3 C 0 km/h
2786 23-12-2009 05:21:04 0.3 C 4.7 g/m*3 0.3 C 0 km/h
2787 23-12-2009 05:33:04 0.3 C 4.7 g/m*3 0.3 C 0 km/h
2788 23-12-2009 05:45:04 0.3 C 4.7 g/m*3 0.3 C 0 km/h
2789 23-12-2009 05:57:04 0.3 C 4.7 g/m*3 0.3 C 0 km/h
2790 23-12-2009 06:09:04 0.1 C 4.63 g/m*3 0.1 C 0 km/h
2791 23-12-2009 06:21:04 0.1 C 4.63 g/m*3 0.1 C 0 km/h
2792 23-12-2009 06:33:03 0.2 C 4.67 g/m*3 0.2 C 0 km/h
2793 23-12-2009 06:45:02 0.3 C 4.7 g/m*3 0.3 C 0 km/h
2794 23-12-2009 06:57:02 0.3 C 4.7 g/m*3 0.3 C 0 km/h
2795 23-12-2009 07:09:02 0.3 C 4.7 g/m*3 0.3 C 0 km/h
2796 23-12-2009 07:21:02 0.1 C 4.63 g/m*3 0.1 C 0 km/h
2797 23-12-2009 07:33:02 -0.2 C 4.54 g/m*3 -0.2 C 0 km/h
2798 23-12-2009 07:45:02 -0.4 C 4.48 g/m*3 -0.4 C 0 km/h
2799 23-12-2009 07:57:02 -0.6 C 4.42 g/m*3 -0.6 C 0 km/h
2800 23-12-2009 08:09:02 -1 C 4.29 g/m*3 -1 C 0 km/h
Sensor: Nr:Datum:Temp:Abs-Feuchte:Windchill:Wind:
Aussen-T/F 2801 23-12-2009 08:21:02 -1.2 C 4.24 g/m*3 -1.2 C 0 km/h
2802 23-12-2009 08:33:02 -1.4 C 4.18 g/m*3 -1.4 C 0 km/h
2803 23-12-2009 08:45:01 -1.4 C 4.18 g/m*3 -1.4 C 0 km/h
2804 23-12-2009 08:57:01 -1.4 C 4.18 g/m*3 -1.4 C 0 km/h
2805 23-12-2009 09:09:01 -1.4 C 4.18 g/m*3 -1.4 C 0 km/h
2806 23-12-2009 09:21:01 -1.2 C 4.24 g/m*3 -1.2 C 0 km/h
2807 23-12-2009 09:33:01 -1 C 4.29 g/m*3 -1 C 0 km/h
2808 23-12-2009 09:45:01 -0.5 C 4.45 g/m*3 -0.5 C 0 km/h
2809 23-12-2009 09:57:01 -0.3 C 4.51 g/m*3 -0.3 C 0 km/h
2810 23-12-2009 10:09:01 0.1 C 4.63 g/m*3 0.1 C 0 km/h
2811 23-12-2009 10:21:02 0.2 C 4.67 g/m*3 0.2 C 0 km/h
2812 23-12-2009 10:33:01 0.2 C 4.67 g/m*3 0.2 C 0 km/h
2813 23-12-2009 10:45:02 0.5 C 4.76 g/m*3 0.5 C 0 km/h
2814 23-12-2009 10:57:02 0.8 C 4.86 g/m*3 0.8 C 0 km/h
2815 23-12-2009 11:09:02 0.8 C 4.81 g/m*3 0.8 C 0 km/h
2816 23-12-2009 11:21:03 0.9 C 4.74 g/m*3 0.9 C 0 km/h
2817 23-12-2009 11:33:02 0.9 C 4.69 g/m*3 0.9 C 0 km/h
2818 23-12-2009 11:45:02 0.5 C 4.46 g/m*3 0.5 C 0 km/h
2819 23-12-2009 11:57:02 0.4 C 4.43 g/m*3 0.4 C 0 km/h
2820 23-12-2009 12:09:02 0.4 C 4.43 g/m*3 0.4 C 0 km/h
2821 23-12-2009 12:21:02 0.9 C 4.64 g/m*3 0.9 C 0 km/h
2822 23-12-2009 12:33:02 1 C 4.62 g/m*3 1 C 0 km/h
2823 23-12-2009 12:45:02 1 C 4.62 g/m*3 1 C 0 km/h
2824 23-12-2009 12:57:02 1.1 C 4.65 g/m*3 1.1 C 0 km/h
2825 23-12-2009 13:09:01 1.5 C 4.78 g/m*3 1.5 C 0 km/h
Sensor: Nr:Datum:Temp:Abs-Feuchte:Windchill:Wind:
Aussen-T/F 2826 23-12-2009 13:21:02 2 C 4.89 g/m*3 2 C 0 km/h
2827 23-12-2009 13:33:02 2.3 C 4.93 g/m*3 2.3 C 0 km/h
2828 23-12-2009 13:45:02 2.5 C 5 g/m*3 2.5 C 0 km/h
2829 23-12-2009 13:57:03 2.4 C 4.97 g/m*3 2.4 C 0 km/h
2830 23-12-2009 14:09:02 1.6 C 4.65 g/m*3 1.6 C 0 km/h
2831 23-12-2009 14:21:02 2 C 4.83 g/m*3 2 C 0 km/h
2832 23-12-2009 14:33:02 2.3 C 4.93 g/m*3 2.3 C 0 km/h
2833 23-12-2009 14:45:02 2.3 C 4.93 g/m*3 2.3 C 0 km/h
2834 23-12-2009 14:57:02 1.8 C 4.77 g/m*3 1.8 C 0 km/h
2835 23-12-2009 15:09:02 1.6 C 4.76 g/m*3 1.6 C 0 km/h
2836 23-12-2009 15:21:01 1.3 C 4.66 g/m*3 1.3 C 0 km/h
2837 23-12-2009 15:33:02 1.2 C 4.63 g/m*3 1.2 C 0 km/h
2838 23-12-2009 15:45:02 1 C 4.62 g/m*3 1 C 0 km/h
2839 23-12-2009 15:57:02 1.1 C 4.65 g/m*3 1.1 C 0 km/h
2840 23-12-2009 16:09:02 0.8 C 4.61 g/m*3 0.8 C 0 km/h
2841 23-12-2009 16:21:02 0.5 C 4.51 g/m*3 0.5 C 0 km/h
2842 23-12-2009 16:33:02 0.4 C 4.48 g/m*3 0.4 C 0 km/h
2843 23-12-2009 16:45:02 0.2 C 4.47 g/m*3 0.2 C 0 km/h
2844 23-12-2009 16:57:02 0 C 4.41 g/m*3 0 C 0 km/h
2845 23-12-2009 17:09:01 -0.2 C 4.4 g/m*3 -0.2 C 0 km/h
2846 23-12-2009 17:21:02 -0.3 C 4.37 g/m*3 -0.3 C 0 km/h
2847 23-12-2009 17:33:01 -0.3 C 4.41 g/m*3 -0.3 C 0 km/h
2848 23-12-2009 17:45:01 -0.5 C 4.35 g/m*3 -0.5 C 0 km/h
2849 23-12-2009 17:57:01 -0.5 C 4.35 g/m*3 -0.5 C 0 km/h
2850 23-12-2009 18:09:02 -0.5 C 4.35 g/m*3 -0.5 C 0 km/h
Sensor: Nr:Datum:Temp:Abs-Feuchte:Windchill:Wind:
Aussen-T/F 2851 23-12-2009 18:21:01 -0.6 C 4.32 g/m*3 -0.6 C 0 km/h
2852 23-12-2009 18:33:02 -0.7 C 4.34 g/m*3 -0.7 C 0 km/h
2853 23-12-2009 18:45:02 -0.7 C 4.34 g/m*3 -0.7 C 0 km/h
2854 23-12-2009 18:57:02 -0.3 C 4.46 g/m*3 -0.3 C 0 km/h
2855 23-12-2009 19:09:02 0 C 4.6 g/m*3 0 C 0 km/h
2856 23-12-2009 19:21:02 0.2 C 4.67 g/m*3 0.2 C 0 km/h
2857 23-12-2009 19:33:02 0.2 C 4.67 g/m*3 0.2 C 0 km/h
2858 23-12-2009 19:45:02 0.3 C 4.7 g/m*3 0.3 C 0 km/h
2859 23-12-2009 19:57:02 0.3 C 4.7 g/m*3 0.3 C 0 km/h
2860 23-12-2009 20:09:02 0.5 C 4.76 g/m*3 0.5 C 0 km/h
2861 23-12-2009 20:21:02 0.6 C 4.8 g/m*3 0.6 C 0 km/h
2862 23-12-2009 20:33:02 0.7 C 4.83 g/m*3 0.7 C 0 km/h
2863 23-12-2009 20:45:01 0.8 C 4.86 g/m*3 0.8 C 0 km/h
2864 23-12-2009 20:57:01 1 C 4.93 g/m*3 1 C 0 km/h
2865 23-12-2009 21:09:01 1 C 4.93 g/m*3 1 C 0 km/h
2866 23-12-2009 21:21:01 1.1 C 4.96 g/m*3 1.1 C 0 km/h
2867 23-12-2009 21:33:01 1.2 C 5 g/m*3 1.2 C 0 km/h
2868 23-12-2009 21:45:01 1.2 C 5 g/m*3 1.2 C 0 km/h
2869 23-12-2009 21:57:01 1.3 C 5.03 g/m*3 1.3 C 0 km/h
2870 23-12-2009 22:09:01 1.3 C 5.03 g/m*3 1.3 C 0 km/h
2871 23-12-2009 22:21:02 1.3 C 5.03 g/m*3 1.3 C 0 km/h
2872 23-12-2009 22:33:01 1.3 C 5.03 g/m*3 1.3 C 0 km/h
2873 23-12-2009 22:45:02 1.2 C 5 g/m*3 1.2 C 0 km/h
2874 23-12-2009 22:57:02 1.1 C 4.96 g/m*3 1.1 C 0 km/h
2875 23-12-2009 23:09:02 1.1 C 4.96 g/m*3 1.1 C 0 km/h
Sensor: Nr:Datum:Temp:Abs-Feuchte:Windchill:Wind:
Aussen-T/F 2876 23-12-2009 23:21:02 1.1 C 4.96 g/m*3 1.1 C 0 km/h
2877 23-12-2009 23:33:02 1.2 C 5 g/m*3 1.2 C 0 km/h
2878 23-12-2009 23:45:02 1.2 C 5 g/m*3 1.2 C 0 km/h
2879 23-12-2009 23:57:02 1.2 C 5 g/m*3 1.2 C 0 km/h
2880 24-12-2009 00:09:01 1.2 C 5 g/m*3 1.2 C 0 km/h
2881 24-12-2009 00:21:02 1.2 C 5 g/m*3 1.2 C 0 km/h
2882 24-12-2009 00:34:03 1.1 C 4.96 g/m*3 1.1 C 0 km/h
2883 24-12-2009 00:46:03 1.2 C 5 g/m*3 1.2 C 0 km/h
2884 24-12-2009 00:58:03 1.2 C 5 g/m*3 1.2 C 0 km/h
2885 24-12-2009 01:10:03 1.1 C 4.91 g/m*3 1.1 C 0 km/h
2886 24-12-2009 01:22:03 1.1 C 4.91 g/m*3 1.1 C 0 km/h
2887 24-12-2009 01:34:04 1.2 C 4.95 g/m*3 1.2 C 0 km/h
2888 24-12-2009 01:46:04 1.2 C 4.95 g/m*3 1.2 C 0 km/h
2889 24-12-2009 01:58:04 1.1 C 4.91 g/m*3 1.1 C 0 km/h
2890 24-12-2009 02:10:04 1 C 4.88 g/m*3 1 C 0 km/h
2891 24-12-2009 02:22:04 0.9 C 4.85 g/m*3 0.9 C 0 km/h
2892 24-12-2009 02:34:04 1 C 4.88 g/m*3 1 C 0 km/h
2893 24-12-2009 02:46:04 0.9 C 4.9 g/m*3 0.9 C 0 km/h
2894 24-12-2009 02:58:04 0.6 C 4.75 g/m*3 0.6 C 0 km/h
2895 24-12-2009 03:10:04 0.6 C 4.8 g/m*3 0.6 C 0 km/h
2896 24-12-2009 03:22:04 0.7 C 4.83 g/m*3 0.7 C 0 km/h
2897 24-12-2009 03:34:04 0.8 C 4.86 g/m*3 0.8 C 0 km/h
2898 24-12-2009 03:46:04 0.9 C 4.9 g/m*3 0.9 C 0 km/h
2899 24-12-2009 03:58:04 1 C 4.93 g/m*3 1 C 0 km/h
2900 24-12-2009 04:10:04 1.1 C 4.96 g/m*3 1.1 C 0 km/h
Sensor: Nr:Datum:Temp:Abs-Feuchte:Windchill:Wind:
Aussen-T/F 2901 24-12-2009 04:22:04 1.1 C 4.96 g/m*3 1.1 C 0 km/h
2902 24-12-2009 04:34:04 1.2 C 5 g/m*3 1.2 C 0 km/h
2903 24-12-2009 04:46:04 1.2 C 5 g/m*3 1.2 C 0 km/h
2904 24-12-2009 04:58:04 1.3 C 5.03 g/m*3 1.3 C 0 km/h
2905 24-12-2009 05:10:04 1.3 C 5.03 g/m*3 1.3 C 0 km/h
2906 24-12-2009 05:22:04 1.4 C 5.07 g/m*3 1.4 C 0 km/h
2907 24-12-2009 05:34:04 1.3 C 5.03 g/m*3 1.3 C 0 km/h
2908 24-12-2009 05:46:05 1.3 C 5.03 g/m*3 1.3 C 0 km/h
2909 24-12-2009 05:58:05 1.4 C 5.01 g/m*3 1.4 C 0 km/h
2910 24-12-2009 06:10:05 1.3 C 4.98 g/m*3 1.3 C 0 km/h
2911 24-12-2009 06:22:05 1.2 C 4.95 g/m*3 1.2 C 0 km/h
2912 24-12-2009 06:34:05 1.3 C 4.98 g/m*3 1.3 C 0 km/h
2913 24-12-2009 06:46:05 1.3 C 4.98 g/m*3 1.3 C 0 km/h
2914 24-12-2009 06:58:05 1.3 C 4.98 g/m*3 1.3 C 0 km/h
2915 24-12-2009 07:10:05 1.4 C 5.01 g/m*3 1.4 C 0 km/h
2916 24-12-2009 07:22:05 1.4 C 5.01 g/m*3 1.4 C 0 km/h
2917 24-12-2009 07:34:05 1.4 C 5.01 g/m*3 1.4 C 0 km/h
2918 24-12-2009 07:46:05 1.4 C 5.01 g/m*3 1.4 C 0 km/h
2919 24-12-2009 07:58:05 1.4 C 5.01 g/m*3 1.4 C 0 km/h
2920 24-12-2009 08:10:05 1.5 C 5.05 g/m*3 1.5 C 0 km/h
2921 24-12-2009 08:22:05 1.6 C 5.08 g/m*3 1.6 C 0 km/h
2922 24-12-2009 08:34:05 1.6 C 5.08 g/m*3 1.6 C 0 km/h
2923 24-12-2009 08:46:05 1.6 C 5.08 g/m*3 1.6 C 0 km/h
2924 24-12-2009 08:58:05 1.7 C 5.12 g/m*3 1.7 C 0 km/h
2925 24-12-2009 09:10:05 1.7 C 5.12 g/m*3 1.7 C 0 km/h
Sensor: Nr:Datum:Temp:Abs-Feuchte:Windchill:Wind:
Aussen-T/F 2926 24-12-2009 09:22:05 1.7 C 5.12 g/m*3 1.7 C 0 km/h
2927 24-12-2009 09:34:05 1.8 C 5.15 g/m*3 1.8 C 0 km/h
2928 24-12-2009 09:46:06 1.9 C 5.19 g/m*3 1.9 C 0 km/h
2929 24-12-2009 09:58:06 2 C 5.17 g/m*3 2 C 0 km/h
2930 24-12-2009 10:10:06 2 C 5.17 g/m*3 2 C 0 km/h
2931 24-12-2009 10:22:02 2.1 C 5.2 g/m*3 2.1 C 0 km/h
2932 24-12-2009 10:34:02 2.2 C 5.24 g/m*3 2.2 C 0 km/h
2933 24-12-2009 10:46:01 2.3 C 5.22 g/m*3 2.3 C 0 km/h
2934 24-12-2009 10:58:01 2.6 C 5.32 g/m*3 2.6 C 0 km/h
2935 24-12-2009 11:10:02 2.7 C 5.36 g/m*3 2.7 C 0 km/h
2936 24-12-2009 11:22:01 2.8 C 5.34 g/m*3 2.8 C 0 km/h
2937 24-12-2009 11:34:02 3 C 5.35 g/m*3 3 C 0 km/h
2938 24-12-2009 11:46:01 3.2 C 5.42 g/m*3 3.2 C 0 km/h
2939 24-12-2009 11:58:01 3.6 C 5.57 g/m*3 3.6 C 0 km/h
2940 24-12-2009 12:10:02 3.7 C 5.55 g/m*3 3.7 C 0 km/h
2941 24-12-2009 12:22:01 4.1 C 5.57 g/m*3 4.1 C 0 km/h
2942 24-12-2009 12:34:02 4.4 C 5.62 g/m*3 4.4 C 0 km/h
2943 24-12-2009 12:46:02 4.2 C 5.22 g/m*3 4.2 C 0 km/h
2944 24-12-2009 12:58:02 4.1 C 5.06 g/m*3 4.1 C 0 km/h
2945 24-12-2009 13:10:02 4 C 5.02 g/m*3 4 C 0 km/h
2946 24-12-2009 13:22:01 4 C 5.02 g/m*3 4 C 0 km/h
2947 24-12-2009 13:34:02 4.2 C 5.09 g/m*3 4.2 C 0 km/h
2948 24-12-2009 13:46:01 4.3 C 5.06 g/m*3 4.3 C 0 km/h
2949 24-12-2009 13:58:01 4.4 C 5.03 g/m*3 4.4 C 0 km/h
2950 24-12-2009 14:10:02 4.3 C 4.99 g/m*3 4.3 C 0 km/h
Sensor: Nr:Datum:Temp:Abs-Feuchte:Windchill:Wind:
Aussen-T/F 2951 24-12-2009 14:22:02 4.1 C 4.93 g/m*3 4.1 C 0 km/h
2952 24-12-2009 14:34:02 4.1 C 4.99 g/m*3 4.1 C 0 km/h
2953 24-12-2009 14:46:01 4.2 C 5.09 g/m*3 4.2 C 0 km/h
2954 24-12-2009 14:58:01 4 C 5.02 g/m*3 4 C 0 km/h
2955 24-12-2009 15:10:02 3.9 C 5.05 g/m*3 3.9 C 0 km/h
2956 24-12-2009 15:22:02 3.8 C 5.08 g/m*3 3.8 C 0 km/h
2957 24-12-2009 15:34:02 3.6 C 5.08 g/m*3 3.6 C 0 km/h
2958 24-12-2009 15:46:02 3.5 C 5.1 g/m*3 3.5 C 0 km/h
2959 24-12-2009 15:58:02 3.4 C 5.07 g/m*3 3.4 C 0 km/h
2960 24-12-2009 16:10:02 3.2 C 5.06 g/m*3 3.2 C 0 km/h
2961 24-12-2009 16:22:02 3 C 4.99 g/m*3 3 C 0 km/h
2962 24-12-2009 16:34:01 2.8 C 5.04 g/m*3 2.8 C 0 km/h
2963 24-12-2009 16:46:02 2.7 C 5.07 g/m*3 2.7 C 0 km/h
2964 24-12-2009 16:58:02 2.5 C 5 g/m*3 2.5 C 0 km/h
2965 24-12-2009 17:10:01 2.5 C 5.06 g/m*3 2.5 C 0 km/h
2966 24-12-2009 17:22:02 2.5 C 5.12 g/m*3 2.5 C 0 km/h
2967 24-12-2009 17:34:01 2.6 C 5.15 g/m*3 2.6 C 0 km/h
2968 24-12-2009 17:46:02 2.6 C 5.21 g/m*3 2.6 C 0 km/h
2969 24-12-2009 17:58:02 2.6 C 5.21 g/m*3 2.6 C 0 km/h
2970 24-12-2009 18:10:01 2.6 C 5.21 g/m*3 2.6 C 0 km/h
2971 24-12-2009 18:22:01 2.6 C 5.27 g/m*3 2.6 C 0 km/h
2972 24-12-2009 18:34:01 2.6 C 5.27 g/m*3 2.6 C 0 km/h
2973 24-12-2009 18:46:02 2.7 C 5.3 g/m*3 2.7 C 0 km/h
2974 24-12-2009 18:58:02 2.7 C 5.3 g/m*3 2.7 C 0 km/h
2975 24-12-2009 19:10:02 2.7 C 5.36 g/m*3 2.7 C 0 km/h
Sensor: Nr:Datum:Temp:Abs-Feuchte:Windchill:Wind:
Aussen-T/F 2976 24-12-2009 19:22:02 2.7 C 5.36 g/m*3 2.7 C 0 km/h
2977 24-12-2009 19:34:02 2.7 C 5.36 g/m*3 2.7 C 0 km/h
2978 24-12-2009 19:46:02 2.7 C 5.36 g/m*3 2.7 C 0 km/h
2979 24-12-2009 19:58:02 2.7 C 5.36 g/m*3 2.7 C 0 km/h
2980 24-12-2009 20:10:01 2.7 C 5.36 g/m*3 2.7 C 0 km/h
2981 24-12-2009 20:22:01 2.7 C 5.36 g/m*3 2.7 C 0 km/h
2982 24-12-2009 20:34:02 2.7 C 5.36 g/m*3 2.7 C 0 km/h
2983 24-12-2009 20:46:02 2.7 C 5.36 g/m*3 2.7 C 0 km/h
2984 24-12-2009 20:58:02 2.7 C 5.36 g/m*3 2.7 C 0 km/h
2985 24-12-2009 21:10:02 2.7 C 5.36 g/m*3 2.7 C 0 km/h
2986 24-12-2009 21:22:02 2.6 C 5.32 g/m*3 2.6 C 0 km/h
2987 24-12-2009 21:34:02 2.6 C 5.32 g/m*3 2.6 C 0 km/h
2988 24-12-2009 21:46:01 2.6 C 5.32 g/m*3 2.6 C 0 km/h
2989 24-12-2009 21:58:01 2.6 C 5.32 g/m*3 2.6 C 0 km/h
2990 24-12-2009 22:10:02 2.6 C 5.38 g/m*3 2.6 C 0 km/h
2991 24-12-2009 22:22:01 2.6 C 5.38 g/m*3 2.6 C 0 km/h
2992 24-12-2009 22:34:02 2.7 C 5.42 g/m*3 2.7 C 0 km/h
2993 24-12-2009 22:47:01 2.7 C 5.42 g/m*3 2.7 C 0 km/h
2994 24-12-2009 22:59:01 2.7 C 5.48 g/m*3 2.7 C 0 km/h
2995 24-12-2009 23:11:01 2.7 C 5.48 g/m*3 2.7 C 0 km/h
2996 24-12-2009 23:23:01 2.8 C 5.51 g/m*3 2.8 C 0 km/h
2997 24-12-2009 23:35:01 2.8 C 5.51 g/m*3 2.8 C 0 km/h
2998 24-12-2009 23:47:01 2.9 C 5.61 g/m*3 2.9 C 0 km/h
2999 24-12-2009 23:59:01 2.9 C 5.61 g/m*3 2.9 C 0 km/h
3000 25-12-2009 00:11:01 3 C 5.59 g/m*3 3 C 0 km/h
Sensor: Nr:Datum:Temp:Abs-Feuchte:Windchill:Wind:
Aussen-T/F 3001 25-12-2009 00:23:02 3 C 5.59 g/m*3 3 C 0 km/h
3002 25-12-2009 00:35:02 3 C 5.65 g/m*3 3 C 0 km/h
3003 25-12-2009 00:47:02 3.1 C 5.69 g/m*3 3.1 C 0 km/h
3004 25-12-2009 00:59:02 3.1 C 5.69 g/m*3 3.1 C 0 km/h
3005 25-12-2009 01:11:02 3.1 C 5.69 g/m*3 3.1 C 0 km/h
3006 25-12-2009 01:23:02 3 C 5.65 g/m*3 3 C 0 km/h
3007 25-12-2009 01:35:02 3 C 5.65 g/m*3 3 C 0 km/h
3008 25-12-2009 01:47:02 3.1 C 5.69 g/m*3 3.1 C 0 km/h
3009 25-12-2009 01:59:02 3.1 C 5.69 g/m*3 3.1 C 0 km/h
3010 25-12-2009 02:11:02 3.2 C 5.72 g/m*3 3.2 C 0 km/h
3011 25-12-2009 02:23:02 3.2 C 5.72 g/m*3 3.2 C 0 km/h
3012 25-12-2009 02:35:02 3.1 C 5.69 g/m*3 3.1 C 0 km/h
3013 25-12-2009 02:47:02 3.1 C 5.69 g/m*3 3.1 C 0 km/h
3014 25-12-2009 02:59:02 3.1 C 5.69 g/m*3 3.1 C 0 km/h
3015 25-12-2009 03:11:02 3.1 C 5.69 g/m*3 3.1 C 0 km/h
3016 25-12-2009 03:23:02 3.1 C 5.69 g/m*3 3.1 C 0 km/h
3017 25-12-2009 03:35:02 3.1 C 5.69 g/m*3 3.1 C 0 km/h
3018 25-12-2009 03:47:02 3.2 C 5.72 g/m*3 3.2 C 0 km/h
3019 25-12-2009 03:59:02 3.2 C 5.72 g/m*3 3.2 C 0 km/h
3020 25-12-2009 04:11:02 3.2 C 5.72 g/m*3 3.2 C 0 km/h
3021 25-12-2009 04:23:02 3.1 C 5.69 g/m*3 3.1 C 0 km/h
3022 25-12-2009 04:35:03 3.1 C 5.69 g/m*3 3.1 C 0 km/h
3023 25-12-2009 04:47:03 3.2 C 5.72 g/m*3 3.2 C 0 km/h
3024 25-12-2009 04:59:03 3.2 C 5.72 g/m*3 3.2 C 0 km/h
3025 25-12-2009 05:11:03 3.2 C 5.72 g/m*3 3.2 C 0 km/h
Sensor: Nr:Datum:Temp:Abs-Feuchte:Windchill:Wind:
Aussen-T/F 3026 25-12-2009 05:23:03 3.3 C 5.76 g/m*3 3.3 C 0 km/h
3027 25-12-2009 05:35:03 3.4 C 5.8 g/m*3 3.4 C 0 km/h
3028 25-12-2009 05:47:03 3.4 C 5.8 g/m*3 3.4 C 0 km/h
3029 25-12-2009 05:59:03 3.5 C 5.84 g/m*3 3.5 C 0 km/h
3030 25-12-2009 06:11:03 3.6 C 5.88 g/m*3 3.6 C 0 km/h
3031 25-12-2009 06:23:03 3.6 C 5.88 g/m*3 3.6 C 0 km/h
3032 25-12-2009 06:35:03 3.6 C 5.88 g/m*3 3.6 C 0 km/h
3033 25-12-2009 06:47:03 3.5 C 5.84 g/m*3 3.5 C 0 km/h
3034 25-12-2009 06:59:03 6.8 C 7.27 g/m*3 6.8 C 0 km/h
3035 25-12-2009 07:11:03 7.1 C 7.41 g/m*3 7.1 C 0 km/h
3036 25-12-2009 07:23:03 7.1 C 7.41 g/m*3 7.1 C 0 km/h
3037 25-12-2009 07:35:03 6.8 C 7.11 g/m*3 6.8 C 0 km/h
3038 25-12-2009 07:47:03 6.4 C 6.56 g/m*3 6.4 C 0 km/h
3039 25-12-2009 07:59:03 5.9 C 6.06 g/m*3 5.9 C 0 km/h
3040 25-12-2009 08:11:03 5.6 C 5.87 g/m*3 5.6 C 0 km/h
3041 25-12-2009 08:23:03 5.1 C 5.68 g/m*3 5.1 C 0 km/h
3042 25-12-2009 08:35:03 4.8 C 5.5 g/m*3 4.8 C 0 km/h
3043 25-12-2009 08:47:04 4.4 C 5.09 g/m*3 4.4 C 0 km/h
3044 25-12-2009 08:59:04 4.2 C 4.77 g/m*3 4.2 C 0 km/h
3045 25-12-2009 09:11:04 4.1 C 4.67 g/m*3 4.1 C 0 km/h
3046 25-12-2009 09:23:04 4 C 4.58 g/m*3 4 C 0 km/h
3047 25-12-2009 09:35:04 4 C 4.58 g/m*3 4 C 0 km/h
3048 25-12-2009 09:47:01 4 C 4.64 g/m*3 4 C 0 km/h
3049 25-12-2009 09:59:01 3.8 C 4.64 g/m*3 3.8 C 0 km/h
3050 25-12-2009 10:11:02 4 C 4.64 g/m*3 4 C 0 km/h
Sensor: Nr:Datum:Temp:Abs-Feuchte:Windchill:Wind:
Aussen-T/F 3051 25-12-2009 10:23:01 4.1 C 4.74 g/m*3 4.1 C 0 km/h
3052 25-12-2009 10:35:02 4.2 C 4.77 g/m*3 4.2 C 0 km/h
3053 25-12-2009 10:47:02 4.3 C 4.8 g/m*3 4.3 C 0 km/h
3054 25-12-2009 10:59:02 4.1 C 4.67 g/m*3 4.1 C 0 km/h
3055 25-12-2009 11:11:02 4.1 C 4.67 g/m*3 4.1 C 0 km/h
3056 25-12-2009 11:23:02 4.5 C 4.73 g/m*3 4.5 C 0 km/h
3057 25-12-2009 11:35:02 4.7 C 4.73 g/m*3 4.7 C 0 km/h
3058 25-12-2009 11:47:02 5 C 4.69 g/m*3 5 C 0 km/h
3059 25-12-2009 11:59:02 5.2 C 4.68 g/m*3 5.2 C 0 km/h
3060 25-12-2009 12:11:03 5.2 C 4.75 g/m*3 5.2 C 0 km/h
3061 25-12-2009 12:23:02 5.3 C 4.78 g/m*3 5.3 C 0 km/h
3062 25-12-2009 12:35:03 5.5 C 4.78 g/m*3 5.5 C 0 km/h
3063 25-12-2009 12:47:02 5.7 C 4.84 g/m*3 5.7 C 0 km/h
3064 25-12-2009 12:59:02 5.9 C 4.83 g/m*3 5.9 C 0 km/h
3065 25-12-2009 13:11:02 6 C 4.72 g/m*3 6 C 0 km/h
3066 25-12-2009 13:23:01 6 C 4.65 g/m*3 6 C 0 km/h
3067 25-12-2009 13:35:02 6.2 C 4.71 g/m*3 6.2 C 0 km/h
3068 25-12-2009 13:47:02 6.3 C 4.66 g/m*3 6.3 C 0 km/h
3069 25-12-2009 13:59:02 6.2 C 4.56 g/m*3 6.2 C 0 km/h
3070 25-12-2009 14:11:02 6.2 C 4.56 g/m*3 6.2 C 0 km/h
3071 25-12-2009 14:23:02 6 C 4.5 g/m*3 6 C 0 km/h
3072 25-12-2009 14:35:02 5.9 C 4.61 g/m*3 5.9 C 0 km/h
3073 25-12-2009 14:47:02 5.8 C 4.58 g/m*3 5.8 C 0 km/h
3074 25-12-2009 14:59:03 5.8 C 4.66 g/m*3 5.8 C 0 km/h
3075 25-12-2009 15:11:01 5.7 C 4.7 g/m*3 5.7 C 0 km/h
Sensor: Nr:Datum:Temp:Abs-Feuchte:Windchill:Wind:
Aussen-T/F 3076 25-12-2009 15:23:02 5.7 C 4.77 g/m*3 5.7 C 0 km/h
3077 25-12-2009 15:35:02 5.6 C 4.88 g/m*3 5.6 C 0 km/h
3078 25-12-2009 15:47:02 5.4 C 4.95 g/m*3 5.4 C 0 km/h
3079 25-12-2009 15:59:02 5.4 C 4.95 g/m*3 5.4 C 0 km/h
3080 25-12-2009 16:11:02 5.4 C 4.88 g/m*3 5.4 C 0 km/h
3081 25-12-2009 16:23:02 5.1 C 4.92 g/m*3 5.1 C 0 km/h
3082 25-12-2009 16:35:03 5 C 4.89 g/m*3 5 C 0 km/h
3083 25-12-2009 16:47:02 5 C 4.89 g/m*3 5 C 0 km/h
3084 25-12-2009 16:59:02 4.8 C 4.9 g/m*3 4.8 C 0 km/h
3085 25-12-2009 17:11:02 4.7 C 4.93 g/m*3 4.7 C 0 km/h
3086 25-12-2009 17:23:01 4.9 C 4.93 g/m*3 4.9 C 0 km/h
3087 25-12-2009 17:35:02 5 C 4.76 g/m*3 5 C 0 km/h
3088 25-12-2009 17:47:02 5 C 4.69 g/m*3 5 C 0 km/h
3089 25-12-2009 17:59:02 4.7 C 4.66 g/m*3 4.7 C 0 km/h
3090 25-12-2009 18:11:02 4.6 C 4.63 g/m*3 4.6 C 0 km/h
3091 25-12-2009 18:23:02 4.7 C 4.66 g/m*3 4.7 C 0 km/h
3092 25-12-2009 18:35:02 4.7 C 4.6 g/m*3 4.7 C 0 km/h
3093 25-12-2009 18:47:02 4.7 C 4.6 g/m*3 4.7 C 0 km/h
3094 25-12-2009 18:59:02 4.7 C 4.53 g/m*3 4.7 C 0 km/h
3095 25-12-2009 19:11:02 4.7 C 4.46 g/m*3 4.7 C 0 km/h
3096 25-12-2009 19:23:02 4.5 C 4.47 g/m*3 4.5 C 0 km/h
3097 25-12-2009 19:35:02 4.2 C 4.45 g/m*3 4.2 C 0 km/h
3098 25-12-2009 19:47:02 4.2 C 4.38 g/m*3 4.2 C 0 km/h
3099 25-12-2009 19:59:02 4.3 C 4.28 g/m*3 4.3 C 0 km/h
3100 25-12-2009 20:11:02 4.6 C 4.04 g/m*3 4.6 C 0 km/h
Sensor: Nr:Datum:Temp:Abs-Feuchte:Windchill:Wind:
Aussen-T/F 3101 25-12-2009 20:23:02 4.5 C 3.88 g/m*3 4.5 C 0 km/h
3102 25-12-2009 20:35:02 4.5 C 3.88 g/m*3 4.5 C 0 km/h
3103 25-12-2009 20:47:01 4.3 C 3.89 g/m*3 4.3 C 0 km/h
3104 25-12-2009 20:59:01 4.1 C 4.03 g/m*3 4.1 C 0 km/h
3105 25-12-2009 21:11:01 3.8 C 4.27 g/m*3 3.8 C 0 km/h
3106 25-12-2009 21:23:02 3.6 C 4.39 g/m*3 3.6 C 0 km/h
3107 25-12-2009 21:35:01 3.5 C 4.43 g/m*3 3.5 C 0 km/h
3108 25-12-2009 21:47:03 3.4 C 4.46 g/m*3 3.4 C 0 km/h
3109 25-12-2009 21:59:03 3.7 C 4.55 g/m*3 3.7 C 0 km/h
3110 25-12-2009 22:11:03 3.9 C 4.48 g/m*3 3.9 C 0 km/h
3111 25-12-2009 22:23:02 4 C 4.32 g/m*3 4 C 0 km/h
3112 25-12-2009 22:35:03 3.8 C 4.33 g/m*3 3.8 C 0 km/h
3113 25-12-2009 22:48:03 3.8 C 4.33 g/m*3 3.8 C 0 km/h
3114 25-12-2009 23:00:03 3.8 C 4.27 g/m*3 3.8 C 0 km/h
3115 25-12-2009 23:12:04 3.7 C 4.24 g/m*3 3.7 C 0 km/h
3116 25-12-2009 23:24:04 3.8 C 4.27 g/m*3 3.8 C 0 km/h
3117 25-12-2009 23:36:04 3.8 C 4.27 g/m*3 3.8 C 0 km/h
3118 25-12-2009 23:48:04 3.8 C 4.27 g/m*3 3.8 C 0 km/h
3119 26-12-2009 00:00:04 3.8 C 4.27 g/m*3 3.8 C 0 km/h
3120 26-12-2009 00:12:04 3.8 C 4.14 g/m*3 3.8 C 0 km/h
3121 26-12-2009 00:24:04 3.5 C 4 g/m*3 3.5 C 0 km/h
3122 26-12-2009 00:36:04 3.4 C 3.97 g/m*3 3.4 C 0 km/h
3123 26-12-2009 00:48:04 3 C 3.92 g/m*3 3 C 0 km/h
3124 26-12-2009 01:00:04 2.6 C 4.05 g/m*3 2.6 C 0 km/h
3125 26-12-2009 01:12:04 2.5 C 4.08 g/m*3 2.5 C 0 km/h
Sensor: Nr:Datum:Temp:Abs-Feuchte:Windchill:Wind:
Aussen-T/F 3126 26-12-2009 01:24:04 2.5 C 4.08 g/m*3 2.5 C 0 km/h
3127 26-12-2009 01:36:04 2.8 C 4.11 g/m*3 2.8 C 0 km/h
3128 26-12-2009 01:48:04 2.7 C 4.08 g/m*3 2.7 C 0 km/h
3129 26-12-2009 02:00:04 2.7 C 4.14 g/m*3 2.7 C 0 km/h
3130 26-12-2009 02:12:04 2.6 C 4.17 g/m*3 2.6 C 0 km/h
3131 26-12-2009 02:24:04 2.8 C 4.34 g/m*3 2.8 C 0 km/h
3132 26-12-2009 02:36:04 2.8 C 4.34 g/m*3 2.8 C 0 km/h
3133 26-12-2009 02:48:04 2.7 C 4.31 g/m*3 2.7 C 0 km/h
3134 26-12-2009 03:00:04 2.7 C 4.37 g/m*3 2.7 C 0 km/h
3135 26-12-2009 03:12:05 2.6 C 4.4 g/m*3 2.6 C 0 km/h
3136 26-12-2009 03:24:05 2.5 C 4.43 g/m*3 2.5 C 0 km/h
3137 26-12-2009 03:36:05 2.4 C 4.45 g/m*3 2.4 C 0 km/h
3138 26-12-2009 03:48:05 2.6 C 4.51 g/m*3 2.6 C 0 km/h
3139 26-12-2009 04:00:05 2.7 C 4.54 g/m*3 2.7 C 0 km/h
3140 26-12-2009 04:12:05 2.7 C 4.49 g/m*3 2.7 C 0 km/h
3141 26-12-2009 04:24:05 2.5 C 4.48 g/m*3 2.5 C 0 km/h
3142 26-12-2009 04:36:05 2.5 C 4.48 g/m*3 2.5 C 0 km/h
3143 26-12-2009 04:48:05 2.7 C 4.6 g/m*3 2.7 C 0 km/h
3144 26-12-2009 05:00:05 2.7 C 4.6 g/m*3 2.7 C 0 km/h
3145 26-12-2009 05:12:05 2.8 C 4.58 g/m*3 2.8 C 0 km/h
3146 26-12-2009 05:24:05 2.8 C 4.52 g/m*3 2.8 C 0 km/h
3147 26-12-2009 05:36:05 2.5 C 4.43 g/m*3 2.5 C 0 km/h
3148 26-12-2009 05:48:05 2.7 C 4.54 g/m*3 2.7 C 0 km/h
3149 26-12-2009 06:00:05 2.7 C 4.54 g/m*3 2.7 C 0 km/h
3150 26-12-2009 06:12:05 2.8 C 4.52 g/m*3 2.8 C 0 km/h
Sensor: Nr:Datum:Temp:Abs-Feuchte:Windchill:Wind:
Aussen-T/F 3151 26-12-2009 06:24:05 2.8 C 4.52 g/m*3 2.8 C 0 km/h
3152 26-12-2009 06:36:05 2.9 C 4.55 g/m*3 2.9 C 0 km/h
3153 26-12-2009 06:48:05 2.8 C 4.52 g/m*3 2.8 C 0 km/h
3154 26-12-2009 07:00:05 2.7 C 4.54 g/m*3 2.7 C 0 km/h
3155 26-12-2009 07:12:05 2.6 C 4.57 g/m*3 2.6 C 0 km/h
3156 26-12-2009 07:24:05 2.6 C 4.57 g/m*3 2.6 C 0 km/h
3157 26-12-2009 07:36:05 2.5 C 4.6 g/m*3 2.5 C 0 km/h
3158 26-12-2009 07:48:06 2.2 C 4.51 g/m*3 2.2 C 0 km/h
3159 26-12-2009 08:00:06 2 C 4.5 g/m*3 2 C 0 km/h
3160 26-12-2009 08:12:06 1.7 C 4.46 g/m*3 1.7 C 0 km/h
3161 26-12-2009 08:24:06 1.9 C 4.58 g/m*3 1.9 C 0 km/h
3162 26-12-2009 08:36:06 1.7 C 4.52 g/m*3 1.7 C 0 km/h
3163 26-12-2009 08:48:06 1.6 C 4.54 g/m*3 1.6 C 0 km/h
3164 26-12-2009 09:00:06 1.7 C 4.57 g/m*3 1.7 C 0 km/h
3165 26-12-2009 09:12:06 1.8 C 4.6 g/m*3 1.8 C 0 km/h
3166 26-12-2009 09:24:06 2.1 C 4.59 g/m*3 2.1 C 0 km/h
3167 26-12-2009 09:36:03 2.3 C 4.59 g/m*3 2.3 C 0 km/h
3168 26-12-2009 09:48:02 2.7 C 4.6 g/m*3 2.7 C 0 km/h
3169 26-12-2009 10:00:02 3 C 4.58 g/m*3 3 C 0 km/h
3170 26-12-2009 10:12:01 3.2 C 4.52 g/m*3 3.2 C 0 km/h
3171 26-12-2009 10:24:02 3.3 C 4.55 g/m*3 3.3 C 0 km/h
3172 26-12-2009 10:36:02 3.4 C 4.58 g/m*3 3.4 C 0 km/h
3173 26-12-2009 10:48:02 3.5 C 4.61 g/m*3 3.5 C 0 km/h
3174 26-12-2009 11:00:02 3.8 C 4.71 g/m*3 3.8 C 0 km/h
3175 26-12-2009 11:12:02 3.9 C 4.74 g/m*3 3.9 C 0 km/h
Sensor: Nr:Datum:Temp:Abs-Feuchte:Windchill:Wind:
Aussen-T/F 3176 26-12-2009 11:24:02 3.6 C 4.64 g/m*3 3.6 C 0 km/h
3177 26-12-2009 11:36:02 3.7 C 4.74 g/m*3 3.7 C 0 km/h
3178 26-12-2009 11:48:02 4 C 4.83 g/m*3 4 C 0 km/h
3179 26-12-2009 12:00:02 4.1 C 4.8 g/m*3 4.1 C 0 km/h
3180 26-12-2009 12:12:02 4.1 C 4.74 g/m*3 4.1 C 0 km/h
3181 26-12-2009 12:24:01 3.8 C 4.71 g/m*3 3.8 C 0 km/h
3182 26-12-2009 12:36:02 3.7 C 4.67 g/m*3 3.7 C 0 km/h
3183 26-12-2009 12:48:02 3.6 C 4.64 g/m*3 3.6 C 0 km/h
3184 26-12-2009 13:00:02 3.6 C 4.7 g/m*3 3.6 C 0 km/h
3185 26-12-2009 13:12:02 3.9 C 4.74 g/m*3 3.9 C 0 km/h
3186 26-12-2009 13:24:01 3.9 C 4.74 g/m*3 3.9 C 0 km/h
3187 26-12-2009 13:36:02 4 C 4.7 g/m*3 4 C 0 km/h
3188 26-12-2009 13:48:02 4.1 C 4.67 g/m*3 4.1 C 0 km/h
3189 26-12-2009 14:00:02 4 C 4.64 g/m*3 4 C 0 km/h
3190 26-12-2009 14:12:02 3.9 C 4.74 g/m*3 3.9 C 0 km/h
3191 26-12-2009 14:24:01 4.1 C 4.74 g/m*3 4.1 C 0 km/h
3192 26-12-2009 14:36:02 4.2 C 4.7 g/m*3 4.2 C 0 km/h
3193 26-12-2009 14:48:02 4.1 C 4.67 g/m*3 4.1 C 0 km/h
3194 26-12-2009 15:00:02 3.7 C 4.67 g/m*3 3.7 C 0 km/h
3195 26-12-2009 15:12:02 3.5 C 4.67 g/m*3 3.5 C 0 km/h
3196 26-12-2009 15:24:02 3.3 C 4.67 g/m*3 3.3 C 0 km/h
3197 26-12-2009 15:36:02 3.1 C 4.67 g/m*3 3.1 C 0 km/h
3198 26-12-2009 15:48:01 3 C 4.7 g/m*3 3 C 0 km/h
3199 26-12-2009 16:00:01 2.8 C 4.75 g/m*3 2.8 C 0 km/h
3200 26-12-2009 16:12:02 2.7 C 4.72 g/m*3 2.7 C 0 km/h
Sensor: Nr:Datum:Temp:Abs-Feuchte:Windchill:Wind:
Aussen-T/F 3201 26-12-2009 16:24:02 2.7 C 4.72 g/m*3 2.7 C 0 km/h
3202 26-12-2009 16:36:02 2.5 C 4.66 g/m*3 2.5 C 0 km/h
3203 26-12-2009 16:48:02 2.2 C 4.56 g/m*3 2.2 C 0 km/h
3204 26-12-2009 17:00:02 1.6 C 4.43 g/m*3 1.6 C 0 km/h
3205 26-12-2009 17:12:02 1.4 C 4.48 g/m*3 1.4 C 0 km/h
3206 26-12-2009 17:24:02 1.4 C 4.53 g/m*3 1.4 C 0 km/h
3207 26-12-2009 17:36:01 1.7 C 4.68 g/m*3 1.7 C 0 km/h
3208 26-12-2009 17:48:02 1.6 C 4.54 g/m*3 1.6 C 0 km/h
3209 26-12-2009 18:00:02 1 C 4.36 g/m*3 1 C 0 km/h
3210 26-12-2009 18:12:02 0.6 C 4.29 g/m*3 0.6 C 0 km/h
3211 26-12-2009 18:24:02 0.5 C 4.26 g/m*3 0.5 C 0 km/h
3212 26-12-2009 18:36:02 0.3 C 4.25 g/m*3 0.3 C 0 km/h
3213 26-12-2009 18:48:02 0.3 C 4.3 g/m*3 0.3 C 0 km/h
3214 26-12-2009 19:00:02 0.1 C 4.24 g/m*3 0.1 C 0 km/h
3215 26-12-2009 19:12:02 0.1 C 4.29 g/m*3 0.1 C 0 km/h
3216 26-12-2009 19:24:02 0.1 C 4.29 g/m*3 0.1 C 0 km/h
3217 26-12-2009 19:36:02 -0.1 C 4.23 g/m*3 -0.1 C 0 km/h
3218 26-12-2009 19:48:02 -0.3 C 4.22 g/m*3 -0.3 C 0 km/h
3219 26-12-2009 20:00:02 -0.5 C 4.17 g/m*3 -0.5 C 0 km/h
3220 26-12-2009 20:12:02 -0.7 C 4.11 g/m*3 -0.7 C 0 km/h
3221 26-12-2009 20:24:02 -0.5 C 4.17 g/m*3 -0.5 C 0 km/h
3222 26-12-2009 20:36:02 -0.4 C 4.24 g/m*3 -0.4 C 0 km/h
3223 26-12-2009 20:48:01 -0.7 C 4.15 g/m*3 -0.7 C 0 km/h
3224 26-12-2009 21:00:01 -0.8 C 4.17 g/m*3 -0.8 C 0 km/h
3225 26-12-2009 21:12:02 -0.8 C 4.17 g/m*3 -0.8 C 0 km/h
Sensor: Nr:Datum:Temp:Abs-Feuchte:Windchill:Wind:
Aussen-T/F 3226 26-12-2009 21:24:01 -0.8 C 4.17 g/m*3 -0.8 C 0 km/h
3227 26-12-2009 21:36:01 -0.8 C 4.17 g/m*3 -0.8 C 0 km/h
3228 26-12-2009 21:48:01 -0.8 C 4.17 g/m*3 -0.8 C 0 km/h
3229 26-12-2009 22:00:01 -0.9 C 4.14 g/m*3 -0.9 C 0 km/h
3230 26-12-2009 22:12:01 -0.9 C 4.19 g/m*3 -0.9 C 0 km/h
3231 26-12-2009 22:24:01 -1 C 4.16 g/m*3 -1 C 0 km/h
3232 26-12-2009 22:36:02 -1.1 C 4.09 g/m*3 -1.1 C 0 km/h
3233 26-12-2009 22:49:03 -1.2 C 4.06 g/m*3 -1.2 C 0 km/h
3234 26-12-2009 23:01:03 -1.1 C 4.13 g/m*3 -1.1 C 0 km/h
3235 26-12-2009 23:13:03 -1.3 C 4.07 g/m*3 -1.3 C 0 km/h
3236 26-12-2009 23:25:03 -1.2 C 4.1 g/m*3 -1.2 C 0 km/h
3237 26-12-2009 23:37:03 -1.4 C 4.04 g/m*3 -1.4 C 0 km/h
3238 26-12-2009 23:49:03 -1.6 C 3.99 g/m*3 -1.6 C 0 km/h
3239 27-12-2009 00:01:03 -1.6 C 3.99 g/m*3 -1.6 C 0 km/h
3240 27-12-2009 00:13:03 -1.8 C 3.93 g/m*3 -1.8 C 0 km/h
3241 27-12-2009 00:25:03 -1.8 C 3.93 g/m*3 -1.8 C 0 km/h
3242 27-12-2009 00:37:03 -1.8 C 3.93 g/m*3 -1.8 C 0 km/h
3243 27-12-2009 00:49:03 -1.9 C 3.91 g/m*3 -1.9 C 0 km/h
3244 27-12-2009 01:01:03 -1.8 C 3.93 g/m*3 -1.8 C 0 km/h
3245 27-12-2009 01:13:03 -1.9 C 3.91 g/m*3 -1.9 C 0 km/h